Provisional Data: Yellow Breeches Creek near Lisburn, PA


Please select a monitoring station.
Please select start date.
Please select start date.

Toggle Unit: C/F Toggle Unit: C/F
Sample Time Temperature (C) Temperature (F) Specific Conductivity (mS/cm) pH   Turbidity (NTU+) DO (mg/L)
12/11/2021 12:00:00 AM 7.39 45.302 0.294 8.05 3.64 10.69
12/11/2021 12:15:00 AM 7.4 45.32 0.294 8.04 3.88 10.66
12/11/2021 12:30:00 AM 7.41 45.338 0.295 8.03 3.58 10.66
12/11/2021 12:45:00 AM 7.43 45.374 0.295 8.02 4.28 10.6
12/11/2021 1:00:00 AM 7.44 45.392 0.295 8.01 4.57 10.58
12/11/2021 1:15:00 AM 7.44 45.392 0.294 8.01 3.75 10.56
12/11/2021 1:30:00 AM 7.44 45.392 0.294 8 3.83 10.55
12/11/2021 1:45:00 AM 7.45 45.41 0.293 8 3.8 10.5
12/11/2021 2:00:00 AM 7.46 45.428 0.293 7.99 3.8 10.51
12/11/2021 2:15:00 AM 7.46 45.428 0.294 7.98 4.41 10.44
12/11/2021 2:30:00 AM 7.46 45.428 0.294 7.97 3.47 10.44
12/11/2021 2:45:00 AM 7.47 45.446 0.295 7.97 3.91 10.35
12/11/2021 3:00:00 AM 7.49 45.482 0.297 7.96 3.95 10.4
12/11/2021 3:15:00 AM 7.5 45.5 0.299 7.95 3.51 10.33
12/11/2021 3:30:00 AM 7.5 45.5 0.298 7.95 3.7 10.35
12/11/2021 3:45:00 AM 7.51 45.518 0.298 7.94 3.78 10.34
12/11/2021 4:00:00 AM 7.51 45.518 0.298 7.93 3.97 10.35
12/11/2021 4:15:00 AM 7.52 45.536 0.298 7.92 4.26 10.34
12/11/2021 4:30:00 AM 7.52 45.536 0.297 7.91 3.83 10.29
12/11/2021 4:45:00 AM 7.53 45.554 0.297 7.91 4.15 10.32
12/11/2021 5:00:00 AM 7.54 45.572 0.297 7.9 3.91 10.28
12/11/2021 5:15:00 AM 7.54 45.572 0.297 7.9 4.15 10.22
12/11/2021 5:30:00 AM 7.55 45.59 0.298 7.89 3.51 10.27
12/11/2021 5:45:00 AM 7.56 45.608 0.299 7.89 4.03 10.23
12/11/2021 6:00:00 AM 7.57 45.626 0.3 7.88 3.97 10.21
12/11/2021 6:15:00 AM 7.58 45.644 0.3 7.87 4.12 10.16
12/11/2021 6:30:00 AM 7.59 45.662 0.301 7.86 4.1 10.21
12/11/2021 6:45:00 AM 7.61 45.698 0.3 7.86 3.82 10.18
12/11/2021 7:00:00 AM 7.62 45.716 0.3 7.85 3.61 10.13
12/11/2021 7:15:00 AM 7.62 45.716 0.299 7.85 3.75 10.18
12/11/2021 7:30:00 AM 7.65 45.77 0.3 7.84 3.84 10.14
12/11/2021 7:45:00 AM 7.65 45.77 0.298 7.84 4.1 10.15
12/11/2021 8:00:00 AM 7.67 45.806 0.299 7.84 4.33 10.15
12/11/2021 8:15:00 AM 7.67 45.806 0.298 7.83 3.87 10.12
12/11/2021 8:30:00 AM 7.7 45.86 0.299 7.83 3.94 10.15
12/11/2021 8:45:00 AM 7.71 45.878 0.299 7.83 3.53 10.18
12/11/2021 9:00:00 AM 7.73 45.914 0.3 7.83 3.63 10.2
12/11/2021 9:15:00 AM 7.76 45.968 0.3 7.83 3.6 10.23
12/11/2021 9:30:00 AM 7.79 46.022 0.301 7.83 3.74 10.23
12/11/2021 9:45:00 AM 7.81 46.058 0.3 7.83 3.71 10.34
12/11/2021 10:00:00 AM 7.83 46.094 0.299 7.84 3.83 10.42
12/11/2021 10:15:00 AM 7.87 46.166 0.299 7.84 3.64 10.42
12/11/2021 10:30:00 AM 7.89 46.202 0.298 7.85 3.96 10.45
12/11/2021 10:45:00 AM 7.93 46.274 0.297 7.86 3.62 10.5
12/11/2021 11:00:00 AM 7.96 46.328 0.296 7.87 3.88 10.58
12/11/2021 11:15:00 AM 8 46.4 0.296 7.87 3.94 10.6
12/11/2021 11:30:00 AM 8.05 46.49 0.298 7.88 4.06 10.63
12/11/2021 11:45:00 AM 8.09 46.562 0.297 7.89 3.69 10.72
12/11/2021 12:00:00 PM 8.19 46.742 0.297 7.9 4.07 10.83
12/11/2021 12:15:00 PM 8.25 46.85 0.297 7.93 3.64 11.03
12/11/2021 12:30:00 PM 8.34 47.012 0.297 7.95 3.52 11.23
12/11/2021 12:45:00 PM 8.44 47.192 0.298 7.98 3.84 11.31
12/11/2021 1:00:00 PM 8.48 47.264 0.296 8.01 4.05 11.43
12/11/2021 1:15:00 PM 8.54 47.372 0.295 8.04 3.45 11.58
12/11/2021 1:30:00 PM 8.62 47.516 0.295 8.06 4.54 11.65
12/11/2021 1:45:00 PM 8.68 47.624 0.294 8.09 3.76 11.71
12/11/2021 2:00:00 PM 8.77 47.786 0.296 8.09 3.84 11.52
12/11/2021 2:15:00 PM 8.8 47.84 0.296 8.09 3.77 11.5
12/11/2021 2:30:00 PM 8.83 47.894 0.294 8.11 3.81 11.46
12/11/2021 2:45:00 PM 8.86 47.948 0.294 8.13 4.14 11.54
12/11/2021 3:00:00 PM 8.92 48.056 0.294 8.14 3.75 11.67
12/11/2021 3:15:00 PM 9 48.2 0.294 8.15 3.84 11.69
12/11/2021 3:30:00 PM 9.07 48.326 0.295 8.18 4.08 11.71
12/11/2021 3:45:00 PM 9.1 48.38 0.294 8.18 3.84 11.7
12/11/2021 4:00:00 PM 9.14 48.452 0.294 8.18 3.79 11.59
12/11/2021 4:15:00 PM 9.17 48.506 0.294 8.18 3.77 11.52
12/11/2021 4:30:00 PM 9.22 48.596 0.294 8.17 3.8 11.37
12/11/2021 4:45:00 PM 9.25 48.65 0.295 8.16 4.05 11.19
12/11/2021 5:00:00 PM 9.26 48.668 0.294 8.16 4.13 11.13
12/11/2021 5:15:00 PM 9.31 48.758 0.294 8.13 3.66 10.9
12/11/2021 5:30:00 PM 9.31 48.758 0.295 8.12 3.85 10.96
12/11/2021 5:45:00 PM 9.35 48.83 0.295 8.11 3.75 10.85
12/11/2021 6:00:00 PM 9.38 48.884 0.295 8.09 3.79 10.81
12/11/2021 6:15:00 PM 9.42 48.956 0.295 8.08 4.07 10.75
12/11/2021 6:30:00 PM 9.43 48.974 0.296 8.07 3.83 10.65
12/11/2021 6:45:00 PM 9.46 49.028 0.296 8.06 4.31 10.57
12/11/2021 7:00:00 PM 9.5 49.1 0.296 8.04 5.15 10.47
12/11/2021 7:15:00 PM 9.52 49.136 0.296 8.03 3.95 10.38
12/11/2021 7:30:00 PM 9.57 49.226 0.297 8.01 3.56 10.22
12/11/2021 7:45:00 PM 9.61 49.298 0.296 8 4.08 10.19
12/11/2021 8:00:00 PM 9.62 49.316 0.298 7.98 5 10.1
12/11/2021 8:15:00 PM 9.61 49.298 0.296 7.96 4.24 10.01
12/11/2021 8:30:00 PM 9.58 49.244 0.296 7.95 3.82 9.97
12/11/2021 8:45:00 PM 9.58 49.244 0.298 7.94 4.01 9.93
12/11/2021 9:00:00 PM 9.57 49.226 0.299 7.93 3.75 9.91
12/11/2021 9:15:00 PM 9.56 49.208 0.3 7.92 3.66 9.83
12/11/2021 9:30:00 PM 9.54 49.172 0.301 7.92 4.57 9.86
12/11/2021 9:45:00 PM 9.5 49.1 0.3 7.91 5.46 9.74
12/11/2021 10:00:00 PM 9.48 49.064 0.299 7.91 4.18 9.78
12/11/2021 10:15:00 PM 9.45 49.01 0.3 7.9 4.29 9.79
12/11/2021 10:30:00 PM 9.38 48.884 0.3 7.89 4.18 9.74
12/11/2021 10:45:00 PM 9.35 48.83 0.297 7.9 4.22 9.76
12/11/2021 11:00:00 PM 9.3 48.74 0.297 7.89 4.81 9.72
12/11/2021 11:15:00 PM 9.27 48.686 0.297 7.89 3.93 9.76
12/11/2021 11:30:00 PM 9.21 48.578 0.299 7.89 4.21 9.67
12/11/2021 11:45:00 PM 9.21 48.578 0.299 7.88 3.82 9.67
12/12/2021 12:00:00 AM 9.2 48.56 0.3 7.88 3.75 9.7
12/12/2021 12:15:00 AM 9.16 48.488 0.301 7.87 3.9 9.66
12/12/2021 12:30:00 AM 9.14 48.452 0.301 7.86 4 9.58
12/12/2021 12:45:00 AM 9.08 48.344 0.302 7.86 3.98 9.59
12/12/2021 1:00:00 AM 9.05 48.29 0.3 7.86 4.6 9.6
12/12/2021 1:15:00 AM 9.01 48.218 0.3 7.86 9.23 9.62
12/12/2021 1:30:00 AM 8.98 48.164 0.299 7.86 9.52 9.61
12/12/2021 1:45:00 AM 8.96 48.128 0.297 7.85 4.02 9.68
12/12/2021 2:00:00 AM 8.89 48.002 0.298 7.85 3.97 9.63
12/12/2021 2:15:00 AM 8.88 47.984 0.298 7.85 4.91 9.6
12/12/2021 2:30:00 AM 8.84 47.912 0.297 7.85 4.09 9.65
12/12/2021 2:45:00 AM 8.79 47.822 0.298 7.85 3.95 9.62
12/12/2021 3:00:00 AM 8.75 47.75 0.299 7.85 4.56 9.63
12/12/2021 3:15:00 AM 8.74 47.732 0.299 7.84 4.46 9.68
12/12/2021 3:30:00 AM 8.69 47.642 0.299 7.84 4.05 9.65
12/12/2021 3:45:00 AM 8.66 47.588 0.299 7.84 4.43 9.66
12/12/2021 4:00:00 AM 8.61 47.498 0.299 7.83 4.31 9.51
12/12/2021 4:15:00 AM 8.56 47.408 0.298 7.83 4.25 9.58
12/12/2021 4:30:00 AM 8.48 47.264 0.297 7.83 6.11 9.39
12/12/2021 4:45:00 AM 8.45 47.21 0.297 7.83 4.25 9.42
12/12/2021 5:00:00 AM 8.39 47.102 0.295 7.83 4.26 9.45
12/12/2021 5:15:00 AM 8.35 47.03 0.296 7.83 3.99 9.75
12/12/2021 5:30:00 AM 8.32 46.976 0.297 7.83 4.27 9.56
12/12/2021 5:45:00 AM 8.3 46.94 0.296 7.83 4.25 9.58
12/12/2021 6:00:00 AM 8.26 46.868 0.297 7.82 4.33 9.38
12/12/2021 6:15:00 AM 8.18 46.724 0.298 7.82 4.02 9.7
12/12/2021 6:30:00 AM 8.16 46.688 0.297 7.82 4.41 9.74
12/12/2021 6:45:00 AM 8.1 46.58 0.297 7.82 4.97 9.74
12/12/2021 7:00:00 AM 8.06 46.508 0.297 7.82 4.6 9.79
12/12/2021 7:15:00 AM 8.02 46.436 0.297 7.82 3.56 9.84
12/12/2021 7:30:00 AM 7.99 46.382 0.296 7.82 4.53 9.68
12/12/2021 7:45:00 AM 7.95 46.31 0.296 7.82 4.36 9.86
12/12/2021 8:00:00 AM 7.89 46.202 0.294 7.82 4.3 9.97
12/12/2021 8:15:00 AM 7.88 46.184 0.295 7.83 3.72 10.02
12/12/2021 8:30:00 AM 7.88 46.184 0.296 7.82 3.92 10.04
12/12/2021 8:45:00 AM 7.83 46.094 0.296 7.83 4.33 10.14
12/12/2021 9:00:00 AM 7.79 46.022 0.297 7.84 4.47 10.28
12/12/2021 9:15:00 AM 7.76 45.968 0.296 7.85 4.1 10.34
12/12/2021 9:30:00 AM 7.75 45.95 0.297 7.87 4.17 10.48
12/12/2021 9:45:00 AM 7.76 45.968 0.296 7.88 4.02 10.66
12/12/2021 10:00:00 AM 7.76 45.968 0.295 7.9 3.7 10.81
12/12/2021 10:15:00 AM 7.74 45.932 0.295 7.92 3.91 10.91
12/12/2021 10:30:00 AM 7.73 45.914 0.294 7.93 3.74 11.04
12/12/2021 10:45:00 AM 7.74 45.932 0.293 7.95 3.89 11.11
12/12/2021 11:00:00 AM 7.76 45.968 0.292 7.97 4.2 11.26
12/12/2021 11:15:00 AM 7.75 45.95 0.293 7.99 3.88 11.4
12/12/2021 11:30:00 AM 7.78 46.004 0.293 8.02 3.78 11.5
12/12/2021 11:45:00 AM 7.77 45.986 0.292 8.04 5.28 11.65
12/12/2021 12:00:00 PM 7.78 46.004 0.294 8.06 4.12 11.74
12/12/2021 12:15:00 PM 7.82 46.076 0.294 8.09 4.7 11.86
12/12/2021 12:30:00 PM 7.83 46.094 0.293 8.11 4.43 11.95
12/12/2021 12:45:00 PM 7.82 46.076 0.292 8.14 3.73 12.13
12/12/2021 1:00:00 PM 7.85 46.13 0.292 8.16 4.06 12.17
12/12/2021 1:15:00 PM 7.84 46.112 0.291 8.19 3.72 12.33
12/12/2021 1:30:00 PM 7.84 46.112 0.291 8.21 5.28 12.33
12/12/2021 1:45:00 PM 7.86 46.148 0.291 8.23 4.63 12.44
12/12/2021 2:00:00 PM 7.86 46.148 0.291 8.25 3.81 12.45
12/12/2021 2:15:00 PM 7.87 46.166 0.291 8.27 3.96 12.38
12/12/2021 2:30:00 PM 7.83 46.094 0.289 8.29 4.65 12.57
12/12/2021 2:45:00 PM 7.82 46.076 0.291 8.3 4.4 12.5
12/12/2021 3:00:00 PM 7.79 46.022 0.292 8.32 4.21 12.56
12/12/2021 3:15:00 PM 7.8 46.04 0.291 8.34 3.84 12.62
12/12/2021 3:30:00 PM 7.77 45.986 0.292 8.34 4.44 12.46
12/12/2021 3:45:00 PM 7.73 45.914 0.292 8.35 3.58 12.49
12/12/2021 4:00:00 PM 7.69 45.842 0.291 8.36 5.56 12.58
12/12/2021 4:15:00 PM 7.66 45.788 0.291 8.36 3.89 12.49
12/12/2021 4:30:00 PM 7.64 45.752 0.291 8.36 3.71 12.43
12/12/2021 4:45:00 PM 7.59 45.662 0.291 8.36 3.52 12.32
12/12/2021 5:00:00 PM 7.56 45.608 0.291 8.35 3.85 12.16
12/12/2021 5:15:00 PM 7.52 45.536 0.291 8.34 3.8 12.13
12/12/2021 5:30:00 PM 7.49 45.482 0.291 8.33 3.55 12.03
12/12/2021 5:45:00 PM 7.44 45.392 0.292 8.31 3.61 11.93
12/12/2021 6:00:00 PM 7.41 45.338 0.292 8.29 3.61 11.84
12/12/2021 6:15:00 PM 7.36 45.248 0.293 8.27 4.02 11.75
12/12/2021 6:30:00 PM 7.33 45.194 0.293 8.25 3.59 11.54
12/12/2021 6:45:00 PM 7.28 45.104 0.294 8.24 3.94 11.58
12/12/2021 7:00:00 PM 7.25 45.05 0.293 8.24 3.77 11.54
12/12/2021 7:15:00 PM 7.23 45.014 0.292 8.22 3.64 11.47
12/12/2021 7:30:00 PM 7.16 44.888 0.293 8.21 3.68 11.4
12/12/2021 7:45:00 PM 7.15 44.87 0.293 8.2 3.88 11.35
12/12/2021 8:00:00 PM 7.11 44.798 0.293 8.18 3.79 11.26
12/12/2021 8:15:00 PM 7.09 44.762 0.294 8.16 4.02 11.23
12/12/2021 8:30:00 PM 7.07 44.726 0.294 8.15 3.6 11.22
12/12/2021 8:45:00 PM 7.05 44.69 0.295 8.14 3.78 11.17
12/12/2021 9:00:00 PM 7.02 44.636 0.296 8.13 3.86 11.11
12/12/2021 9:15:00 PM 7.01 44.618 0.297 8.12 3.89 11.08
12/12/2021 9:30:00 PM 6.97 44.546 0.297 8.1 4.23 11.06
12/12/2021 9:45:00 PM 6.93 44.474 0.298 8.09 4.22 10.98
12/12/2021 10:00:00 PM 6.91 44.438 0.297 8.09 3.84 11
12/12/2021 10:15:00 PM 6.88 44.384 0.297 8.08 3.56 10.97
12/12/2021 10:30:00 PM 6.85 44.33 0.296 8.07 3.98 10.93
12/12/2021 10:45:00 PM 6.81 44.258 0.296 8.07 3.91 10.92
12/12/2021 11:00:00 PM 6.78 44.204 0.295 8.06 3.8 10.91
12/12/2021 11:15:00 PM 6.74 44.132 0.295 8.06 3.75 10.89
12/12/2021 11:30:00 PM 6.71 44.078 0.296 8.05 3.76 10.87
12/12/2021 11:45:00 PM 6.63 43.934 0.297 8.04 3.76 10.86
12/13/2021 12:00:00 AM 6.63 43.934 0.298 8.04 3.88 10.81
12/13/2021 12:15:00 AM 6.61 43.898 0.299 8.02 3.62 10.81
12/13/2021 12:30:00 AM 6.58 43.844 0.3 8.02 3.58 10.83
12/13/2021 12:45:00 AM 6.55 43.79 0.3 8.01 3.85 10.77
12/13/2021 1:00:00 AM 6.5 43.7 0.299 8.01 3.72 10.82
12/13/2021 1:15:00 AM 6.45 43.61 0.299 8 4.44 10.81
12/13/2021 1:30:00 AM 6.41 43.538 0.299 8 4.53 10.77
12/13/2021 1:45:00 AM 6.38 43.484 0.297 8 3.79 10.75
12/13/2021 2:00:00 AM 6.35 43.43 0.296 8 3.85 10.78
12/13/2021 2:15:00 AM 6.3 43.34 0.296 7.99 7.24 10.78
12/13/2021 2:30:00 AM 6.25 43.25 0.296 7.98 3.8 10.77
12/13/2021 2:45:00 AM 6.21 43.178 0.296 7.98 5.09 10.79
12/13/2021 3:00:00 AM 6.18 43.124 0.297 7.98 4.59 10.78
12/13/2021 3:15:00 AM 6.15 43.07 0.298 7.97 4.23 10.8
12/13/2021 3:30:00 AM 6.1 42.98 0.298 7.96 4.3 10.8
12/13/2021 3:45:00 AM 6.08 42.944 0.298 7.96 4.3 10.79
12/13/2021 4:00:00 AM 6.04 42.872 0.298 7.95 5.63 10.78
12/13/2021 4:15:00 AM 6.02 42.836 0.298 7.95 3.72 10.75
12/13/2021 4:30:00 AM 5.95 42.71 0.297 7.94 5.46 10.74
12/13/2021 4:45:00 AM 5.9 42.62 0.296 7.94 4.13 10.74
12/13/2021 5:00:00 AM 5.87 42.566 0.295 7.93 4.13 10.82
12/13/2021 5:15:00 AM 5.82 42.476 0.295 7.93 4.39 10.83
12/13/2021 5:30:00 AM 5.78 42.404 0.295 7.92 3.73 10.79
12/13/2021 5:45:00 AM 5.76 42.368 0.296 7.91 4.78 10.8
12/13/2021 6:00:00 AM 5.71 42.278 0.297 7.91 4.09 10.84
12/13/2021 6:15:00 AM 5.67 42.206 0.297 7.9 4.44 10.74
12/13/2021 6:30:00 AM 5.62 42.116 0.298 7.9 4.03 10.86
12/13/2021 6:45:00 AM 5.59 42.062 0.297 7.9 3.78 10.87
12/13/2021 7:00:00 AM 5.54 41.972 0.297 7.9 4.28 10.89
12/13/2021 7:15:00 AM 5.51 41.918 0.297 7.9 3.73 10.84
12/13/2021 7:30:00 AM 5.46 41.828 0.296 7.89 4.34 10.91
12/13/2021 7:45:00 AM 5.44 41.792 0.296 7.9 3.65 10.97
12/13/2021 8:00:00 AM 5.4 41.72 0.295 7.9 4.87 11.01
12/13/2021 8:15:00 AM 5.37 41.666 0.295 7.9 4.31 11.07
12/13/2021 8:30:00 AM 5.36 41.648 0.295 7.9 3.83 11.18
12/13/2021 8:45:00 AM 5.33 41.594 0.296 7.9 3.67 11.24
12/13/2021 9:00:00 AM 5.32 41.576 0.297 7.91 3.93 11.25
12/13/2021 9:15:00 AM 5.32 41.576 0.297 7.91 3.66 11.4
12/13/2021 9:30:00 AM 5.34 41.612 0.298 7.92 3.75 11.44
12/13/2021 9:45:00 AM 5.39 41.702 0.301 7.93 3.55 11.65
12/13/2021 10:00:00 AM 5.39 41.702 0.297 7.95 3.87 11.75
12/13/2021 10:15:00 AM 5.42 41.756 0.296 7.96 3.96 11.86
12/13/2021 10:30:00 AM 5.45 41.81 0.295 7.98 3.46 11.99
12/13/2021 10:45:00 AM 5.49 41.882 0.294 7.99 3.59 12.09
12/13/2021 11:00:00 AM 5.54 41.972 0.294 8.01 3.65 12.17
12/13/2021 11:15:00 AM 5.58 42.044 0.292 8.02 3.72 12.32
12/13/2021 11:30:00 AM 5.62 42.116 0.292 8.04 3.85 12.37
12/13/2021 11:45:00 AM 5.67 42.206 0.291 8.07 3.81 12.41
12/13/2021 12:00:00 PM 5.73 42.314 0.292 8.07 3.49 12.39
12/13/2021 12:15:00 PM 5.78 42.404 0.292 8.1 3.61 12.67
12/13/2021 12:30:00 PM 5.83 42.494 0.292 8.13 3.51 12.84
12/13/2021 12:45:00 PM 5.89 42.602 0.292 8.13 4.13 12.63
12/13/2021 1:00:00 PM 5.93 42.674 0.291 8.16 3.91 12.81
12/13/2021 1:15:00 PM 5.98 42.764 0.291 8.19 3.66 12.97
12/13/2021 1:30:00 PM 6.02 42.836 0.291 8.21 3.49 12.98
12/13/2021 1:45:00 PM 6.04 42.872 0.29 8.23 4.07 12.99
12/13/2021 2:00:00 PM 6.09 42.962 0.288 8.26 3.69 13.13
12/13/2021 2:15:00 PM 6.12 43.016 0.288 8.26 7.6 13.03
12/13/2021 2:30:00 PM 6.15 43.07 0.288 8.29 4.66 13.13
12/13/2021 2:45:00 PM 6.19 43.142 0.289 8.3 4.2 13.07
12/13/2021 3:00:00 PM 6.2 43.16 0.288 8.32 3.83 13.19
12/13/2021 3:15:00 PM 6.22 43.196 0.288 8.33 3.73 13.11
12/13/2021 3:30:00 PM 6.24 43.232 0.288 8.34 3.79 13.17
12/13/2021 3:45:00 PM 6.24 43.232 0.288 8.35 4.2 13.12
12/13/2021 4:00:00 PM 6.24 43.232 0.288 8.35 3.76 13.07
12/13/2021 4:15:00 PM 6.24 43.232 0.288 8.36 3.61 13.04
12/13/2021 4:30:00 PM 6.22 43.196 0.287 8.36 3.75 12.91
12/13/2021 4:45:00 PM 6.19 43.142 0.287 8.35 3.49 12.86
12/13/2021 5:00:00 PM 6.17 43.106 0.288 8.33 3.59 12.66
12/13/2021 5:15:00 PM 6.14 43.052 0.288 8.32 3.66 12.47
12/13/2021 5:30:00 PM 6.12 43.016 0.287 8.31 3.41 12.52
12/13/2021 5:45:00 PM 6.09 42.962 0.288 8.3 3.66 12.44
12/13/2021 6:00:00 PM 6.08 42.944 0.288 8.28 3.51 12.36
12/13/2021 6:15:00 PM 6.06 42.908 0.289 8.27 3.49 12.24
12/13/2021 6:30:00 PM 6.04 42.872 0.289 8.25 4.02 12.12
12/13/2021 6:45:00 PM 6.03 42.854 0.289 8.24 3.74 12.07
12/13/2021 7:00:00 PM 6 42.8 0.289 8.23 3.86 11.99
12/13/2021 7:15:00 PM 5.99 42.782 0.289 8.21 4.09 11.97
12/13/2021 7:30:00 PM 5.97 42.746 0.289 8.2 3.87 11.89
12/13/2021 7:45:00 PM 5.96 42.728 0.289 8.19 3.73 11.85
12/13/2021 8:00:00 PM 5.95 42.71 0.289 8.18 3.4 11.73
12/13/2021 8:15:00 PM 5.91 42.638 0.289 8.16 3.58 11.69
12/13/2021 8:30:00 PM 5.91 42.638 0.29 8.15 3.62 11.66
12/13/2021 8:45:00 PM 5.9 42.62 0.291 8.14 3.95 11.53
12/13/2021 9:00:00 PM 5.88 42.584 0.292 8.12 3.89 11.53
12/13/2021 9:15:00 PM 5.87 42.566 0.294 8.1 3.8 11.42
12/13/2021 9:30:00 PM 5.9 42.62 0.295 8.1 3.63 11.44
12/13/2021 9:45:00 PM 5.88 42.584 0.295 8.09 3.54 11.46
12/13/2021 10:00:00 PM 5.87 42.566 0.295 8.08 3.52 11.42
12/13/2021 10:15:00 PM 5.84 42.512 0.294 8.07 3.45 11.39
12/13/2021 10:30:00 PM 5.84 42.512 0.293 8.07 3.72 11.37
12/13/2021 10:45:00 PM 5.8 42.44 0.292 8.06 4.03 11.35
12/13/2021 11:00:00 PM 5.81 42.458 0.291 8.06 3.82 11.26
12/13/2021 11:15:00 PM 5.81 42.458 0.291 8.05 4.08 11.3
12/13/2021 11:30:00 PM 5.76 42.368 0.291 8.05 3.39 11.28
12/13/2021 11:45:00 PM 5.76 42.368 0.292 8.04 3.67 11.23
12/14/2021 12:00:00 AM 5.77 42.386 0.293 8.03 3.47 11.23
12/14/2021 12:15:00 AM 5.76 42.368 0.294 8.02 3.7 11.17
12/14/2021 12:30:00 AM 5.75 42.35 0.295 8.02 3.82 11.21
12/14/2021 12:45:00 AM 5.72 42.296 0.295 8.01 3.91 11.2
12/14/2021 1:00:00 AM 5.69 42.242 0.295 8.01 3.42 11.14
12/14/2021 1:15:00 AM 5.67 42.206 0.294 8 3.57 11.09
12/14/2021 1:30:00 AM 5.65 42.17 0.293 8 3.62 11.16
12/14/2021 1:45:00 AM 5.63 42.134 0.294 7.99 3.59 11.12
12/14/2021 2:00:00 AM 5.58 42.044 0.293 7.99 4.01 11.1
12/14/2021 2:15:00 AM 5.56 42.008 0.292 7.99 3.57 11.01
12/14/2021 2:30:00 AM 5.54 41.972 0.292 7.98 3.51 11.11
12/14/2021 2:45:00 AM 5.48 41.864 0.293 7.98 3.46 11.12
12/14/2021 3:00:00 AM 5.5 41.9 0.294 7.97 3.59 11.12
12/14/2021 3:15:00 AM 5.48 41.864 0.294 7.97 3.53 11.1
12/14/2021 3:30:00 AM 5.45 41.81 0.295 7.96 3.87 11.09
12/14/2021 3:45:00 AM 5.43 41.774 0.295 7.96 3.77 11.12
12/14/2021 4:00:00 AM 5.4 41.72 0.295 7.95 3.54 11.09
12/14/2021 4:15:00 AM 5.38 41.684 0.295 7.94 3.88 11.1
12/14/2021 4:30:00 AM 5.34 41.612 0.294 7.94 3.89 11.07
12/14/2021 4:45:00 AM 5.32 41.576 0.294 7.94 4.09 11.09
12/14/2021 5:00:00 AM 5.27 41.486 0.294 7.93 4.57 11.11
12/14/2021 5:15:00 AM 5.25 41.45 0.294 7.93 4.54 11.12
12/14/2021 5:30:00 AM 5.21 41.378 0.294 7.92 4.14 11.12
12/14/2021 5:45:00 AM 5.2 41.36 0.296 7.92 3.7 11.1
12/14/2021 6:00:00 AM 5.18 41.324 0.297 7.91 3.6 11.12
12/14/2021 6:15:00 AM 5.15 41.27 0.298 7.91 4.48 11.12
12/14/2021 6:30:00 AM 5.12 41.216 0.298 7.9 3.96 11.12
12/14/2021 6:45:00 AM 5.09 41.162 0.299 7.9 3.61 11.12
12/14/2021 7:00:00 AM 5.05 41.09 0.298 7.9 3.59 11.16
12/14/2021 7:15:00 AM 5.02 41.036 0.298 7.89 4.12 11.17
12/14/2021 7:30:00 AM 4.98 40.964 0.297 7.89 3.73 11.18
12/14/2021 7:45:00 AM 4.95 40.91 0.297 7.89 3.57 11.2
12/14/2021 8:00:00 AM 4.94 40.892 0.296 7.89 4.68 11.26
12/14/2021 8:15:00 AM 4.92 40.856 0.296 7.89 3.92 11.31
12/14/2021 8:30:00 AM 4.91 40.838 0.296 7.89 3.65 11.4
12/14/2021 8:45:00 AM 4.91 40.838 0.297 7.9 3.56 11.46
12/14/2021 9:00:00 AM 4.91 40.838 0.298 7.9 3.9 11.55
12/14/2021 9:15:00 AM 4.92 40.856 0.298 7.91 3.86 11.63
12/14/2021 9:30:00 AM 4.93 40.874 0.299 7.92 4.7 11.72
12/14/2021 9:45:00 AM 4.98 40.964 0.299 7.93 3.87 11.84
12/14/2021 10:00:00 AM 5.05 41.09 0.3 7.93 4.12 11.77
12/14/2021 10:15:00 AM 5.09 41.162 0.298 7.94 3.65 11.91
12/14/2021 10:30:00 AM 5.11 41.198 0.296 7.96 3.6 12.12
12/14/2021 10:45:00 AM 5.16 41.288 0.295 7.97 3.32 12.24
12/14/2021 11:00:00 AM 5.23 41.414 0.295 7.99 3.73 12.24
12/14/2021 11:15:00 AM 5.27 41.486 0.293 8.01 3.37 12.26
12/14/2021 11:30:00 AM 5.32 41.576 0.293 8.03 3.59 12.54
12/14/2021 11:45:00 AM 5.39 41.702 0.295 8.05 3.94 12.62
12/14/2021 12:00:00 PM 5.43 41.774 0.293 8.08 3.48 12.78
12/14/2021 12:15:00 PM 5.5 41.9 0.293 8.1 3.9 12.88
12/14/2021 12:30:00 PM 5.56 42.008 0.293 8.12 3.8 12.84
12/14/2021 12:45:00 PM 5.63 42.134 0.294 8.14 3.63 13.01
12/14/2021 1:00:00 PM 5.67 42.206 0.293 8.17 3.55 13.07
12/14/2021 1:15:00 PM 5.74 42.332 0.292 8.19 3.78 13.07
12/14/2021 1:30:00 PM 5.79 42.422 0.291 8.21 3.45 13.3
12/14/2021 1:45:00 PM 5.84 42.512 0.292 8.23 3.87 13.26
12/14/2021 2:00:00 PM 5.89 42.602 0.291 8.25 3.66 13.21
12/14/2021 2:15:00 PM 5.94 42.692 0.289 8.27 3.84 13.35
12/14/2021 2:30:00 PM 5.98 42.764 0.289 8.29 3.73 13.38
12/14/2021 2:45:00 PM 6.02 42.836 0.29 8.3 3.56 13.21
12/14/2021 3:00:00 PM 6.04 42.872 0.289 8.32 5.56 13.37
12/14/2021 3:15:00 PM 6.07 42.926 0.289 8.32 3.98 13.22
12/14/2021 3:30:00 PM 6.09 42.962 0.29 8.34 3.77 13.39
12/14/2021 3:45:00 PM 6.1 42.98 0.29 8.35 3.65 13.32
12/14/2021 4:00:00 PM 6.12 43.016 0.29 8.35 3.57 13.26
12/14/2021 4:15:00 PM 6.12 43.016 0.29 8.35 3.97 13.17
12/14/2021 4:30:00 PM 6.1 42.98 0.29 8.35 3.74 13.12
12/14/2021 4:45:00 PM 6.09 42.962 0.29 8.35 3.53 13.07
12/14/2021 5:00:00 PM 6.08 42.944 0.29 8.33 3.65 12.89
12/14/2021 5:15:00 PM 6.07 42.926 0.29 8.32 3.64 12.73
12/14/2021 5:30:00 PM 6.05 42.89 0.29 8.31 3.85 12.65
12/14/2021 5:45:00 PM 6.03 42.854 0.291 8.29 3.94 12.54
12/14/2021 6:00:00 PM 6.01 42.818 0.292 8.28 4.18 12.46
12/14/2021 6:15:00 PM 6 42.8 0.292 8.27 3.86 12.45
12/14/2021 6:30:00 PM 5.98 42.764 0.293 8.25 4.12 12.24
12/14/2021 6:45:00 PM 5.97 42.746 0.293 8.24 4.26 12.18
12/14/2021 7:00:00 PM 5.96 42.728 0.293 8.23 3.68 12.19
12/14/2021 7:15:00 PM 5.96 42.728 0.294 8.21 3.71 11.95
12/14/2021 7:30:00 PM 5.95 42.71 0.293 8.2 3.76 12.06
12/14/2021 7:45:00 PM 5.93 42.674 0.293 8.19 3.64 12
12/14/2021 8:00:00 PM 5.91 42.638 0.293 8.18 3.59 11.9
12/14/2021 8:15:00 PM 5.89 42.602 0.293 8.16 3.6 11.72
12/14/2021 8:30:00 PM 5.89 42.602 0.294 8.15 3.97 11.75
12/14/2021 8:45:00 PM 5.89 42.602 0.294 8.14 3.32 11.71
12/14/2021 9:00:00 PM 5.85 42.53 0.295 8.12 3.48 11.66
12/14/2021 9:15:00 PM 5.87 42.566 0.297 8.11 3.52 11.6
12/14/2021 9:30:00 PM 5.86 42.548 0.297 8.1 3.77 11.42
12/14/2021 9:45:00 PM 5.84 42.512 0.298 8.09 3.62 11.36
12/14/2021 10:00:00 PM 5.83 42.494 0.298 8.08 3.49 11.45
12/14/2021 10:15:00 PM 5.82 42.476 0.297 8.07 3.84 11.4
12/14/2021 10:30:00 PM 5.82 42.476 0.297 8.07 3.55 11.39
12/14/2021 10:45:00 PM 5.81 42.458 0.296 8.06 3.46 11.41
12/14/2021 11:00:00 PM 5.78 42.404 0.295 8.06 3.75 11.36
12/14/2021 11:15:00 PM 5.75 42.35 0.295 8.05 3.64 11.37
12/14/2021 11:30:00 PM 5.76 42.368 0.295 8.05 4.06 11.34
12/14/2021 11:45:00 PM 5.75 42.35 0.296 8.04 4.23 11.31
12/15/2021 12:00:00 AM 5.71 42.278 0.297 8.02 3.92 11.24
12/15/2021 12:15:00 AM 5.71 42.278 0.299 8.02 3.74 11.32
12/15/2021 12:30:00 AM 5.69 42.242 0.3 8.02 3.75 11.23
12/15/2021 12:45:00 AM 5.68 42.224 0.3 8.02 4.08 11.21
12/15/2021 1:00:00 AM 5.64 42.152 0.299 8.01 3.63 11.23
12/15/2021 1:15:00 AM 5.63 42.134 0.299 8.01 3.45 11.23
12/15/2021 1:30:00 AM 5.6 42.08 0.299 8.01 4.03 11.17
12/15/2021 1:45:00 AM 5.55 41.99 0.297 8 3.93 11.14
12/15/2021 2:00:00 AM 5.54 41.972 0.297 8 3.32 11.23
12/15/2021 2:15:00 AM 5.51 41.918 0.296 8 3.98 11.22
12/15/2021 2:30:00 AM 5.47 41.846 0.295 7.99 5.71 11.19
12/15/2021 2:45:00 AM 5.45 41.81 0.296 7.99 3.69 11.15
12/15/2021 3:00:00 AM 5.41 41.738 0.296 7.98 3.75 11.18
12/15/2021 3:15:00 AM 5.38 41.684 0.297 7.98 3.66 11.23
12/15/2021 3:30:00 AM 5.35 41.63 0.297 7.98 4.07 11.12
12/15/2021 3:45:00 AM 5.33 41.594 0.298 7.97 4.21 11.21
12/15/2021 4:00:00 AM 5.29 41.522 0.298 7.97 3.64 11.12
12/15/2021 4:15:00 AM 5.26 41.468 0.297 7.97 4.18 11.2
12/15/2021 4:30:00 AM 5.22 41.396 0.297 7.96 4.09 11.17
12/15/2021 4:45:00 AM 5.18 41.324 0.296 7.96 3.88 11.11
12/15/2021 5:00:00 AM 5.16 41.288 0.295 7.95 3.41 11.22
12/15/2021 5:15:00 AM 5.12 41.216 0.295 7.95 3.69 11.19
12/15/2021 5:30:00 AM 5.1 41.18 0.296 7.95 3.48 11.23
12/15/2021 5:45:00 AM 5.08 41.144 0.296 7.94 3.38 11.2
12/15/2021 6:00:00 AM 5.03 41.054 0.297 7.93 3.74 11.23
12/15/2021 6:15:00 AM 5 41 0.298 7.93 3.58 11.15
12/15/2021 6:30:00 AM 4.95 40.91 0.299 7.92 4.4 11.17
12/15/2021 6:45:00 AM 4.93 40.874 0.299 7.92 4.06 11.22
12/15/2021 7:00:00 AM 4.91 40.838 0.299 7.91 3.74 11.22
12/15/2021 7:15:00 AM 4.87 40.766 0.298 7.91 3.97 11.28
12/15/2021 7:30:00 AM 4.85 40.73 0.298 7.91 3.93 11.26
12/15/2021 7:45:00 AM 4.82 40.676 0.297 7.91 3.44 11.29
12/15/2021 8:00:00 AM 4.8 40.64 0.296 7.91 4.01 11.33
12/15/2021 8:15:00 AM 4.81 40.658 0.296 7.91 3.61 11.45
12/15/2021 8:30:00 AM 4.81 40.658 0.296 7.92 3.49 11.44
12/15/2021 8:45:00 AM 4.83 40.694 0.296 7.92 3.55 11.59
12/15/2021 9:00:00 AM 4.85 40.73 0.297 7.93 4.19 11.69
12/15/2021 9:15:00 AM 4.87 40.766 0.297 7.94 3.63 11.74
12/15/2021 9:30:00 AM 4.91 40.838 0.298 7.95 3.7 11.99
12/15/2021 9:45:00 AM 4.95 40.91 0.298 7.96 3.52 12.03
12/15/2021 10:00:00 AM 5 41 0.298 7.98 3.64 12.16
12/15/2021 10:15:00 AM 5.02 41.036 0.297 7.99 3.88 12.3
12/15/2021 10:30:00 AM 5.05 41.09 0.296 8 3.5 12.39
12/15/2021 10:45:00 AM 5.09 41.162 0.295 8.01 3.55 12.56
12/15/2021 11:00:00 AM 5.15 41.27 0.294 8.03 3.46 12.63
12/15/2021 11:15:00 AM 5.19 41.342 0.293 8.05 3.4 12.8
12/15/2021 11:30:00 AM 5.26 41.468 0.293 8.07 3.46 12.71
12/15/2021 11:45:00 AM 5.35 41.63 0.294 8.08 3.62 12.7
12/15/2021 12:00:00 PM 5.39 41.702 0.293 8.11 3.92 13
12/15/2021 12:15:00 PM 5.46 41.828 0.294 8.14 3.65 13.27
12/15/2021 12:30:00 PM 5.52 41.936 0.293 8.17 3.97 13.4
12/15/2021 12:45:00 PM 5.6 42.08 0.294 8.21 4.46 13.38
12/15/2021 1:00:00 PM 5.68 42.224 0.292 8.24 3.98 13.64
12/15/2021 1:15:00 PM 5.79 42.422 0.292 8.27 3.57 13.75
12/15/2021 1:30:00 PM 5.88 42.584 0.291 8.3 3.75 13.84
12/15/2021 1:45:00 PM 5.94 42.692 0.29 8.33 3.65 13.9
12/15/2021 2:00:00 PM 6.01 42.818 0.289 8.35 3.89 13.96
12/15/2021 2:15:00 PM 6.06 42.908 0.289 8.38 4.09 14
12/15/2021 2:30:00 PM 6.13 43.034 0.289 8.39 3.57 13.84
12/15/2021 2:45:00 PM 6.16 43.088 0.288 8.42 4.1 14.02
12/15/2021 3:00:00 PM 6.21 43.178 0.289 8.43 4 13.98
12/15/2021 3:15:00 PM 6.26 43.268 0.289 8.44 3.38 13.7
12/15/2021 3:30:00 PM 6.28 43.304 0.289 8.45 3.63 13.93
12/15/2021 3:45:00 PM 6.32 43.376 0.289 8.45 4.03 13.89
12/15/2021 4:00:00 PM 6.35 43.43 0.289 8.46 3.58 13.46
12/15/2021 4:15:00 PM 6.36 43.448 0.289 8.46 4.24 13.72
12/15/2021 4:30:00 PM 6.38 43.484 0.288 8.46 4.52 13.46
12/15/2021 4:45:00 PM 6.39 43.502 0.288 8.46 3.76 13.51
12/15/2021 5:00:00 PM 6.41 43.538 0.288 8.45 3.96 13.36
12/15/2021 5:15:00 PM 6.43 43.574 0.288 8.43 4.43 13.2
12/15/2021 5:30:00 PM 6.45 43.61 0.289 8.42 3.42 13.04
12/15/2021 5:45:00 PM 6.47 43.646 0.292 8.4 3.57 12.57
12/15/2021 6:00:00 PM 6.49 43.682 0.29 8.38 3.7 12.56
12/15/2021 6:15:00 PM 6.5 43.7 0.29 8.36 3.67 12.67
12/15/2021 6:30:00 PM 6.52 43.736 0.291 8.34 3.73 12.51
12/15/2021 6:45:00 PM 6.53 43.754 0.291 8.32 3.64 12.31
12/15/2021 7:00:00 PM 6.55 43.79 0.291 8.3 4.1 12.29
12/15/2021 7:15:00 PM 6.56 43.808 0.291 8.28 3.83 12.13
12/15/2021 7:30:00 PM 6.58 43.844 0.291 8.26 3.74 12.04
12/15/2021 7:45:00 PM 6.59 43.862 0.291 8.24 3.63 11.84
12/15/2021 8:00:00 PM 6.61 43.898 0.29 8.22 3.57 11.92
12/15/2021 8:15:00 PM 6.64 43.952 0.291 8.2 3.91 11.43
12/15/2021 8:30:00 PM 6.65 43.97 0.291 8.18 4 11.7
12/15/2021 8:45:00 PM 6.68 44.024 0.292 8.16 3.83 11.43
12/15/2021 9:00:00 PM 6.71 44.078 0.293 8.14 3.62 11.53
12/15/2021 9:15:00 PM 6.74 44.132 0.295 8.12 3.58 11.46
12/15/2021 9:30:00 PM 6.78 44.204 0.296 8.11 3.62 11.39
12/15/2021 9:45:00 PM 6.81 44.258 0.296 8.09 3.81 11.32
12/15/2021 10:00:00 PM 6.84 44.312 0.297 8.08 3.91 11.34
12/15/2021 10:15:00 PM 6.87 44.366 0.296 8.07 4.22 11.24
12/15/2021 10:30:00 PM 6.9 44.42 0.296 8.06 3.82 11.18
12/15/2021 10:45:00 PM 6.92 44.456 0.294 8.05 3.73 11.21
12/15/2021 11:00:00 PM 6.94 44.492 0.294 8.04 3.66 11.13
12/15/2021 11:15:00 PM 6.95 44.51 0.293 8.03 3.81 11.07
12/15/2021 11:30:00 PM 6.97 44.546 0.293 8.03 4.05 11.07
12/15/2021 11:45:00 PM 6.97 44.546 0.294 8.02 3.81 10.95
12/16/2021 12:00:00 AM 7 44.6 0.296 8.01 3.93 10.9
12/16/2021 12:15:00 AM 7.02 44.636 0.298 8 3.68 10.86
12/16/2021 12:30:00 AM 7.02 44.636 0.297 8 3.53 10.92
12/16/2021 12:45:00 AM 7.04 44.672 0.298 7.99 3.75 10.87
12/16/2021 1:00:00 AM 7.03 44.654 0.298 7.98 3.65 10.78
12/16/2021 1:15:00 AM 7.04 44.672 0.297 7.98 3.8 10.84
12/16/2021 1:30:00 AM 7.06 44.708 0.297 7.97 3.74 10.74
12/16/2021 1:45:00 AM 7.07 44.726 0.296 7.97 3.55 10.73
12/16/2021 2:00:00 AM 7.09 44.762 0.295 7.97 3.75 10.76
12/16/2021 2:15:00 AM 7.1 44.78 0.295 7.96 3.72 10.7
12/16/2021 2:30:00 AM 7.12 44.816 0.295 7.96 3.62 10.66
12/16/2021 2:45:00 AM 7.12 44.816 0.295 7.95 3.69 10.68
12/16/2021 3:00:00 AM 7.13 44.834 0.296 7.95 3.62 10.64
12/16/2021 3:15:00 AM 7.14 44.852 0.297 7.94 3.77 10.62
12/16/2021 3:30:00 AM 7.14 44.852 0.297 7.94 3.71 10.63
12/16/2021 3:45:00 AM 7.15 44.87 0.297 7.93 4.52 10.54
12/16/2021 4:00:00 AM 7.15 44.87 0.297 7.92 3.8 10.49
12/16/2021 4:15:00 AM 7.14 44.852 0.297 7.92 4.41 10.56
12/16/2021 4:30:00 AM 7.15 44.87 0.297 7.91 4.75 10.48
12/16/2021 4:45:00 AM 7.14 44.852 0.296 7.9 3.83 10.56
12/16/2021 5:00:00 AM 7.13 44.834 0.296 7.9 4.52 10.51
12/16/2021 5:15:00 AM 7.13 44.834 0.295 7.89 3.55 10.5
12/16/2021 5:30:00 AM 7.13 44.834 0.296 7.88 3.98 10.51
12/16/2021 5:45:00 AM 7.13 44.834 0.296 7.88 3.79 10.46
12/16/2021 6:00:00 AM 7.13 44.834 0.297 7.87 3.82 10.42
12/16/2021 6:15:00 AM 7.13 44.834 0.298 7.86 3.84 10.46
12/16/2021 6:30:00 AM 7.13 44.834 0.299 7.86 3.7 10.42
12/16/2021 6:45:00 AM 7.13 44.834 0.299 7.85 4.64 10.41
12/16/2021 7:00:00 AM 7.13 44.834 0.299 7.85 4.34 10.45
12/16/2021 7:15:00 AM 7.1 44.78 0.299 7.84 3.78 10.33
12/16/2021 7:30:00 AM 7.09 44.762 0.299 7.84 3.81 10.37
12/16/2021 7:45:00 AM 7.06 44.708 0.298 7.83 4.14 10.3
12/16/2021 8:00:00 AM 7.08 44.744 0.297 7.84 3.66 10.49
12/16/2021 8:15:00 AM 7.09 44.762 0.296 7.84 3.95 10.51
12/16/2021 8:30:00 AM 7.1 44.78 0.297 7.84 3.63 10.49
12/16/2021 8:45:00 AM 7.11 44.798 0.297 7.85 3.93 10.69
12/16/2021 9:00:00 AM 7.13 44.834 0.298 7.85 4 10.8
12/16/2021 9:15:00 AM 7.16 44.888 0.298 7.86 3.76 10.84
12/16/2021 9:30:00 AM 7.17 44.906 0.299 7.87 4.1 10.94
12/16/2021 9:45:00 AM 7.2 44.96 0.299 7.88 4.59 10.86
12/16/2021 10:00:00 AM 7.24 45.032 0.298 7.9 3.88 11.28
12/16/2021 10:15:00 AM 7.3 45.14 0.299 7.92 3.91 11.28
12/16/2021 10:30:00 AM 7.33 45.194 0.297 7.95 3.57 11.61
12/16/2021 10:45:00 AM 7.37 45.266 0.296 7.98 4.87 11.74
12/16/2021 11:00:00 AM 7.42 45.356 0.295 8 3.49 11.84
12/16/2021 11:15:00 AM 7.48 45.464 0.294 8.03 3.87 11.93
12/16/2021 11:30:00 AM 7.51 45.518 0.293 8.05 3.76 12.07
12/16/2021 11:45:00 AM 7.58 45.644 0.294 8.07 4.38 12
12/16/2021 12:00:00 PM 7.63 45.734 0.293 8.11 3.82 12.31
12/16/2021 12:15:00 PM 7.69 45.842 0.294 8.12 4.03 12.23
12/16/2021 12:30:00 PM 7.76 45.968 0.293 8.15 3.67 12.4
12/16/2021 12:45:00 PM 7.82 46.076 0.294 8.17 3.73 12.37
12/16/2021 1:00:00 PM 7.87 46.166 0.293 8.2 3.67 12.56
12/16/2021 1:15:00 PM 7.92 46.256 0.292 8.23 4 12.62
12/16/2021 1:30:00 PM 7.98 46.364 0.292 8.27 3.85 12.79
12/16/2021 1:45:00 PM 8.03 46.454 0.291 8.29 3.73 12.85
12/16/2021 2:00:00 PM 8.09 46.562 0.29 8.31 3.6 12.83
12/16/2021 2:15:00 PM 8.14 46.652 0.29 8.33 4.13 12.54
12/16/2021 2:30:00 PM 8.19 46.742 0.289 8.34 4.09 12.85
12/16/2021 2:45:00 PM 8.24 46.832 0.289 8.37 3.63 13
12/16/2021 3:00:00 PM 8.28 46.904 0.289 8.39 3.91 12.97
12/16/2021 3:15:00 PM 8.32 46.976 0.289 8.41 3.97 12.97
12/16/2021 3:30:00 PM 8.35 47.03 0.289 8.42 3.65 12.98
12/16/2021 3:45:00 PM 8.37 47.066 0.29 8.42 3.76 12.91
12/16/2021 4:00:00 PM 8.39 47.102 0.289 8.43 4.1 12.69
12/16/2021 4:15:00 PM 8.41 47.138 0.289 8.43 3.6 12.77
12/16/2021 4:30:00 PM 8.42 47.156 0.289 8.42 3.75 12.59
12/16/2021 4:45:00 PM 8.43 47.174 0.291 8.41 3.69 12.4
12/16/2021 5:00:00 PM 8.43 47.174 0.289 8.4 3.83 12.35
12/16/2021 5:15:00 PM 8.44 47.192 0.29 8.39 4.12 12.18
12/16/2021 5:30:00 PM 8.45 47.21 0.29 8.38 3.72 12.06
12/16/2021 5:45:00 PM 8.46 47.228 0.291 8.36 3.66 11.92
12/16/2021 6:00:00 PM 8.49 47.282 0.291 8.35 3.84 11.82
12/16/2021 6:15:00 PM 8.5 47.3 0.292 8.33 4.04 11.63
12/16/2021 6:30:00 PM 8.52 47.336 0.293 8.31 3.98 11.55
12/16/2021 6:45:00 PM 8.53 47.354 0.293 8.3 3.94 11.5
12/16/2021 7:00:00 PM 8.55 47.39 0.294 8.28 3.68 11.34
12/16/2021 7:15:00 PM 8.57 47.426 0.294 8.27 3.57 11.3
12/16/2021 7:30:00 PM 8.59 47.462 0.293 8.25 4.1 11.16
12/16/2021 7:45:00 PM 8.6 47.48 0.293 8.23 4.13 11.1
12/16/2021 8:00:00 PM 8.62 47.516 0.293 8.21 4.16 10.98
12/16/2021 8:15:00 PM 8.63 47.534 0.293 8.19 3.79 10.91
12/16/2021 8:30:00 PM 8.65 47.57 0.294 8.17 4.09 10.75
12/16/2021 8:45:00 PM 8.67 47.606 0.296 8.15 3.93 10.74
12/16/2021 9:00:00 PM 8.71 47.678 0.298 8.13 4.04 10.66
12/16/2021 9:15:00 PM 8.74 47.732 0.299 8.12 5.85 10.62
12/16/2021 9:30:00 PM 8.78 47.804 0.301 8.1 3.86 10.45
12/16/2021 9:45:00 PM 8.82 47.876 0.302 8.09 3.92 10.3
12/16/2021 10:00:00 PM 8.85 47.93 0.303 8.08 3.73 10.06
12/16/2021 10:15:00 PM 8.88 47.984 0.301 8.06 3.84 10.35
12/16/2021 10:30:00 PM 8.88 47.984 0.301 8.06 3.77 10.28
12/16/2021 10:45:00 PM 8.9 48.02 0.3 8.05 5.52 10.29
12/16/2021 11:00:00 PM 8.91 48.038 0.298 8.05 3.71 10.27
12/16/2021 11:15:00 PM 8.92 48.056 0.298 8.04 3.64 10.25
12/16/2021 11:30:00 PM 8.93 48.074 0.298 8.04 3.97 10.19
12/16/2021 11:45:00 PM 8.95 48.11 0.298 8.03 3.82 10.16
12/17/2021 12:00:00 AM 8.96 48.128 0.299 8.02 4.5 10.11
12/17/2021 12:15:00 AM 8.99 48.182 0.3 8.01 3.63 10.08
12/17/2021 12:30:00 AM 9.02 48.236 0.301 8 4.2 10.03
12/17/2021 12:45:00 AM 9.03 48.254 0.301 7.99 3.83 10
12/17/2021 1:00:00 AM 9.05 48.29 0.301 7.98 3.91 9.93
12/17/2021 1:15:00 AM 9.05 48.29 0.301 7.98 3.75 9.94
12/17/2021 1:30:00 AM 9.06 48.308 0.3 7.98 4.02 9.93
12/17/2021 1:45:00 AM 9.07 48.326 0.301 7.97 3.91 9.85
12/17/2021 2:00:00 AM 9.06 48.308 0.298 7.96 3.92 9.79
12/17/2021 2:15:00 AM 9.06 48.308 0.298 7.96 5.4 9.72
12/17/2021 2:30:00 AM 9.05 48.29 0.297 7.95 3.85 9.86
12/17/2021 2:45:00 AM 9.04 48.272 0.298 7.95 3.99 9.83
12/17/2021 3:00:00 AM 9.02 48.236 0.298 7.94 4.46 9.81
12/17/2021 3:15:00 AM 9.03 48.254 0.299 7.94 3.92 9.82
12/17/2021 3:30:00 AM 9.02 48.236 0.299 7.93 4.42 9.79
12/17/2021 3:45:00 AM 9.01 48.218 0.3 7.92 3.99 9.73
12/17/2021 4:00:00 AM 8.99 48.182 0.3 7.92 3.86 9.75
12/17/2021 4:15:00 AM 8.97 48.146 0.299 7.91 4.14 9.69
12/17/2021 4:30:00 AM 8.96 48.128 0.299 7.9 3.97 9.61
12/17/2021 4:45:00 AM 8.95 48.11 0.299 7.89 3.89 9.58
12/17/2021 5:00:00 AM 8.94 48.092 0.298 7.88 4.69 9.58
12/17/2021 5:15:00 AM 8.93 48.074 0.298 7.88 3.93 9.62
12/17/2021 5:30:00 AM 8.91 48.038 0.298 7.87 4.55 9.66
12/17/2021 5:45:00 AM 8.9 48.02 0.298 7.87 3.81 9.69
12/17/2021 6:00:00 AM 8.87 47.966 0.299 7.86 5.18 9.63
12/17/2021 6:15:00 AM 8.85 47.93 0.3 7.86 3.62 9.62
12/17/2021 6:30:00 AM 8.82 47.876 0.301 7.85 5.15 9.67
12/17/2021 6:45:00 AM 8.8 47.84 0.301 7.85 4.62 9.69
12/17/2021 7:00:00 AM 8.76 47.768 0.301 7.83 4.43 9.56
12/17/2021 7:15:00 AM 8.76 47.768 0.302 7.83 4.01 9.55
12/17/2021 7:30:00 AM 8.72 47.696 0.3 7.82 4.07 9.62
12/17/2021 7:45:00 AM 8.7 47.66 0.299 7.82 3.84 9.61
12/17/2021 8:00:00 AM 8.68 47.624 0.298 7.82 4.2 9.73
12/17/2021 8:15:00 AM 8.67 47.606 0.298 7.83 4.09 9.75
12/17/2021 8:30:00 AM 8.67 47.606 0.298 7.83 3.68 9.9
12/17/2021 8:45:00 AM 8.67 47.606 0.298 7.84 3.9 10.01
12/17/2021 9:00:00 AM 8.69 47.642 0.299 7.84 4.27 10.09
12/17/2021 9:15:00 AM 8.72 47.696 0.3 7.86 3.65 10.31
12/17/2021 9:30:00 AM 8.75 47.75 0.3 7.87 4.17 10.39
12/17/2021 9:45:00 AM 8.78 47.804 0.3 7.89 3.77 10.63
12/17/2021 10:00:00 AM 8.82 47.876 0.299 7.91 3.88 10.62
12/17/2021 10:15:00 AM 8.83 47.894 0.299 7.92 4.1 10.83
12/17/2021 10:30:00 AM 8.86 47.948 0.298 7.95 3.98 11.1
12/17/2021 10:45:00 AM 8.88 47.984 0.297 7.98 4.46 11.17
12/17/2021 11:00:00 AM 8.92 48.056 0.296 8 4.35 11.3
12/17/2021 11:15:00 AM 8.95 48.11 0.295 8.03 3.97 11.41
12/17/2021 11:30:00 AM 9 48.2 0.294 8.07 3.49 11.77
12/17/2021 11:45:00 AM 9.05 48.29 0.294 8.11 4.21 11.88
12/17/2021 12:00:00 PM 9.11 48.398 0.294 8.15 3.82 12.02
12/17/2021 12:15:00 PM 9.17 48.506 0.294 8.18 4.39 12.16
12/17/2021 12:30:00 PM 9.23 48.614 0.294 8.22 3.55 12.39
12/17/2021 12:45:00 PM 9.27 48.686 0.295 8.24 4.29 12.24
12/17/2021 1:00:00 PM 9.31 48.758 0.295 8.27 4.14 12.49
12/17/2021 1:15:00 PM 9.34 48.812 0.292 8.32 4.3 12.66
12/17/2021 1:30:00 PM 9.38 48.884 0.291 8.36 3.55 12.8
12/17/2021 1:45:00 PM 9.41 48.938 0.29 8.4 3.61 12.99
12/17/2021 2:00:00 PM 9.43 48.974 0.29 8.42 4.8 12.92
12/17/2021 2:15:00 PM 9.46 49.028 0.288 8.44 3.81 13.07
12/17/2021 2:30:00 PM 9.47 49.046 0.29 8.47 4.78 13.12
12/17/2021 2:45:00 PM 9.48 49.064 0.288 8.48 3.81 12.99
12/17/2021 3:00:00 PM 9.49 49.082 0.288 8.51 3.66 13.13
12/17/2021 3:15:00 PM 9.49 49.082 0.288 8.52 3.8 12.97
12/17/2021 3:30:00 PM 9.49 49.082 0.288 8.54 3.84 13.05
12/17/2021 3:45:00 PM 9.47 49.046 0.289 8.54 24.7 12.94
12/17/2021 4:00:00 PM 9.45 49.01 0.289 8.54 4.13 12.72
12/17/2021 4:15:00 PM 9.44 48.992 0.291 8.53 5.14 12.57
12/17/2021 4:30:00 PM 9.42 48.956 0.289 8.53 3.69 12.57
12/17/2021 4:45:00 PM 9.4 48.92 0.288 8.53 4.87 12.43
12/17/2021 5:00:00 PM 9.38 48.884 0.289 8.52 3.58 11.99
12/17/2021 5:15:00 PM 9.35 48.83 0.289 8.5 3.86 12.15
12/17/2021 5:30:00 PM 9.32 48.776 0.289 8.48 3.74 11.98
12/17/2021 5:45:00 PM 9.3 48.74 0.29 8.47 5.93 11.86
12/17/2021 6:00:00 PM 9.29 48.722 0.29 8.45 3.72 11.68
12/17/2021 6:15:00 PM 9.26 48.668 0.292 8.43 4.76 11.58
12/17/2021 6:30:00 PM 9.25 48.65 0.292 8.41 5.1 11.51
12/17/2021 6:45:00 PM 9.23 48.614 0.293 8.39 3.64 11.41
12/17/2021 7:00:00 PM 9.2 48.56 0.293 8.37 3.98 11.3
12/17/2021 7:15:00 PM 9.17 48.506 0.293 8.35 3.96 11.17
12/17/2021 7:30:00 PM 9.13 48.434 0.293 8.32 3.82 10.95
12/17/2021 7:45:00 PM 9.1 48.38 0.293 8.3 3.78 10.88
12/17/2021 8:00:00 PM 9.08 48.344 0.293 8.28 3.94 10.77
12/17/2021 8:15:00 PM 9.06 48.308 0.294 8.26 3.85 10.71
12/17/2021 8:30:00 PM 9.02 48.236 0.294 8.24 4.94 10.59
12/17/2021 8:45:00 PM 9.02 48.236 0.295 8.22 3.74 10.61
12/17/2021 9:00:00 PM 9 48.2 0.296 8.2 4 10.51
12/17/2021 9:15:00 PM 8.99 48.182 0.297 8.18 4.29 10.5
12/17/2021 9:30:00 PM 9 48.2 0.298 8.17 3.89 10.48
12/17/2021 9:45:00 PM 8.98 48.164 0.298 8.15 3.92 10.32
12/17/2021 10:00:00 PM 8.99 48.182 0.298 8.14 3.86 10.39
12/17/2021 10:15:00 PM 8.97 48.146 0.298 8.13 3.66 10.32
12/17/2021 10:30:00 PM 8.98 48.164 0.297 8.12 3.8 10.27
12/17/2021 10:45:00 PM 8.96 48.128 0.297 8.11 3.96 10.22
12/17/2021 11:00:00 PM 8.97 48.146 0.297 8.11 3.68 10.25
12/17/2021 11:15:00 PM 8.96 48.128 0.296 8.1 3.91 10.19
12/17/2021 11:30:00 PM 8.96 48.128 0.296 8.09 4.28 10.13
12/17/2021 11:45:00 PM 8.95 48.11 0.298 8.08 3.73 10.1
12/18/2021 12:00:00 AM 8.95 48.11 0.298 8.07 3.87 10.05
12/18/2021 12:15:00 AM 8.96 48.128 0.299 8.07 3.67 10.11
12/18/2021 12:30:00 AM 8.96 48.128 0.3 8.06 3.86 10.11
12/18/2021 12:45:00 AM 8.95 48.11 0.301 8.05 4.08 10.02
12/18/2021 1:00:00 AM 8.95 48.11 0.301 8.04 3.86 10
12/18/2021 1:15:00 AM 8.95 48.11 0.3 8.04 4.44 9.99
12/18/2021 1:30:00 AM 8.95 48.11 0.3 8.03 3.66 9.97
12/18/2021 1:45:00 AM 8.94 48.092 0.299 8.03 4.32 9.94
12/18/2021 2:00:00 AM 8.93 48.074 0.299 8.02 3.93 9.98
12/18/2021 2:15:00 AM 8.93 48.074 0.298 8.02 4.32 9.95
12/18/2021 2:30:00 AM 8.91 48.038 0.298 8.01 4.22 9.94
12/18/2021 2:45:00 AM 8.91 48.038 0.299 8.01 3.67 9.89
12/18/2021 3:00:00 AM 8.9 48.02 0.299 8 3.6 9.76
12/18/2021 3:15:00 AM 8.88 47.984 0.3 7.99 3.83 9.87
12/18/2021 3:30:00 AM 8.86 47.948 0.301 7.98 3.82 9.8
12/18/2021 3:45:00 AM 8.85 47.93 0.302 7.97 4.13 9.7
12/18/2021 4:00:00 AM 8.84 47.912 0.301 7.96 3.74 9.84
12/18/2021 4:15:00 AM 8.82 47.876 0.301 7.95 4.08 9.81
12/18/2021 4:30:00 AM 8.8 47.84 0.301 7.95 3.9 9.79
12/18/2021 4:45:00 AM 8.79 47.822 0.301 7.94 4.85 9.71
12/18/2021 5:00:00 AM 8.77 47.786 0.3 7.93 4.3 9.77
12/18/2021 5:15:00 AM 8.75 47.75 0.301 7.93 3.58 9.8
12/18/2021 5:30:00 AM 8.74 47.732 0.3 7.92 3.99 9.78
12/18/2021 5:45:00 AM 8.72 47.696 0.301 7.91 3.91 9.81
12/18/2021 6:00:00 AM 8.71 47.678 0.302 7.9 3.94 9.81
12/18/2021 6:15:00 AM 8.69 47.642 0.302 7.89 3.91 9.58
12/18/2021 6:30:00 AM 8.67 47.606 0.303 7.88 4.14 9.79
12/18/2021 6:45:00 AM 8.66 47.588 0.304 7.87 3.9 9.55
12/18/2021 7:00:00 AM 8.64 47.552 0.303 7.87 4.39 9.75
12/18/2021 7:15:00 AM 8.63 47.534 0.303 7.86 3.62 9.75
12/18/2021 7:30:00 AM 8.61 47.498 0.303 7.85 5.6 9.72
12/18/2021 7:45:00 AM 8.59 47.462 0.302 7.85 3.92 9.7
12/18/2021 8:00:00 AM 8.58 47.444 0.302 7.85 4.34 9.78
12/18/2021 8:15:00 AM 8.57 47.426 0.301 7.84 4.72 9.7
12/18/2021 8:30:00 AM 8.56 47.408 0.301 7.84 4.03 9.85
12/18/2021 8:45:00 AM 8.55 47.39 0.302 7.84 3.56 9.82
12/18/2021 9:00:00 AM 8.55 47.39 0.302 7.84 3.78 9.91
12/18/2021 9:15:00 AM 8.54 47.372 0.303 7.84 3.84 9.98
12/18/2021 9:30:00 AM 8.53 47.354 0.303 7.85 3.96 10.08
12/18/2021 9:45:00 AM 8.52 47.336 0.303 7.85 3.89 10.09
12/18/2021 10:00:00 AM 8.52 47.336 0.303 7.86 3.6 10.14
12/18/2021 10:15:00 AM 8.53 47.354 0.303 7.86 3.99 10.27
12/18/2021 10:30:00 AM 8.53 47.354 0.301 7.87 4.09 10.38
12/18/2021 10:45:00 AM 8.54 47.372 0.301 7.88 3.95 10.47
12/18/2021 11:00:00 AM 8.54 47.372 0.299 7.9 4.07 10.56
12/18/2021 11:15:00 AM 8.54 47.372 0.299 7.91 3.78 10.62
12/18/2021 11:30:00 AM 8.56 47.408 0.299 7.92 3.75 10.72
12/18/2021 11:45:00 AM 8.57 47.426 0.298 7.94 4.02 10.82
12/18/2021 12:00:00 PM 8.59 47.462 0.298 7.96 3.57 10.97
12/18/2021 12:15:00 PM 8.61 47.498 0.298 7.97 3.69 11.12
12/18/2021 12:30:00 PM 8.64 47.552 0.298 8 4.73 11.26
12/18/2021 12:45:00 PM 8.67 47.606 0.298 8.02 3.73 11.34
12/18/2021 1:00:00 PM 8.7 47.66 0.298 8.05 3.81 11.51
12/18/2021 1:15:00 PM 8.72 47.696 0.297 8.08 3.84 11.63
12/18/2021 1:30:00 PM 8.73 47.714 0.296 8.11 3.84 11.71
12/18/2021 1:45:00 PM 8.75 47.75 0.295 8.13 3.94 11.77
12/18/2021 2:00:00 PM 8.77 47.786 0.295 8.15 3.69 11.84
12/18/2021 2:15:00 PM 8.8 47.84 0.294 8.18 3.64 11.93
12/18/2021 2:30:00 PM 8.83 47.894 0.294 8.2 3.59 12.05
12/18/2021 2:45:00 PM 8.85 47.93 0.293 8.22 3.76 12.11
12/18/2021 3:00:00 PM 8.86 47.948 0.293 8.24 3.73 12.13
12/18/2021 3:15:00 PM 8.88 47.984 0.293 8.26 3.56 12.18
12/18/2021 3:30:00 PM 8.88 47.984 0.293 8.28 4.1 12.17
12/18/2021 3:45:00 PM 8.9 48.02 0.294 8.29 3.51 12.16
12/18/2021 4:00:00 PM 8.9 48.02 0.293 8.29 4.1 12.06
12/18/2021 4:15:00 PM 8.89 48.002 0.293 8.3 4.04 12
12/18/2021 4:30:00 PM 8.88 47.984 0.292 8.3 3.73 11.92
12/18/2021 4:45:00 PM 8.87 47.966 0.293 8.29 3.85 11.82
12/18/2021 5:00:00 PM 8.87 47.966 0.293 8.28 4.06 11.59
12/18/2021 5:15:00 PM 8.86 47.948 0.292 8.27 3.91 11.59
12/18/2021 5:30:00 PM 8.86 47.948 0.292 8.26 3.69 11.49
12/18/2021 5:45:00 PM 8.85 47.93 0.293 8.24 4.64 11.39
12/18/2021 6:00:00 PM 8.86 47.948 0.294 8.23 3.8 11.28
12/18/2021 6:15:00 PM 8.85 47.93 0.294 8.21 3.96 11.2
12/18/2021 6:30:00 PM 8.84 47.912 0.294 8.2 3.77 11.15
12/18/2021 6:45:00 PM 8.83 47.894 0.294 8.19 3.99 11.05
12/18/2021 7:00:00 PM 8.82 47.876 0.295 8.17 3.7 10.97
12/18/2021 7:15:00 PM 8.8 47.84 0.295 8.15 3.85 10.88
12/18/2021 7:30:00 PM 8.78 47.804 0.295 8.13 3.56 10.71
12/18/2021 7:45:00 PM 8.77 47.786 0.295 8.11 3.77 10.71
12/18/2021 8:00:00 PM 8.75 47.75 0.295 8.1 3.73 10.58
12/18/2021 8:15:00 PM 8.73 47.714 0.295 8.08 3.83 10.55
12/18/2021 8:30:00 PM 8.71 47.678 0.296 8.06 4.24 10.47
12/18/2021 8:45:00 PM 8.71 47.678 0.297 8.04 4.15 10.41
12/18/2021 9:00:00 PM 8.71 47.678 0.298 8.03 3.68 10.37
12/18/2021 9:15:00 PM 8.71 47.678 0.299 8.01 3.58 10.33
12/18/2021 9:30:00 PM 8.71 47.678 0.299 8 3.92 10.28
12/18/2021 9:45:00 PM 8.71 47.678 0.3 7.99 3.94 10.26
12/18/2021 10:00:00 PM 8.71 47.678 0.299 7.98 3.88 10.21
12/18/2021 10:15:00 PM 8.7 47.66 0.299 7.96 4.08 10.04
12/18/2021 10:30:00 PM 8.7 47.66 0.299 7.95 4.19 10.03
12/18/2021 10:45:00 PM 8.69 47.642 0.299 7.95 3.84 10.1
12/18/2021 11:00:00 PM 8.68 47.624 0.299 7.94 4.19 10.05
12/18/2021 11:15:00 PM 8.68 47.624 0.298 7.94 3.85 10.11
12/18/2021 11:30:00 PM 8.67 47.606 0.299 7.93 4.58 10.06
12/18/2021 11:45:00 PM 8.67 47.606 0.299 7.92 4.07 10.02
12/19/2021 12:00:00 AM 8.68 47.624 0.3 7.91 4.11 9.66
12/19/2021 12:15:00 AM 8.68 47.624 0.301 7.91 3.97 9.93
12/19/2021 12:30:00 AM 8.68 47.624 0.301 7.9 4.19 9.96
12/19/2021 12:45:00 AM 8.68 47.624 0.301 7.9 4 9.99
12/19/2021 1:00:00 AM 8.69 47.642 0.301 7.9 3.69 9.97
12/19/2021 1:15:00 AM 8.68 47.624 0.301 7.89 3.82 9.96
12/19/2021 1:30:00 AM 8.68 47.624 0.301 7.88 4.08 9.85
12/19/2021 1:45:00 AM 8.68 47.624 0.299 7.88 4.21 9.83
12/19/2021 2:00:00 AM 8.68 47.624 0.299 7.87 4.3 9.68
12/19/2021 2:15:00 AM 8.67 47.606 0.298 7.87 4.06 9.69
12/19/2021 2:30:00 AM 8.65 47.57 0.298 7.86 4.21 9.58
12/19/2021 2:45:00 AM 8.64 47.552 0.298 7.86 4.75 9.47
12/19/2021 3:00:00 AM 8.62 47.516 0.299 7.86 4.52 9.52
12/19/2021 3:15:00 AM 8.6 47.48 0.3 7.86 3.96 9.76
12/19/2021 3:30:00 AM 8.58 47.444 0.301 7.85 4.51 9.78
12/19/2021 3:45:00 AM 8.56 47.408 0.301 7.85 4.03 9.45
12/19/2021 4:00:00 AM 8.54 47.372 0.301 7.85 4 9.68
12/19/2021 4:15:00 AM 8.51 47.318 0.3 7.84 4.21 9.68
12/19/2021 4:30:00 AM 8.51 47.318 0.301 7.84 3.8 9.61
12/19/2021 4:45:00 AM 8.5 47.3 0.3 7.83 3.87 9.58
12/19/2021 5:00:00 AM 8.47 47.246 0.3 7.82 4.27 9.57
12/19/2021 5:15:00 AM 8.43 47.174 0.298 7.82 4.63 9.72
12/19/2021 5:30:00 AM 8.42 47.156 0.299 7.81 4.02 9.49
12/19/2021 5:45:00 AM 8.38 47.084 0.3 7.81 3.72 9.64
12/19/2021 6:00:00 AM 8.35 47.03 0.3 7.81 4.84 9.62
12/19/2021 6:15:00 AM 8.31 46.958 0.301 7.81 4.07 9.61
12/19/2021 6:30:00 AM 8.29 46.922 0.302 7.81 4.16 9.73
12/19/2021 6:45:00 AM 8.26 46.868 0.302 7.81 4.01 9.67
12/19/2021 7:00:00 AM 8.26 46.868 0.302 7.8 4.44 9.55
12/19/2021 7:15:00 AM 8.21 46.778 0.302 7.81 4.35 9.76
12/19/2021 7:30:00 AM 8.17 46.706 0.301 7.8 38.06 9.66
12/19/2021 7:45:00 AM 8.15 46.67 0.3 7.81 3.86 9.68
12/19/2021 8:00:00 AM 8.12 46.616 0.301 7.81 3.56 9.67
12/19/2021 8:15:00 AM 8.08 46.544 0.3 7.81 4.1 9.72
12/19/2021 8:30:00 AM 8.07 46.526 0.302 7.81 3.73 9.86
12/19/2021 8:45:00 AM 8.06 46.508 0.303 7.82 4.04 9.87
12/19/2021 9:00:00 AM 8.07 46.526 0.302 7.83 4.32 10.05
12/19/2021 9:15:00 AM 8.05 46.49 0.302 7.83 3.65 10.14
12/19/2021 9:30:00 AM 8.05 46.49 0.302 7.85 4.12 10.23
12/19/2021 9:45:00 AM 8.02 46.436 0.302 7.86 3.95 10.38
12/19/2021 10:00:00 AM 8.03 46.454 0.301 7.88 3.99 10.51
12/19/2021 10:15:00 AM 8.04 46.472 0.301 7.9 4.39 10.66
12/19/2021 10:30:00 AM 8.06 46.508 0.3 7.91 3.77 10.75
12/19/2021 10:45:00 AM 8.05 46.49 0.3 7.93 3.87 10.97
12/19/2021 11:00:00 AM 8.06 46.508 0.299 7.96 4.32 11.01
12/19/2021 11:15:00 AM 8.06 46.508 0.298 7.98 3.54 11.33
12/19/2021 11:30:00 AM 8.05 46.49 0.298 8.01 3.77 11.46
12/19/2021 11:45:00 AM 8.07 46.526 0.299 8.04 3.86 11.52
12/19/2021 12:00:00 PM 8.09 46.562 0.297 8.06 3.87 11.65
12/19/2021 12:15:00 PM 8.13 46.634 0.298 8.09 3.83 11.66
12/19/2021 12:30:00 PM 8.12 46.616 0.297 8.12 3.52 11.98
12/19/2021 12:45:00 PM 8.13 46.634 0.297 8.15 3.99 12.16
12/19/2021 1:00:00 PM 8.15 46.67 0.297 8.18 3.59 12.13
12/19/2021 1:15:00 PM 8.16 46.688 0.296 8.2 3.53 12.16
12/19/2021 1:30:00 PM 8.16 46.688 0.295 8.24 3.83 12.41
12/19/2021 1:45:00 PM 8.13 46.634 0.294 8.27 3.66 12.48
12/19/2021 2:00:00 PM 8.13 46.634 0.293 8.3 4.09 12.64
12/19/2021 2:15:00 PM 8.09 46.562 0.293 8.32 3.61 12.43
12/19/2021 2:30:00 PM 8.1 46.58 0.292 8.35 3.84 12.68
12/19/2021 2:45:00 PM 8.11 46.598 0.292 8.37 3.61 12.75
12/19/2021 3:00:00 PM 8.09 46.562 0.292 8.38 3.63 12.67
12/19/2021 3:15:00 PM 8.06 46.508 0.292 8.4 3.6 12.71
12/19/2021 3:30:00 PM 8.03 46.454 0.292 8.41 5.42 12.7
12/19/2021 3:45:00 PM 7.96 46.328 0.292 8.41 4.02 12.62
12/19/2021 4:00:00 PM 7.91 46.238 0.292 8.41 3.67 12.51
12/19/2021 4:15:00 PM 7.86 46.148 0.291 8.41 3.6 12.49
12/19/2021 4:30:00 PM 7.81 46.058 0.291 8.4 3.58 12.4
12/19/2021 4:45:00 PM 7.75 45.95 0.291 8.4 3.73 12.28
12/19/2021 5:00:00 PM 7.69 45.842 0.291 8.38 3.81 12.17
12/19/2021 5:15:00 PM 7.64 45.752 0.291 8.37 3.6 12.04
12/19/2021 5:30:00 PM 7.58 45.644 0.292 8.35 3.91 11.92
12/19/2021 5:45:00 PM 7.53 45.554 0.292 8.34 4.02 11.82
12/19/2021 6:00:00 PM 7.47 45.446 0.292 8.31 4.75 11.66
12/19/2021 6:15:00 PM 7.41 45.338 0.292 8.3 3.87 11.66
12/19/2021 6:30:00 PM 7.37 45.266 0.292 8.29 3.44 11.57
12/19/2021 6:45:00 PM 7.34 45.212 0.292 8.27 4.07 11.52
12/19/2021 7:00:00 PM 7.32 45.176 0.292 8.26 4.02 11.4
12/19/2021 7:15:00 PM 7.3 45.14 0.292 8.25 3.6 11.44
12/19/2021 7:30:00 PM 7.25 45.05 0.292 8.24 4.04 11.39
12/19/2021 7:45:00 PM 7.22 44.996 0.291 8.23 3.93 11.32
12/19/2021 8:00:00 PM 7.19 44.942 0.291 8.21 3.72 11.21
12/19/2021 8:15:00 PM 7.14 44.852 0.292 8.2 3.67 11.2
12/19/2021 8:30:00 PM 7.11 44.798 0.292 8.19 4.05 11.15
12/19/2021 8:45:00 PM 7.06 44.708 0.292 8.18 3.69 11.11
12/19/2021 9:00:00 PM 7.04 44.672 0.293 8.16 4.12 11.07
12/19/2021 9:15:00 PM 7 44.6 0.293 8.15 3.79 11.06
12/19/2021 9:30:00 PM 6.98 44.564 0.294 8.14 3.95 11
12/19/2021 9:45:00 PM 6.94 44.492 0.293 8.13 3.94 11.01
12/19/2021 10:00:00 PM 6.88 44.384 0.294 8.12 4.84 10.93
12/19/2021 10:15:00 PM 6.86 44.348 0.295 8.12 5.07 10.89
12/19/2021 10:30:00 PM 6.81 44.258 0.293 8.11 4.11 10.89
12/19/2021 10:45:00 PM 6.81 44.258 0.292 8.11 3.99 10.92
12/19/2021 11:00:00 PM 6.72 44.096 0.291 8.1 3.66 10.86
12/19/2021 11:15:00 PM 6.7 44.06 0.291 8.1 3.91 10.88
12/19/2021 11:30:00 PM 6.63 43.934 0.292 8.09 3.76 10.85
12/19/2021 11:45:00 PM 6.6 43.88 0.292 8.09 3.84 10.87
12/20/2021 12:00:00 AM 6.55 43.79 0.293 8.09 3.39 10.86
12/20/2021 12:15:00 AM 6.51 43.718 0.293 8.08 3.91 10.86
12/20/2021 12:30:00 AM 6.46 43.628 0.295 8.08 3.55 10.82
12/20/2021 12:45:00 AM 6.42 43.556 0.295 8.07 3.6 10.81
12/20/2021 1:00:00 AM 6.33 43.394 0.295 8.07 4.1 10.78
12/20/2021 1:15:00 AM 6.26 43.268 0.294 8.06 3.92 10.84
12/20/2021 1:30:00 AM 6.21 43.178 0.295 8.06 3.77 10.8
12/20/2021 1:45:00 AM 6.18 43.124 0.293 8.05 4.08 10.84
12/20/2021 2:00:00 AM 6.12 43.016 0.292 8.05 3.73 10.83
12/20/2021 2:15:00 AM 6.06 42.908 0.292 8.05 3.58 10.84
12/20/2021 2:30:00 AM 6 42.8 0.293 8.04 3.61 10.86
12/20/2021 2:45:00 AM 5.96 42.728 0.293 8.04 3.92 10.83
12/20/2021 3:00:00 AM 5.9 42.62 0.294 8.03 3.57 10.85
12/20/2021 3:15:00 AM 5.82 42.476 0.295 8.03 3.4 10.85
12/20/2021 3:30:00 AM 5.79 42.422 0.295 8.02 4.13 10.86
12/20/2021 3:45:00 AM 5.72 42.296 0.295 8.01 3.49 10.85
12/20/2021 4:00:00 AM 5.68 42.224 0.296 8.01 3.54 10.86
12/20/2021 4:15:00 AM 5.63 42.134 0.295 8 3.73 10.89
12/20/2021 4:30:00 AM 5.55 41.99 0.295 8 3.41 10.87
12/20/2021 4:45:00 AM 5.51 41.918 0.294 7.99 3.97 10.88
12/20/2021 5:00:00 AM 5.43 41.774 0.294 7.98 4.72 10.89
12/20/2021 5:15:00 AM 5.37 41.666 0.294 7.98 3.71 10.92
12/20/2021 5:30:00 AM 5.33 41.594 0.294 7.97 4.15 10.95
12/20/2021 5:45:00 AM 5.28 41.504 0.295 7.97 3.44 10.92
12/20/2021 6:00:00 AM 5.22 41.396 0.296 7.96 3.91 10.93
12/20/2021 6:15:00 AM 5.16 41.288 0.297 7.96 3.62 10.94
12/20/2021 6:30:00 AM 5.12 41.216 0.297 7.95 4.28 10.97
12/20/2021 6:45:00 AM 5.07 41.126 0.297 7.95 3.76 10.98
12/20/2021 7:00:00 AM 5.02 41.036 0.297 7.94 5.26 10.99
12/20/2021 7:15:00 AM 4.96 40.928 0.297 7.94 4.59 10.99
12/20/2021 7:30:00 AM 4.9 40.82 0.281 7.93 3.86 11.02
12/20/2021 7:45:00 AM 4.87 40.766 0.296 7.93 3.73 11.07
12/20/2021 8:00:00 AM 4.83 40.694 0.296 7.93 3.55 11.11
12/20/2021 8:15:00 AM 4.76 40.568 0.295 7.93 3.64 11.18
12/20/2021 8:30:00 AM 4.76 40.568 0.295 7.93 3.47 11.27
12/20/2021 8:45:00 AM 4.74 40.532 0.295 7.94 3.46 11.36
12/20/2021 9:00:00 AM 4.7 40.46 0.297 7.94 4.32 11.43
12/20/2021 9:15:00 AM 4.72 40.496 0.296 7.95 3.47 11.53
12/20/2021 9:30:00 AM 4.7 40.46 0.297 7.96 3.67 11.64
12/20/2021 9:45:00 AM 4.71 40.478 0.297 7.97 3.37 11.76
12/20/2021 10:00:00 AM 4.72 40.496 0.296 7.98 3.88 11.86
12/20/2021 10:15:00 AM 4.76 40.568 0.298 7.99 4 11.91
12/20/2021 10:30:00 AM 4.74 40.532 0.296 7.99 3.53 12.02
12/20/2021 10:45:00 AM 4.77 40.586 0.294 8.01 3.72 12.17
12/20/2021 11:00:00 AM 4.79 40.622 0.294 8.03 3.53 12.33
12/20/2021 11:15:00 AM 4.82 40.676 0.294 8.04 3.6 12.34
12/20/2021 11:30:00 AM 4.87 40.766 0.293 8.06 3.83 12.46
12/20/2021 11:45:00 AM 4.88 40.784 0.293 8.08 3.56 12.61
12/20/2021 12:00:00 PM 4.91 40.838 0.292 8.1 3.7 12.68
12/20/2021 12:15:00 PM 4.94 40.892 0.293 8.11 3.7 12.75
12/20/2021 12:30:00 PM 4.96 40.928 0.292 8.13 3.6 12.86
12/20/2021 12:45:00 PM 5 41 0.292 8.14 10.52 12.88
12/20/2021 1:00:00 PM 5.03 41.054 0.292 8.17 3.65 13.04
12/20/2021 1:15:00 PM 5.06 41.108 0.292 8.19 3.59 13.13
12/20/2021 1:30:00 PM 5.08 41.144 0.291 8.21 3.48 13.15
12/20/2021 1:45:00 PM 5.1 41.18 0.291 8.23 4.46 13.25
12/20/2021 2:00:00 PM 5.12 41.216 0.29 8.25 3.48 13.28
12/20/2021 2:15:00 PM 5.13 41.234 0.29 8.27 3.63 13.28
12/20/2021 2:30:00 PM 5.14 41.252 0.29 8.28 3.69 13.32
12/20/2021 2:45:00 PM 5.15 41.27 0.29 8.3 3.89 13.33
12/20/2021 3:00:00 PM 5.16 41.288 0.29 8.3 3.43 13.37
12/20/2021 3:15:00 PM 5.17 41.306 0.29 8.32 3.66 13.38
12/20/2021 3:30:00 PM 5.17 41.306 0.291 8.32 3.98 13.36
12/20/2021 3:45:00 PM 5.16 41.288 0.291 8.33 3.78 13.36
12/20/2021 4:00:00 PM 5.14 41.252 0.291 8.34 3.76 13.3
12/20/2021 4:15:00 PM 5.14 41.252 0.291 8.33 4.5 13.14
12/20/2021 4:30:00 PM 5.12 41.216 0.291 8.33 4.53 13.17
12/20/2021 4:45:00 PM 5.1 41.18 0.292 8.33 3.77 13.06
12/20/2021 5:00:00 PM 5.04 41.072 0.291 8.32 3.82 13
12/20/2021 5:15:00 PM 5.02 41.036 0.285 8.31 3.77 12.87
12/20/2021 5:30:00 PM 5 41 0.29 8.3 3.59 12.74
12/20/2021 5:45:00 PM 4.96 40.928 0.291 8.29 3.69 12.68
12/20/2021 6:00:00 PM 4.95 40.91 0.293 8.28 3.42 12.62
12/20/2021 6:15:00 PM 4.89 40.802 0.292 8.27 3.77 12.49
12/20/2021 6:30:00 PM 4.87 40.766 0.292 8.26 3.94 12.45
12/20/2021 6:45:00 PM 4.85 40.73 0.293 8.25 4.4 12.41
12/20/2021 7:00:00 PM 4.84 40.712 0.293 8.23 4.31 12.35
12/20/2021 7:15:00 PM 4.82 40.676 0.294 8.22 3.5 12.3
12/20/2021 7:30:00 PM 4.78 40.604 0.294 8.21 6.4 12.26
12/20/2021 7:45:00 PM 4.77 40.586 0.294 8.2 4.1 12.14
12/20/2021 8:00:00 PM 4.76 40.568 0.294 8.19 3.82 12.12
12/20/2021 8:15:00 PM 4.72 40.496 0.294 8.18 4.43 12.06
12/20/2021 8:30:00 PM 4.72 40.496 0.294 8.17 3.78 12.01
12/20/2021 8:45:00 PM 4.69 40.442 0.295 8.16 3.87 11.97
12/20/2021 9:00:00 PM 4.68 40.424 0.296 8.16 4.22 11.96
12/20/2021 9:15:00 PM 4.68 40.424 0.298 8.14 3.6 11.9
12/20/2021 9:30:00 PM 4.67 40.406 0.299 8.14 3.89 11.86
12/20/2021 9:45:00 PM 4.65 40.37 0.3 8.13 3.62 11.8
12/20/2021 10:00:00 PM 4.64 40.352 0.3 8.12 3.91 11.81
12/20/2021 10:15:00 PM 4.62 40.316 0.3 8.11 3.92 11.73
12/20/2021 10:30:00 PM 4.61 40.298 0.299 8.11 3.79 11.76
12/20/2021 10:45:00 PM 4.58 40.244 0.299 8.1 3.58 11.7
12/20/2021 11:00:00 PM 4.58 40.244 0.29 8.1 4.42 11.69
12/20/2021 11:15:00 PM 4.56 40.208 0.298 8.1 3.79 11.65
12/20/2021 11:30:00 PM 4.56 40.208 0.256 8.1 3.69 11.67
12/20/2021 11:45:00 PM 4.52 40.136 0.27 8.09 3.72 11.66
12/21/2021 12:00:00 AM 4.51 40.118 0.267 8.09 3.72 11.59
12/21/2021 12:15:00 AM 4.49 40.082 0.268 8.09 4.04 11.6
12/21/2021 12:30:00 AM 4.45 40.01 0.269 8.08 3.86 11.58
12/21/2021 12:45:00 AM 4.47 40.046 0.271 8.08 5.31 11.59
12/21/2021 1:00:00 AM 4.47 40.046 0.302 8.08 3.92 11.58
12/21/2021 1:15:00 AM 4.44 39.992 0.302 8.08 3.44 11.58
12/21/2021 1:30:00 AM 4.39 39.902 0.301 8.07 3.91 11.55
12/21/2021 1:45:00 AM 4.37 39.866 0.301 8.07 3.99 11.57
12/21/2021 2:00:00 AM 4.34 39.812 0.3 8.07 3.96 11.53
12/21/2021 2:15:00 AM 4.31 39.758 0.299 8.07 3.82 11.49
12/21/2021 2:30:00 AM 4.28 39.704 0.298 8.06 3.45 11.53
12/21/2021 2:45:00 AM 4.25 39.65 0.298 8.06 4.48 11.52
12/21/2021 3:00:00 AM 4.23 39.614 0.297 8.06 3.63 11.54
12/21/2021 3:15:00 AM 4.2 39.56 0.288 8.06 4 11.56
12/21/2021 3:30:00 AM 4.18 39.524 0.301 8.05 3.76 11.52
12/21/2021 3:45:00 AM 4.17 39.506 0.301 8.04 3.97 11.48
12/21/2021 4:00:00 AM 4.13 39.434 0.302 8.04 3.66 11.49
12/21/2021 4:15:00 AM 4.1 39.38 0.301 8.03 3.8 11.51
12/21/2021 4:30:00 AM 4.06 39.308 0.301 8.03 3.92 11.52
12/21/2021 4:45:00 AM 4.04 39.272 0.301 8.02 6.92 11.52
12/21/2021 5:00:00 AM 3.99 39.182 0.3 8.02 3.72 11.53
12/21/2021 5:15:00 AM 3.97 39.146 0.3 8.01 4.78 11.51
12/21/2021 5:30:00 AM 3.92 39.056 0.3 8.01 3.8 11.48
12/21/2021 5:45:00 AM 3.91 39.038 0.301 8 3.78 11.51
12/21/2021 6:00:00 AM 3.88 38.984 0.302 8 3.6 11.5
12/21/2021 6:15:00 AM 3.84 38.912 0.302 7.99 3.83 11.47
12/21/2021 6:30:00 AM 3.81 38.858 0.303 7.99 3.66 11.52
12/21/2021 6:45:00 AM 3.79 38.822 0.303 7.98 3.88 11.5
12/21/2021 7:00:00 AM 3.75 38.75 0.304 7.97 3.46 11.51
12/21/2021 7:15:00 AM 3.73 38.714 0.304 7.97 3.86 11.52
12/21/2021 7:30:00 AM 3.69 38.642 0.303 7.97 3.78 11.53
12/21/2021 7:45:00 AM 3.66 38.588 0.303 7.97 3.72 11.55
12/21/2021 8:00:00 AM 3.66 38.588 0.302 7.96 4.54 11.61
12/21/2021 8:15:00 AM 3.63 38.534 0.302 7.96 6.43 11.66
12/21/2021 8:30:00 AM 3.62 38.516 0.301 7.97 3.86 11.75
12/21/2021 8:45:00 AM 3.61 38.498 0.301 7.97 3.83 11.83
12/21/2021 9:00:00 AM 3.62 38.516 0.302 7.98 4.32 11.94
12/21/2021 9:15:00 AM 3.63 38.534 0.302 7.99 3.76 12.06
12/21/2021 9:30:00 AM 3.67 38.606 0.303 8 3.52 12.18
12/21/2021 9:45:00 AM 3.67 38.606 0.303 8.01 4.28 12.26
12/21/2021 10:00:00 AM 3.71 38.678 0.302 8.02 4.23 12.38
12/21/2021 10:15:00 AM 3.74 38.732 0.301 8.04 3.43 12.51
12/21/2021 10:30:00 AM 3.78 38.804 0.301 8.05 3.69 12.57
12/21/2021 10:45:00 AM 3.82 38.876 0.3 8.06 3.57 12.69
12/21/2021 11:00:00 AM 3.84 38.912 0.299 8.08 3.57 12.83
12/21/2021 11:15:00 AM 3.9 39.02 0.298 8.1 3.82 12.95
12/21/2021 11:30:00 AM 3.94 39.092 0.297 8.12 3.84 13.07
12/21/2021 11:45:00 AM 4.03 39.254 0.297 8.14 3.41 13.17
12/21/2021 12:00:00 PM 4.07 39.326 0.297 8.16 3.94 13.24
12/21/2021 12:15:00 PM 4.1 39.38 0.297 8.18 3.62 13.43
12/21/2021 12:30:00 PM 4.17 39.506 0.297 8.2 3.3 13.51
12/21/2021 12:45:00 PM 4.23 39.614 0.297 8.22 3.72 13.55
12/21/2021 1:00:00 PM 4.26 39.668 0.296 8.25 3.68 13.65
12/21/2021 1:15:00 PM 4.32 39.776 0.296 8.27 3.56 13.73
12/21/2021 1:30:00 PM 4.37 39.866 0.295 8.28 3.72 13.75
12/21/2021 1:45:00 PM 4.41 39.938 0.295 8.3 3.45 13.84
12/21/2021 2:00:00 PM 4.45 40.01 0.293 8.33 3.82 13.95
12/21/2021 2:15:00 PM 4.48 40.064 0.293 8.36 3.52 13.97
12/21/2021 2:30:00 PM 4.52 40.136 0.292 8.37 4.09 14.01
12/21/2021 2:45:00 PM 4.56 40.208 0.292 8.39 3.47 14.02
12/21/2021 3:00:00 PM 4.59 40.262 0.292 8.41 3.73 14.06
12/21/2021 3:15:00 PM 4.6 40.28 0.292 8.42 3.69 14.06
12/21/2021 3:30:00 PM 4.62 40.316 0.292 8.44 3.81 14.06
12/21/2021 3:45:00 PM 4.64 40.352 0.292 8.44 3.44 13.98
12/21/2021 4:00:00 PM 4.64 40.352 0.292 8.45 3.73 13.97
12/21/2021 4:15:00 PM 4.65 40.37 0.292 8.45 3.55 13.91
12/21/2021 4:30:00 PM 4.65 40.37 0.292 8.45 3.55 13.79
12/21/2021 4:45:00 PM 4.65 40.37 0.291 8.45 3.6 13.67
12/21/2021 5:00:00 PM 4.66 40.388 0.292 8.44 3.46 13.54
12/21/2021 5:15:00 PM 4.63 40.334 0.291 8.43 3.49 13.46
12/21/2021 5:30:00 PM 4.62 40.316 0.291 8.42 4.08 13.33
12/21/2021 5:45:00 PM 4.61 40.298 0.292 8.41 4.07 13.23
12/21/2021 6:00:00 PM 4.59 40.262 0.292 8.4 3.67 13.1
12/21/2021 6:15:00 PM 4.58 40.244 0.293 8.39 3.88 12.98
12/21/2021 6:30:00 PM 4.57 40.226 0.293 8.38 4.17 12.94
12/21/2021 6:45:00 PM 4.58 40.244 0.294 8.36 3.71 12.85
12/21/2021 7:00:00 PM 4.6 40.28 0.294 8.35 3.53 12.76
12/21/2021 7:15:00 PM 4.61 40.298 0.294 8.33 3.62 12.69
12/21/2021 7:30:00 PM 4.61 40.298 0.294 8.31 3.41 12.57
12/21/2021 7:45:00 PM 4.63 40.334 0.294 8.3 3.66 12.5
12/21/2021 8:00:00 PM 4.64 40.352 0.294 8.28 3.82 12.37
12/21/2021 8:15:00 PM 4.65 40.37 0.294 8.26 3.63 12.26
12/21/2021 8:30:00 PM 4.66 40.388 0.295 8.24 4.34 12.2
12/21/2021 8:45:00 PM 4.67 40.406 0.295 8.23 3.97 12.13
12/21/2021 9:00:00 PM 4.69 40.442 0.296 8.21 4.35 12.09
12/21/2021 9:15:00 PM 4.71 40.478 0.297 8.2 3.68 12.01
12/21/2021 9:30:00 PM 4.74 40.532 0.298 8.19 3.46 11.98
12/21/2021 9:45:00 PM 4.76 40.568 0.299 8.17 3.91 11.94
12/21/2021 10:00:00 PM 4.8 40.64 0.3 8.16 3.71 11.88
12/21/2021 10:15:00 PM 4.81 40.658 0.299 8.15 3.71 11.84
12/21/2021 10:30:00 PM 4.84 40.712 0.299 8.15 3.81 11.81
12/21/2021 10:45:00 PM 4.85 40.73 0.298 8.14 3.84 11.77
12/21/2021 11:00:00 PM 4.87 40.766 0.297 8.14 3.71 11.73
12/21/2021 11:15:00 PM 4.88 40.784 0.297 8.14 3.79 11.67
12/21/2021 11:30:00 PM 4.91 40.838 0.297 8.13 3.92 11.67
12/21/2021 11:45:00 PM 4.93 40.874 0.297 8.13 3.79 11.64
12/22/2021 12:00:00 AM 4.94 40.892 0.298 8.12 3.57 11.58
12/22/2021 12:15:00 AM 4.97 40.946 0.3 8.12 3.66 11.52
12/22/2021 12:30:00 AM 4.99 40.982 0.301 8.11 3.69 11.52
12/22/2021 12:45:00 AM 5.01 41.018 0.302 8.1 4.77 11.46
12/22/2021 1:00:00 AM 5.03 41.054 0.302 8.1 3.98 11.45
12/22/2021 1:15:00 AM 5.05 41.09 0.302 8.09 3.65 11.43
12/22/2021 1:30:00 AM 5.07 41.126 0.302 8.09 3.73 11.39
12/22/2021 1:45:00 AM 5.08 41.144 0.3 8.08 3.85 11.38
12/22/2021 2:00:00 AM 5.07 41.126 0.3 8.08 3.68 11.33
12/22/2021 2:15:00 AM 5.05 41.09 0.299 8.07 3.62 11.29
12/22/2021 2:30:00 AM 5.04 41.072 0.299 8.07 3.71 11.31
12/22/2021 2:45:00 AM 5.01 41.018 0.299 8.07 4.09 11.3
12/22/2021 3:00:00 AM 5 41 0.299 8.06 3.69 11.26
12/22/2021 3:15:00 AM 4.98 40.964 0.269 8.06 3.7 11.23
12/22/2021 3:30:00 AM 4.96 40.928 0.3 8.05 4.03 11.2
12/22/2021 3:45:00 AM 4.93 40.874 0.3 8.05 3.68 11.2
12/22/2021 4:00:00 AM 4.89 40.802 0.3 8.04 3.9 11.17
12/22/2021 4:15:00 AM 4.87 40.766 0.297 8.04 4.1 11.14
12/22/2021 4:30:00 AM 4.85 40.73 0.3 8.03 4.22 11.17
12/22/2021 4:45:00 AM 4.83 40.694 0.3 8.03 3.87 11.15
12/22/2021 5:00:00 AM 4.79 40.622 0.292 8.02 3.68 11.13
12/22/2021 5:15:00 AM 4.76 40.568 0.3 8.02 6.79 11.13
12/22/2021 5:30:00 AM 4.72 40.496 0.3 8.01 3.93 11.09
12/22/2021 5:45:00 AM 4.69 40.442 0.3 8 3.75 11.13
12/22/2021 6:00:00 AM 4.66 40.388 0.3 7.99 3.99 11.1
12/22/2021 6:15:00 AM 4.66 40.388 0.295 7.99 3.5 11.1
12/22/2021 6:30:00 AM 4.62 40.316 0.302 7.98 5.17 11.09
12/22/2021 6:45:00 AM 4.6 40.28 0.303 7.98 4.15 11.07
12/22/2021 7:00:00 AM 4.58 40.244 0.303 7.97 3.39 11.1
12/22/2021 7:15:00 AM 4.55 40.19 0.303 7.97 3.55 11.09
12/22/2021 7:30:00 AM 4.55 40.19 0.302 7.96 3.98 11.09
12/22/2021 7:45:00 AM 4.53 40.154 0.302 7.96 3.5 11.1
12/22/2021 8:00:00 AM 4.52 40.136 0.302 7.95 3.94 11.1
12/22/2021 8:15:00 AM 4.53 40.154 0.301 7.95 3.71 11.16
12/22/2021 8:30:00 AM 4.53 40.154 0.301 7.95 3.46 11.17
12/22/2021 8:45:00 AM 4.54 40.172 0.301 7.95 3.49 11.25
12/22/2021 9:00:00 AM 4.57 40.226 0.301 7.96 3.77 11.39
12/22/2021 9:15:00 AM 4.58 40.244 0.302 7.96 3.96 11.46
12/22/2021 9:30:00 AM 4.6 40.28 0.303 7.97 4.04 11.55
12/22/2021 9:45:00 AM 4.63 40.334 0.303 7.97 3.69 11.69
12/22/2021 10:00:00 AM 4.67 40.406 0.302 7.98 3.97 11.75
12/22/2021 10:15:00 AM 4.72 40.496 0.303 7.99 3.98 11.82
12/22/2021 10:30:00 AM 4.8 40.64 0.302 7.99 3.76 11.78
12/22/2021 10:45:00 AM 4.81 40.658 0.301 8.01 3.52 12
12/22/2021 11:00:00 AM 4.9 40.82 0.302 8.02 4.04 12.07
12/22/2021 11:15:00 AM 4.9 40.82 0.3 8.04 3.85 12.32
12/22/2021 11:30:00 AM 4.97 40.946 0.3 8.06 4.06 12.31
12/22/2021 11:45:00 AM 5.01 41.018 0.299 8.07 3.55 12.38
12/22/2021 12:00:00 PM 5.05 41.09 0.298 8.09 4.05 12.45
12/22/2021 12:15:00 PM 5.06 41.108 0.298 8.11 3.98 12.53
12/22/2021 12:30:00 PM 5.12 41.216 0.297 8.14 3.65 12.76
12/22/2021 12:45:00 PM 5.14 41.252 0.298 8.15 3.8 12.78
12/22/2021 1:00:00 PM 5.19 41.342 0.298 8.17 3.6 12.84
12/22/2021 1:15:00 PM 5.21 41.378 0.297 8.2 4.24 12.91
12/22/2021 1:30:00 PM 5.22 41.396 0.297 8.21 5.41 12.91
12/22/2021 1:45:00 PM 5.22 41.396 0.296 8.24 4.29 13.07
12/22/2021 2:00:00 PM 5.25 41.45 0.297 8.26 4.01 12.78
12/22/2021 2:15:00 PM 5.22 41.396 0.294 8.27 3.55 13.09
12/22/2021 2:30:00 PM 5.25 41.45 0.296 8.29 3.58 12.93
12/22/2021 2:45:00 PM 5.21 41.378 0.293 8.3 3.88 13.17
12/22/2021 3:00:00 PM 5.22 41.396 0.293 8.32 3.88 13.21
12/22/2021 3:15:00 PM 5.22 41.396 0.293 8.33 4.08 13.13
12/22/2021 3:30:00 PM 5.23 41.414 0.294 8.34 3.77 13.1
12/22/2021 3:45:00 PM 5.14 41.252 0.293 8.35 3.52 13.2
12/22/2021 4:00:00 PM 5.11 41.198 0.294 8.36 3.66 13.09
12/22/2021 4:15:00 PM 5.04 41.072 0.293 8.36 3.65 13.08
12/22/2021 4:30:00 PM 5.02 41.036 0.294 8.36 3.65 12.96
12/22/2021 4:45:00 PM 4.94 40.892 0.292 8.35 3.57 12.84
12/22/2021 5:00:00 PM 4.91 40.838 0.293 8.35 3.79 12.7
12/22/2021 5:15:00 PM 4.89 40.802 0.293 8.34 3.96 12.77
12/22/2021 5:30:00 PM 4.85 40.73 0.26 8.33 3.6 12.58
12/22/2021 5:45:00 PM 4.8 40.64 0.288 8.32 4.03 12.38
12/22/2021 6:00:00 PM 4.77 40.586 0.295 8.31 3.54 12.4
12/22/2021 6:15:00 PM 4.72 40.496 0.296 8.3 3.8 12.34
12/22/2021 6:30:00 PM 4.7 40.46 0.296 8.28 3.43 12.09
12/22/2021 6:45:00 PM 4.68 40.424 0.297 8.26 3.58 12.11
12/22/2021 7:00:00 PM 4.62 40.316 0.296 8.25 3.76 12.09
12/22/2021 7:15:00 PM 4.63 40.334 0.299 8.24 3.51 11.97
12/22/2021 7:30:00 PM 4.62 40.316 0.298 8.23 3.61 11.93
12/22/2021 7:45:00 PM 4.61 40.298 0.299 8.21 3.79 12.02
12/22/2021 8:00:00 PM 4.57 40.226 0.298 8.2 3.68 11.87
12/22/2021 8:15:00 PM 4.53 40.154 0.298 8.19 3.66 11.87
12/22/2021 8:30:00 PM 4.56 40.208 0.293 8.17 3.59 11.84
12/22/2021 8:45:00 PM 4.5 40.1 0.299 8.17 3.48 11.78
12/22/2021 9:00:00 PM 4.5 40.1 0.3 8.15 4.58 11.63
12/22/2021 9:15:00 PM 4.49 40.082 0.3 8.15 3.75 11.67
12/22/2021 9:30:00 PM 4.44 39.992 0.302 8.13 3.94 11.64
12/22/2021 9:45:00 PM 4.45 40.01 0.301 8.14 3.67 11.72
12/22/2021 10:00:00 PM 4.44 39.992 0.302 8.13 3.86 11.57
12/22/2021 10:15:00 PM 4.41 39.938 0.301 8.13 3.61 11.63
12/22/2021 10:30:00 PM 4.39 39.902 0.271 8.12 3.52 11.6
12/22/2021 10:45:00 PM 4.36 39.848 0.301 8.12 4.5 11.62
12/22/2021 11:00:00 PM 4.34 39.812 0.301 8.12 4.03 11.54
12/22/2021 11:15:00 PM 4.35 39.83 0.301 8.11 3.87 11.3
12/22/2021 11:30:00 PM 4.35 39.83 0.303 8.11 3.63 11.38
12/22/2021 11:45:00 PM 4.31 39.758 0.301 8.1 3.42 11.49
12/23/2021 12:00:00 AM 4.3 39.74 0.302 8.11 3.59 11.51
12/23/2021 12:15:00 AM 4.28 39.704 0.303 8.11 3.59 11.45
12/23/2021 12:30:00 AM 4.29 39.722 0.304 8.1 3.82 11.45
12/23/2021 12:45:00 AM 4.27 39.686 0.305 8.1 3.52 11.49
12/23/2021 1:00:00 AM 4.29 39.722 0.305 8.11 3.84 11.52
12/23/2021 1:15:00 AM 4.28 39.704 0.305 8.11 3.8 11.5
12/23/2021 1:30:00 AM 4.25 39.65 0.304 8.11 3.54 11.52
12/23/2021 1:45:00 AM 4.25 39.65 0.305 8.11 3.87 11.44
12/23/2021 2:00:00 AM 4.2 39.56 0.303 8.11 3.62 11.49
12/23/2021 2:15:00 AM 4.18 39.524 0.302 8.11 3.78 11.47
12/23/2021 2:30:00 AM 4.18 39.524 0.303 8.1 3.67 11.34
12/23/2021 2:45:00 AM 4.15 39.47 0.303 8.1 7.77 11.41
12/23/2021 3:00:00 AM 4.14 39.452 0.303 8.1 4.04 11.31
12/23/2021 3:15:00 AM 4.09 39.362 0.303 8.09 3.82 11.18
12/23/2021 3:30:00 AM 4.12 39.416 0.304 8.08 4.42 11.18
12/23/2021 3:45:00 AM 4.05 39.29 0.305 8.07 3.8 11.31
12/23/2021 4:00:00 AM 4.01 39.218 0.304 8.07 5.11 11.43
12/23/2021 4:15:00 AM 4.03 39.254 0.306 8.06 3.75 11.35
12/23/2021 4:30:00 AM 3.99 39.182 0.304 8.06 3.48 11.18
12/23/2021 4:45:00 AM 3.98 39.164 0.304 8.06 4.26 11.42
12/23/2021 5:00:00 AM 3.91 39.038 0.302 8.05 4.13 11.44
12/23/2021 5:15:00 AM 3.84 38.912 0.303 8.05 3.57 11.49
12/23/2021 5:30:00 AM 3.81 38.858 0.303 8.04 3.39 11.45
12/23/2021 5:45:00 AM 3.8 38.84 0.303 8.03 3.81 11.34
12/23/2021 6:00:00 AM 3.76 38.768 0.304 8.03 3.48 11.46
12/23/2021 6:15:00 AM 3.71 38.678 0.274 8.03 4.57 11.5
12/23/2021 6:30:00 AM 3.66 38.588 0.305 8.02 3.76 11.49
12/23/2021 6:45:00 AM 3.68 38.624 0.306 8.01 4.06 11.41
12/23/2021 7:00:00 AM 3.66 38.588 0.306 8 3.57 11.44
12/23/2021 7:15:00 AM 3.6 38.48 0.306 8 3.61 11.45
12/23/2021 7:30:00 AM 3.57 38.426 0.305 7.99 3.45 11.36
12/23/2021 7:45:00 AM 3.52 38.336 0.305 7.99 5.49 11.5
12/23/2021 8:00:00 AM 3.54 38.372 0.305 7.99 3.57 11.49
12/23/2021 8:15:00 AM 3.5 38.3 0.305 7.98 3.36 11.6
12/23/2021 8:30:00 AM 3.46 38.228 0.303 7.98 4.18 11.74
12/23/2021 8:45:00 AM 3.47 38.246 0.302 7.99 3.7 11.85
12/23/2021 9:00:00 AM 3.5 38.3 0.304 8 3.86 11.96
12/23/2021 9:15:00 AM 3.56 38.408 0.261 7.99 3.52 11.9
12/23/2021 9:30:00 AM 3.53 38.354 0.303 7.99 3.5 12.01
12/23/2021 9:45:00 AM 3.49 38.282 0.304 8.01 6.39 12.22
12/23/2021 10:00:00 AM 3.54 38.372 0.306 8.01 3.66 12.22
12/23/2021 10:15:00 AM 3.54 38.372 0.307 8.02 3.85 12.34
12/23/2021 10:30:00 AM 3.53 38.354 0.305 8.03 3.5 12.46
12/23/2021 10:45:00 AM 3.6 38.48 0.303 8.05 3.64 12.57
12/23/2021 11:00:00 AM 3.64 38.552 0.303 8.07 3.72 12.78
12/23/2021 11:15:00 AM 3.71 38.678 0.294 8.08 3.36 12.9
12/23/2021 11:30:00 AM 3.77 38.786 0.297 8.1 3.89 12.96
12/23/2021 11:45:00 AM 3.82 38.876 0.301 8.11 3.8 13.08
12/23/2021 12:00:00 PM 3.87 38.966 0.3 8.14 3.59 13.19
12/23/2021 12:15:00 PM 3.89 39.002 0.298 8.15 3.91 13.31
12/23/2021 12:30:00 PM 3.96 39.128 0.301 8.17 3.61 13.4
12/23/2021 12:45:00 PM 3.98 39.164 0.301 8.2 3.48 13.47
12/23/2021 1:00:00 PM 4.02 39.236 0.3 8.22 3.56 13.56
12/23/2021 1:15:00 PM 4 39.2 0.299 8.23 3.71 13.6
12/23/2021 1:30:00 PM 4.05 39.29 0.299 8.26 3.46 13.74
12/23/2021 1:45:00 PM 4.1 39.38 0.299 8.28 3.37 13.83
12/23/2021 2:00:00 PM 4.16 39.488 0.3 8.3 3.64 13.72
12/23/2021 2:15:00 PM 4.2 39.56 0.3 8.32 3.39 13.9
12/23/2021 2:30:00 PM 4.2 39.56 0.298 8.33 3.67 13.9
12/23/2021 2:45:00 PM 4.24 39.632 0.296 8.35 3.69 13.83
12/23/2021 3:00:00 PM 4.29 39.722 0.299 8.35 3.87 13.83
12/23/2021 3:15:00 PM 4.25 39.65 0.296 8.39 3.58 14
12/23/2021 3:30:00 PM 4.25 39.65 0.296 8.4 4.11 13.99
12/23/2021 3:45:00 PM 4.26 39.668 0.296 8.41 3.46 13.91
12/23/2021 4:00:00 PM 4.28 39.704 0.296 8.42 4.01 13.93
12/23/2021 4:15:00 PM 4.27 39.686 0.294 8.43 3.61 13.87
12/23/2021 4:30:00 PM 4.28 39.704 0.296 8.43 3.64 13.83
12/23/2021 4:45:00 PM 4.26 39.668 0.292 8.43 3.71 13.72
12/23/2021 5:00:00 PM 4.25 39.65 0.295 8.43 3.84 13.63
12/23/2021 5:15:00 PM 4.23 39.614 0.283 8.43 3.54 13.54
12/23/2021 5:30:00 PM 4.21 39.578 0.293 8.41 3.33 13.41
12/23/2021 5:45:00 PM 4.18 39.524 0.295 8.41 3.57 13.35
12/23/2021 6:00:00 PM 4.17 39.506 0.25 8.41 3.77 13.23
12/23/2021 6:15:00 PM 4.17 39.506 0.27 8.4 3.44 13.16
12/23/2021 6:30:00 PM 4.14 39.452 0.272 8.39 3.62 13.07
12/23/2021 6:45:00 PM 4.11 39.398 0.285 8.38 3.89 12.99
12/23/2021 7:00:00 PM 4.11 39.398 0.295 8.36 3.6 12.9
12/23/2021 7:15:00 PM 4.11 39.398 0.291 8.36 3.32 12.83
12/23/2021 7:30:00 PM 4.1 39.38 0.295 8.34 3.25 12.74
12/23/2021 7:45:00 PM 4.1 39.38 0.292 8.32 3.51 12.67
12/23/2021 8:00:00 PM 4.09 39.362 0.244 8.31 3.63 12.59
12/23/2021 8:15:00 PM 4.06 39.308 0.244 8.3 3.53 12.52
12/23/2021 8:30:00 PM 4.07 39.326 0.285 8.28 3.43 12.45
12/23/2021 8:45:00 PM 4.06 39.308 0.252 8.27 3.66 12.38
12/23/2021 9:00:00 PM 4.07 39.326 0.299 8.25 3.77 12.33
12/23/2021 9:15:00 PM 4.08 39.344 0.3 8.24 3.61 12.27
12/23/2021 9:30:00 PM 4.06 39.308 0.301 8.23 3.5 12.23
12/23/2021 9:45:00 PM 4.09 39.362 0.302 8.22 3.42 12.19
12/23/2021 10:00:00 PM 4.09 39.362 0.303 8.21 3.62 12.14
12/23/2021 10:15:00 PM 4.1 39.38 0.303 8.2 3.79 12.07
12/23/2021 10:30:00 PM 4.1 39.38 0.302 8.19 3.34 12.06
12/23/2021 10:45:00 PM 4.12 39.416 0.302 8.19 4.12 12.05
12/23/2021 11:00:00 PM 4.14 39.452 0.301 8.19 3.87 11.99
12/23/2021 11:15:00 PM 4.15 39.47 0.3 8.18 3.59 11.91
12/23/2021 11:30:00 PM 4.16 39.488 0.3 8.18 3.58 11.94
12/23/2021 11:45:00 PM 4.17 39.506 0.297 8.18 3.44 11.92
12/24/2021 12:00:00 AM 4.2 39.56 0.298 8.17 3.5 11.86
12/24/2021 12:15:00 AM 4.19 39.542 0.3 8.16 3.3 11.8
12/24/2021 12:30:00 AM 4.21 39.578 0.301 8.16 3.73 11.86
12/24/2021 12:45:00 AM 4.25 39.65 0.303 8.15 3.75 11.76
12/24/2021 1:00:00 AM 4.24 39.632 0.303 8.14 3.55 11.71
12/24/2021 1:15:00 AM 4.26 39.668 0.303 8.15 3.48 11.74
12/24/2021 1:30:00 AM 4.27 39.686 0.303 8.15 3.6 11.74
12/24/2021 1:45:00 AM 4.26 39.668 0.303 8.15 3.7 11.74
12/24/2021 2:00:00 AM 4.29 39.722 0.301 8.14 3.51 11.71
12/24/2021 2:15:00 AM 4.28 39.704 0.301 8.14 3.44 11.73
12/24/2021 2:30:00 AM 4.28 39.704 0.3 8.14 3.61 11.7
12/24/2021 2:45:00 AM 4.31 39.758 0.299 8.14 3.65 11.66
12/24/2021 3:00:00 AM 4.29 39.722 0.3 8.13 4.3 11.66
12/24/2021 3:15:00 AM 4.3 39.74 0.3 8.12 3.37 11.63
12/24/2021 3:30:00 AM 4.32 39.776 0.302 8.12 3.7 11.62
12/24/2021 3:45:00 AM 4.32 39.776 0.303 8.11 4.51 11.59
12/24/2021 4:00:00 AM 4.32 39.776 0.302 8.1 3.71 11.58
12/24/2021 4:15:00 AM 4.32 39.776 0.303 8.09 4.28 11.56
12/24/2021 4:30:00 AM 4.32 39.776 0.302 8.09 3.45 11.53
12/24/2021 4:45:00 AM 4.32 39.776 0.302 8.07 3.36 11.52
12/24/2021 5:00:00 AM 4.33 39.794 0.301 8.07 3.45 11.51
12/24/2021 5:15:00 AM 4.32 39.776 0.301 8.05 3.62 11.45
12/24/2021 5:30:00 AM 4.32 39.776 0.301 8.05 3.68 11.47
12/24/2021 5:45:00 AM 4.32 39.776 0.302 8.04 3.7 11.46
12/24/2021 6:00:00 AM 4.31 39.758 0.302 8.03 3.86 11.46
12/24/2021 6:15:00 AM 4.28 39.704 0.303 8.02 3.41 11.44
12/24/2021 6:30:00 AM 4.26 39.668 0.299 8.01 4.04 11.4
12/24/2021 6:45:00 AM 4.25 39.65 0.306 8.01 3.65 11.4
12/24/2021 7:00:00 AM 4.21 39.578 0.306 8 3.47 11.38
12/24/2021 7:15:00 AM 4.21 39.578 0.307 8 4.12 11.35
12/24/2021 7:30:00 AM 4.22 39.596 0.308 7.99 3.54 11.32
12/24/2021 7:45:00 AM 4.15 39.47 0.306 7.99 3.65 11.4
12/24/2021 8:00:00 AM 4.13 39.434 0.306 7.98 3.46 11.44
12/24/2021 8:15:00 AM 4.13 39.434 0.306 7.98 3.54 11.47
12/24/2021 8:30:00 AM 4.12 39.416 0.305 7.98 5.18 11.51
12/24/2021 8:45:00 AM 4.11 39.398 0.305 7.99 3.56 11.63
12/24/2021 9:00:00 AM 4.13 39.434 0.305 7.99 3.45 11.72
12/24/2021 9:15:00 AM 4.13 39.434 0.306 7.99 3.74 11.77
12/24/2021 9:30:00 AM 4.15 39.47 0.306 8 4.12 11.87
12/24/2021 9:45:00 AM 4.18 39.524 0.307 8.01 3.79 11.98
12/24/2021 10:00:00 AM 4.2 39.56 0.307 8.01 3.53 12.05
12/24/2021 10:15:00 AM 4.25 39.65 0.307 8.02 3.41 12.09
12/24/2021 10:30:00 AM 4.28 39.704 0.306 8.03 3.45 12.27
12/24/2021 10:45:00 AM 4.32 39.776 0.306 8.04 3.62 12.38
12/24/2021 11:00:00 AM 4.36 39.848 0.305 8.06 3.56 12.43
12/24/2021 11:15:00 AM 4.42 39.956 0.305 8.07 3.48 12.53
12/24/2021 11:30:00 AM 4.46 40.028 0.303 8.09 3.33 12.65
12/24/2021 11:45:00 AM 4.52 40.136 0.302 8.1 3.89 12.73
12/24/2021 12:00:00 PM 4.58 40.244 0.303 8.12 9.1 12.81
12/24/2021 12:15:00 PM 4.63 40.334 0.302 8.13 4.04 12.9
12/24/2021 12:30:00 PM 4.67 40.406 0.302 8.15 3.56 12.98
12/24/2021 12:45:00 PM 4.74 40.532 0.303 8.17 3.95 13.05
12/24/2021 1:00:00 PM 4.8 40.64 0.302 8.19 3.85 13.15
12/24/2021 1:15:00 PM 4.85 40.73 0.302 8.21 3.36 13.2
12/24/2021 1:30:00 PM 4.91 40.838 0.301 8.23 3.76 13.31
12/24/2021 1:45:00 PM 4.95 40.91 0.3 8.25 3.59 13.36
12/24/2021 2:00:00 PM 5 41 0.3 8.27 3.54 13.42
12/24/2021 2:15:00 PM 5.06 41.108 0.299 8.28 3.84 13.48
12/24/2021 2:30:00 PM 5.12 41.216 0.298 8.3 3.95 13.54
12/24/2021 2:45:00 PM 5.17 41.306 0.298 8.32 3.22 13.59
12/24/2021 3:00:00 PM 5.21 41.378 0.298 8.34 3.54 13.58
12/24/2021 3:15:00 PM 5.25 41.45 0.298 8.35 3.73 13.59
12/24/2021 3:30:00 PM 5.28 41.504 0.298 8.36 3.69 13.54
12/24/2021 3:45:00 PM 5.29 41.522 0.298 8.36 3.67 13.55
12/24/2021 4:00:00 PM 5.33 41.594 0.298 8.37 6.54 13.47
12/24/2021 4:15:00 PM 5.35 41.63 0.298 8.37 7.72 13.36
12/24/2021 4:30:00 PM 5.37 41.666 0.299 8.37 3.77 13.28
12/24/2021 4:45:00 PM 5.38 41.684 0.298 8.37 3.83 13.2
12/24/2021 5:00:00 PM 5.39 41.702 0.298 8.36 4.37 13.09
12/24/2021 5:15:00 PM 5.41 41.738 0.297 8.36 4.49 12.97
12/24/2021 5:30:00 PM 5.42 41.756 0.297 8.35 3.67 12.89
12/24/2021 5:45:00 PM 5.44 41.792 0.297 8.34 3.53 12.79
12/24/2021 6:00:00 PM 5.46 41.828 0.298 8.33 3.62 12.68
12/24/2021 6:15:00 PM 5.46 41.828 0.298 8.32 3.61 12.63
12/24/2021 6:30:00 PM 5.48 41.864 0.296 8.31 3.48 12.47
12/24/2021 6:45:00 PM 5.51 41.918 0.3 8.29 3.55 12.38
12/24/2021 7:00:00 PM 5.5 41.9 0.297 8.27 3.51 12.29
12/24/2021 7:15:00 PM 5.51 41.918 0.299 8.26 3.82 12.22
12/24/2021 7:30:00 PM 5.51 41.918 0.299 8.24 3.73 12.08
12/24/2021 7:45:00 PM 5.52 41.936 0.295 8.22 3.56 12.05
12/24/2021 8:00:00 PM 5.52 41.936 0.289 8.21 3.63 11.97
12/24/2021 8:15:00 PM 5.53 41.954 0.299 8.19 3.42 11.85
12/24/2021 8:30:00 PM 5.51 41.918 0.299 8.17 3.8 11.74
12/24/2021 8:45:00 PM 5.54 41.972 0.299 8.16 3.41 11.75
12/24/2021 9:00:00 PM 5.55 41.99 0.3 8.15 3.69 11.68
12/24/2021 9:15:00 PM 5.57 42.026 0.301 8.14 3.55 11.63
12/24/2021 9:30:00 PM 5.6 42.08 0.3 8.13 3.58 11.58
12/24/2021 9:45:00 PM 5.61 42.098 0.29 8.12 3.91 11.51
12/24/2021 10:00:00 PM 5.64 42.152 0.302 8.11 3.36 11.49
12/24/2021 10:15:00 PM 5.65 42.17 0.302 8.1 3.54 11.42
12/24/2021 10:30:00 PM 5.67 42.206 0.286 8.09 3.58 11.41
12/24/2021 10:45:00 PM 5.71 42.278 0.301 8.09 3.76 11.38
12/24/2021 11:00:00 PM 5.73 42.314 0.3 8.08 3.69 11.21
12/24/2021 11:15:00 PM 5.75 42.35 0.299 8.08 3.67 11.3
12/24/2021 11:30:00 PM 5.78 42.404 0.299 8.08 3.66 11.27
12/24/2021 11:45:00 PM 5.79 42.422 0.299 8.08 3.77 11.25
12/25/2021 12:00:00 AM 5.82 42.476 0.3 8.07 3.43 11.17
12/25/2021 12:15:00 AM 5.84 42.512 0.301 8.07 3.68 11.12
12/25/2021 12:30:00 AM 5.85 42.53 0.302 8.07 3.59 11.14
12/25/2021 12:45:00 AM 5.87 42.566 0.302 8.06 3.35 11.07
12/25/2021 1:00:00 AM 5.89 42.602 0.303 8.05 3.95 10.96
12/25/2021 1:15:00 AM 5.92 42.656 0.302 8.05 3.64 11.03
12/25/2021 1:30:00 AM 5.94 42.692 0.302 8.05 3.79 11
12/25/2021 1:45:00 AM 5.96 42.728 0.302 8.05 3.53 10.95
12/25/2021 2:00:00 AM 5.98 42.764 0.301 8.05 3.55 10.94
12/25/2021 2:15:00 AM 5.98 42.764 0.3 8.04 3.65 10.92
12/25/2021 2:30:00 AM 5.99 42.782 0.299 8.04 3.5 10.88
12/25/2021 2:45:00 AM 6 42.8 0.298 8.04 3.53 10.88
12/25/2021 3:00:00 AM 6.02 42.836 0.299 8.03 3.94 10.85
12/25/2021 3:15:00 AM 6.03 42.854 0.3 8.02 3.81 10.84
12/25/2021 3:30:00 AM 6.04 42.872 0.301 8.02 3.63 10.8
12/25/2021 3:45:00 AM 6.07 42.926 0.303 8.01 3.98 10.76
12/25/2021 4:00:00 AM 6.08 42.944 0.302 8 3.58 10.78
12/25/2021 4:15:00 AM 6.09 42.962 0.302 7.99 5.79 10.74
12/25/2021 4:30:00 AM 6.1 42.98 0.301 7.99 5.11 10.72
12/25/2021 4:45:00 AM 6.11 42.998 0.302 7.98 3.96 10.71
12/25/2021 5:00:00 AM 6.12 43.016 0.301 7.97 3.51 10.67
12/25/2021 5:15:00 AM 6.13 43.034 0.301 7.96 4.04 10.62
12/25/2021 5:30:00 AM 6.14 43.052 0.301 7.95 3.6 10.58
12/25/2021 5:45:00 AM 6.14 43.052 0.301 7.94 3.73 10.55
12/25/2021 6:00:00 AM 6.15 43.07 0.301 7.93 4.31 10.59
12/25/2021 6:15:00 AM 6.16 43.088 0.302 7.91 3.49 10.48
12/25/2021 6:30:00 AM 6.19 43.142 0.304 7.91 3.72 10.52
12/25/2021 6:45:00 AM 6.19 43.142 0.304 7.9 3.75 10.49
12/25/2021 7:00:00 AM 6.22 43.196 0.304 7.89 4.3 10.5
12/25/2021 7:15:00 AM 6.22 43.196 0.304 7.88 3.72 10.49
12/25/2021 7:30:00 AM 6.23 43.214 0.304 7.88 3.76 10.48
12/25/2021 7:45:00 AM 6.24 43.232 0.304 7.87 3.76 10.48
12/25/2021 8:00:00 AM 6.24 43.232 0.308 7.87 3.56 10.44
12/25/2021 8:15:00 AM 6.26 43.268 0.303 7.86 3.79 10.47
12/25/2021 8:30:00 AM 6.26 43.268 0.303 7.86 4.26 10.51
12/25/2021 8:45:00 AM 6.27 43.286 0.303 7.86 3.81 10.49
12/25/2021 9:00:00 AM 6.31 43.358 0.303 7.86 3.62 10.53
12/25/2021 9:15:00 AM 6.34 43.412 0.304 7.86 3.67 10.68
12/25/2021 9:30:00 AM 6.38 43.484 0.304 7.87 3.77 10.82
12/25/2021 9:45:00 AM 6.4 43.52 0.305 7.88 3.8 10.91
12/25/2021 10:00:00 AM 6.47 43.646 0.305 7.89 4 10.97
12/25/2021 10:15:00 AM 6.49 43.682 0.305 7.89 3.61 11.05
12/25/2021 10:30:00 AM 6.5 43.7 0.305 7.92 3.72 11.19
12/25/2021 10:45:00 AM 6.54 43.772 0.305 7.92 3.73 11.05
12/25/2021 11:00:00 AM 6.56 43.808 0.304 7.93 3.88 11.23
12/25/2021 11:15:00 AM 6.62 43.916 0.303 7.94 3.71 11.43
12/25/2021 11:30:00 AM 6.66 43.988 0.302 7.96 4.02 11.57
12/25/2021 11:45:00 AM 6.7 44.06 0.303 7.98 3.77 11.62
12/25/2021 12:00:00 PM 6.73 44.114 0.302 8 3.6 11.69
12/25/2021 12:15:00 PM 6.75 44.15 0.301 8.01 3.87 11.74
12/25/2021 12:30:00 PM 6.81 44.258 0.302 8.03 3.51 11.84
12/25/2021 12:45:00 PM 6.85 44.33 0.301 8.05 3.75 11.96
12/25/2021 1:00:00 PM 6.97 44.546 0.302 8.07 4.03 12.02
12/25/2021 1:15:00 PM 7.01 44.618 0.302 8.08 4.02 11.94
12/25/2021 1:30:00 PM 7.08 44.744 0.3 8.11 3.8 12.24
12/25/2021 1:45:00 PM 7.12 44.816 0.3 8.13 3.93 12.21
12/25/2021 2:00:00 PM 7.14 44.852 0.299 8.15 3.78 12.2
12/25/2021 2:15:00 PM 7.16 44.888 0.298 8.18 3.81 12.37
12/25/2021 2:30:00 PM 7.18 44.924 0.299 8.19 4 12.26
12/25/2021 2:45:00 PM 7.21 44.978 0.297 8.2 4.24 12.21
12/25/2021 3:00:00 PM 7.24 45.032 0.299 8.2 3.64 12.22
12/25/2021 3:15:00 PM 7.26 45.068 0.298 8.21 3.66 12.25
12/25/2021 3:30:00 PM 7.28 45.104 0.297 8.22 3.66 12.18
12/25/2021 3:45:00 PM 7.3 45.14 0.297 8.22 3.91 12.12
12/25/2021 4:00:00 PM 7.32 45.176 0.297 8.22 3.81 12.05
12/25/2021 4:15:00 PM 7.34 45.212 0.297 8.22 4.13 11.97
12/25/2021 4:30:00 PM 7.36 45.248 0.297 8.21 3.91 11.89
12/25/2021 4:45:00 PM 7.38 45.284 0.298 8.2 3.96 11.74
12/25/2021 5:00:00 PM 7.39 45.302 0.297 8.19 4.3 11.71
12/25/2021 5:15:00 PM 7.41 45.338 0.295 8.18 3.98 11.56
12/25/2021 5:30:00 PM 7.42 45.356 0.296 8.17 3.87 11.47
12/25/2021 5:45:00 PM 7.44 45.392 0.295 8.15 3.72 11.35
12/25/2021 6:00:00 PM 7.45 45.41 0.296 8.12 3.8 11.22
12/25/2021 6:15:00 PM 7.46 45.428 0.283 8.11 3.9 11.14
12/25/2021 6:30:00 PM 7.47 45.446 0.298 8.09 3.77 11.09
12/25/2021 6:45:00 PM 7.49 45.482 0.297 8.07 4.35 10.96
12/25/2021 7:00:00 PM 7.5 45.5 0.297 8.05 4.41 10.95
12/25/2021 7:15:00 PM 7.51 45.518 0.297 8.04 5.08 10.87
12/25/2021 7:30:00 PM 7.53 45.554 0.296 8.03 3.72 10.84
12/25/2021 7:45:00 PM 7.54 45.572 0.297 8.01 3.96 10.73
12/25/2021 8:00:00 PM 7.54 45.572 0.297 8 4.11 10.7
12/25/2021 8:15:00 PM 7.55 45.59 0.297 7.98 3.7 10.63
12/25/2021 8:30:00 PM 7.55 45.59 0.297 7.97 7.36 10.6
12/25/2021 8:45:00 PM 7.56 45.608 0.297 7.96 4.1 10.49
12/25/2021 9:00:00 PM 7.58 45.644 0.283 7.95 3.98 10.48
12/25/2021 9:15:00 PM 7.58 45.644 0.289 7.93 4.45 10.44
12/25/2021 9:30:00 PM 7.58 45.644 0.298 7.92 4.11 10.26
12/25/2021 9:45:00 PM 7.58 45.644 0.3 7.92 3.74 10.38
12/25/2021 10:00:00 PM 7.59 45.662 0.285 7.91 3.72 10.33
12/25/2021 10:15:00 PM 7.58 45.644 0.295 7.91 3.84 10.33
12/25/2021 10:30:00 PM 7.57 45.626 0.298 7.9 3.71 10.28
12/25/2021 10:45:00 PM 7.59 45.662 0.297 7.89 3.85 10.26
12/25/2021 11:00:00 PM 7.59 45.662 0.297 7.88 3.66 10.26
12/25/2021 11:15:00 PM 7.61 45.698 0.298 7.88 4.94 10.28
12/25/2021 11:30:00 PM 7.59 45.662 0.299 7.87 4.05 10.24
12/25/2021 11:45:00 PM 7.59 45.662 0.299 7.88 3.85 10.26
12/26/2021 12:00:00 AM 7.58 45.644 0.3 7.88 4.12 10.25
12/26/2021 12:15:00 AM 7.57 45.626 0.301 7.88 4 10.22
12/26/2021 12:30:00 AM 7.56 45.608 0.302 7.88 3.87 10.21
12/26/2021 12:45:00 AM 7.55 45.59 0.3 7.87 3.85 10.18
12/26/2021 1:00:00 AM 7.55 45.59 0.298 7.85 4.05 10.13
12/26/2021 1:15:00 AM 7.53 45.554 0.301 7.85 4.78 10.14
12/26/2021 1:30:00 AM 7.53 45.554 0.301 7.85 4.19 10.17
12/26/2021 1:45:00 AM 7.52 45.536 0.3 7.84 3.92 10.17
12/26/2021 2:00:00 AM 7.52 45.536 0.3 7.83 4.01 10.12
12/26/2021 2:15:00 AM 7.51 45.518 0.298 7.83 4.51 10.13
12/26/2021 2:30:00 AM 7.51 45.518 0.298 7.82 3.92 10.12
12/26/2021 2:45:00 AM 7.48 45.464 0.298 7.82 4.32 10.07
12/26/2021 3:00:00 AM 7.48 45.464 0.299 7.82 4.47 10.09
12/26/2021 3:15:00 AM 7.45 45.41 0.299 7.83 4.22 10.03
12/26/2021 3:30:00 AM 7.47 45.446 0.3 7.84 4.24 10.04
12/26/2021 3:45:00 AM 7.45 45.41 0.299 7.83 4.38 10.03
12/26/2021 4:00:00 AM 7.45 45.41 0.299 7.83 3.83 10.05
12/26/2021 4:15:00 AM 7.44 45.392 0.299 7.83 3.92 10.04
12/26/2021 4:30:00 AM 7.45 45.41 0.298 7.83 4.22 10.02
12/26/2021 4:45:00 AM 7.41 45.338 0.298 7.82 3.97 10.01
12/26/2021 5:00:00 AM 7.4 45.32 0.297 7.82 6.47 10.03
12/26/2021 5:15:00 AM 7.38 45.284 0.297 7.82 4.28 10.03
12/26/2021 5:30:00 AM 7.37 45.266 0.297 7.82 3.79 10.06
12/26/2021 5:45:00 AM 7.33 45.194 0.298 7.82 3.9 10.03
12/26/2021 6:00:00 AM 7.32 45.176 0.299 7.81 4 10.05
12/26/2021 6:15:00 AM 7.28 45.104 0.299 7.81 3.94 10.04
12/26/2021 6:30:00 AM 7.26 45.068 0.3 7.8 4.34 10.02
12/26/2021 6:45:00 AM 7.22 44.996 0.3 7.8 4.09 10.05
12/26/2021 7:00:00 AM 7.19 44.942 0.3 7.8 3.78 10.03
12/26/2021 7:15:00 AM 7.16 44.888 0.3 7.8 3.91 10.05
12/26/2021 7:30:00 AM 7.13 44.834 0.3 7.79 3.97 9.98
12/26/2021 7:45:00 AM 7.11 44.798 0.3 7.79 4.38 9.93
12/26/2021 8:00:00 AM 7.07 44.726 0.299 7.79 4.18 10.1
12/26/2021 8:15:00 AM 7.06 44.708 0.298 7.8 4.15 10.17
12/26/2021 8:30:00 AM 7.05 44.69 0.299 7.8 3.83 10.24
12/26/2021 8:45:00 AM 7.06 44.708 0.3 7.8 4.06 10.32
12/26/2021 9:00:00 AM 7.04 44.672 0.3 7.81 3.9 10.39
12/26/2021 9:15:00 AM 7.05 44.69 0.301 7.81 3.69 10.38
12/26/2021 9:30:00 AM 7.06 44.708 0.301 7.82 3.86 10.45
12/26/2021 9:45:00 AM 7.07 44.726 0.301 7.83 3.78 10.52
12/26/2021 10:00:00 AM 7.1 44.78 0.301 7.83 3.63 10.33
12/26/2021 10:15:00 AM 7.14 44.852 0.3 7.85 4.16 10.76
12/26/2021 10:30:00 AM 7.16 44.888 0.299 7.86 3.66 10.95
12/26/2021 10:45:00 AM 7.2 44.96 0.3 7.88 3.56 10.89
12/26/2021 11:00:00 AM 7.23 45.014 0.3 7.89 4.54 10.92
12/26/2021 11:15:00 AM 7.24 45.032 0.298 7.9 4.3 11.06
12/26/2021 11:30:00 AM 7.29 45.122 0.297 7.92 3.91 11.06
12/26/2021 11:45:00 AM 7.32 45.176 0.298 7.94 3.8 11.35
12/26/2021 12:00:00 PM 7.37 45.266 0.298 7.96 4.19 11.28
12/26/2021 12:15:00 PM 7.4 45.32 0.299 7.97 5.21 11.36
12/26/2021 12:30:00 PM 7.43 45.374 0.299 7.99 7.23 11.58
12/26/2021 12:45:00 PM 7.48 45.464 0.298 8 4.36 11.36
12/26/2021 1:00:00 PM 7.52 45.536 0.298 8.03 4.98 11.63
12/26/2021 1:15:00 PM 7.55 45.59 0.298 8.03 4.22 11.4
12/26/2021 1:30:00 PM 7.59 45.662 0.297 8.06 4.04 11.88
12/26/2021 1:45:00 PM 7.6 45.68 0.296 8.09 4.2 11.86
12/26/2021 2:00:00 PM 7.64 45.752 0.296 8.12 3.96 12.13
12/26/2021 2:15:00 PM 7.65 45.77 0.295 8.13 4.04 11.69
12/26/2021 2:30:00 PM 7.66 45.788 0.295 8.14 4.79 11.98
12/26/2021 2:45:00 PM 7.66 45.788 0.297 8.15 3.97 11.64
12/26/2021 3:00:00 PM 7.69 45.842 0.296 8.17 3.72 12.05
12/26/2021 3:15:00 PM 7.68 45.824 0.295 8.18 4.6 12.04
12/26/2021 3:30:00 PM 7.68 45.824 0.296 8.19 3.79 12.08
12/26/2021 3:45:00 PM 7.7 45.86 0.296 8.19 3.56 11.86
12/26/2021 4:00:00 PM 7.68 45.824 0.295 8.2 3.83 12.1
12/26/2021 4:15:00 PM 7.68 45.824 0.295 8.21 3.77 11.95
12/26/2021 4:30:00 PM 7.66 45.788 0.294 8.22 3.63 12.05
12/26/2021 4:45:00 PM 7.64 45.752 0.295 8.21 3.86 11.68
12/26/2021 5:00:00 PM 7.62 45.716 0.296 8.21 4.22 11.62
12/26/2021 5:15:00 PM 7.59 45.662 0.296 8.2 4.63 11.63
12/26/2021 5:30:00 PM 7.55 45.59 0.295 8.2 3.74 11.63
12/26/2021 5:45:00 PM 7.53 45.554 0.295 8.19 3.8 11.57
12/26/2021 6:00:00 PM 7.53 45.554 0.296 8.17 3.85 11.41
12/26/2021 6:15:00 PM 7.5 45.5 0.296 8.16 4.12 11.41
12/26/2021 6:30:00 PM 7.49 45.482 0.295 8.15 3.81 11.29
12/26/2021 6:45:00 PM 7.49 45.482 0.297 8.13 3.74 11.22
12/26/2021 7:00:00 PM 7.46 45.428 0.295 8.13 3.73 11.26
12/26/2021 7:15:00 PM 7.43 45.374 0.295 8.12 3.78 11.19
12/26/2021 7:30:00 PM 7.41 45.338 0.295 8.11 3.91 11.09
12/26/2021 7:45:00 PM 7.42 45.356 0.294 8.11 3.67 11.13
12/26/2021 8:00:00 PM 7.38 45.284 0.294 8.1 4.32 11.08
12/26/2021 8:15:00 PM 7.35 45.23 0.294 8.09 3.62 11.02
12/26/2021 8:30:00 PM 7.31 45.158 0.295 8.07 3.99 10.87
12/26/2021 8:45:00 PM 7.3 45.14 0.295 8.06 4.72 10.91
12/26/2021 9:00:00 PM 7.27 45.086 0.295 8.06 3.6 10.85
12/26/2021 9:15:00 PM 7.24 45.032 0.296 8.05 3.66 10.78
12/26/2021 9:30:00 PM 7.23 45.014 0.296 8.04 3.78 10.8
12/26/2021 9:45:00 PM 7.17 44.906 0.296 8.04 3.69 10.71
12/26/2021 10:00:00 PM 7.17 44.906 0.296 8.04 3.6 10.76
12/26/2021 10:15:00 PM 7.12 44.816 0.296 8.03 3.49 10.71
12/26/2021 10:30:00 PM 7.09 44.762 0.296 8.03 3.87 10.66
12/26/2021 10:45:00 PM 7.08 44.744 0.295 8.03 3.53 10.7
12/26/2021 11:00:00 PM 7.05 44.69 0.295 8.02 3.89 10.63
12/26/2021 11:15:00 PM 7.03 44.654 0.294 8.03 4.13 10.64
12/26/2021 11:30:00 PM 7 44.6 0.294 8.03 4.01 10.64
12/26/2021 11:45:00 PM 6.98 44.564 0.294 8.03 4.23 10.58
12/27/2021 12:00:00 AM 6.95 44.51 0.295 8.03 4.12 10.62
12/27/2021 12:15:00 AM 6.95 44.51 0.296 8.03 4.22 10.62
12/27/2021 12:30:00 AM 6.9 44.42 0.297 8.02 4.45 10.56
12/27/2021 12:45:00 AM 6.88 44.384 0.297 8.03 3.76 10.58
12/27/2021 1:00:00 AM 6.84 44.312 0.297 8.02 3.89 10.55
12/27/2021 1:15:00 AM 6.81 44.258 0.296 8.02 3.71 10.55
12/27/2021 1:30:00 AM 6.79 44.222 0.296 8.02 3.53 10.56
12/27/2021 1:45:00 AM 6.74 44.132 0.295 8.01 3.76 10.43
12/27/2021 2:00:00 AM 6.71 44.078 0.295 8.02 3.56 10.55
12/27/2021 2:15:00 AM 6.65 43.97 0.296 8.01 3.9 10.48
12/27/2021 2:30:00 AM 6.65 43.97 0.294 8.01 4.68 10.55
12/27/2021 2:45:00 AM 6.63 43.934 0.294 8.01 3.95 10.55
12/27/2021 3:00:00 AM 6.59 43.862 0.295 8 3.63 10.43
12/27/2021 3:15:00 AM 6.58 43.844 0.296 8 3.47 10.55
12/27/2021 3:30:00 AM 6.54 43.772 0.297 8 4.31 10.54
12/27/2021 3:45:00 AM 6.53 43.754 0.297 7.99 3.91 10.51
12/27/2021 4:00:00 AM 6.47 43.646 0.297 7.98 4.01 10.4
12/27/2021 4:15:00 AM 6.47 43.646 0.297 7.97 4.02 10.52
12/27/2021 4:30:00 AM 6.44 43.592 0.296 7.97 3.73 10.47
12/27/2021 4:45:00 AM 6.41 43.538 0.297 7.96 4.57 10.41
12/27/2021 5:00:00 AM 6.41 43.538 0.297 7.95 3.77 10.47
12/27/2021 5:15:00 AM 6.36 43.448 0.296 7.94 3.6 10.43
12/27/2021 5:30:00 AM 6.35 43.43 0.296 7.94 3.76 10.5
12/27/2021 5:45:00 AM 6.33 43.394 0.296 7.93 3.62 10.35
12/27/2021 6:00:00 AM 6.29 43.322 0.296 7.92 5.65 10.5
12/27/2021 6:15:00 AM 6.28 43.304 0.297 7.91 4.42 10.47
12/27/2021 6:30:00 AM 6.27 43.286 0.298 7.91 3.91 10.52
12/27/2021 6:45:00 AM 6.27 43.286 0.298 7.9 3.54 10.49
12/27/2021 7:00:00 AM 6.25 43.25 0.298 7.9 3.65 10.46
12/27/2021 7:15:00 AM 6.23 43.214 0.299 7.89 3.66 10.53
12/27/2021 7:30:00 AM 6.22 43.196 0.298 7.89 4.46 10.49
12/27/2021 7:45:00 AM 6.19 43.142 0.298 7.88 3.95 10.52
12/27/2021 8:00:00 AM 6.19 43.142 0.297 7.88 3.83 10.53
12/27/2021 8:15:00 AM 6.2 43.16 0.298 7.87 4.1 10.51
12/27/2021 8:30:00 AM 6.16 43.088 0.297 7.87 4.86 10.49
12/27/2021 8:45:00 AM 6.14 43.052 0.297 7.87 4.04 10.51
12/27/2021 9:00:00 AM 6.15 43.07 0.297 7.86 3.79 10.54
12/27/2021 9:15:00 AM 6.18 43.124 0.297 7.87 4.03 10.78
12/27/2021 9:30:00 AM 6.19 43.142 0.298 7.87 3.6 10.74
12/27/2021 9:45:00 AM 6.16 43.088 0.298 7.88 3.73 10.86
12/27/2021 10:00:00 AM 6.15 43.07 0.298 7.88 3.9 10.89
12/27/2021 10:15:00 AM 6.06 42.908 0.297 7.88 3.7 10.9
12/27/2021 10:30:00 AM 5.84 42.512 0.296 7.89 4.03 10.92
12/27/2021 10:45:00 AM 5.69 42.242 0.294 7.9 4 11.02
12/27/2021 11:00:00 AM 5.55 41.99 0.293 7.91 3.47 11.07
12/27/2021 11:15:00 AM 5.62 42.116 0.292 7.92 3.87 11.18
12/27/2021 11:30:00 AM 5.49 41.882 0.291 7.92 3.57 11.24
12/27/2021 11:45:00 AM 5.42 41.756 0.291 7.94 4.5 11.39
12/27/2021 12:00:00 PM 5.44 41.792 0.29 7.95 3.58 11.48
12/27/2021 12:15:00 PM 5.45 41.81 0.29 7.96 4.01 11.56
12/27/2021 12:30:00 PM 5.44 41.792 0.29 7.98 3.67 11.65
12/27/2021 12:45:00 PM 5.47 41.846 0.29 7.99 3.53 11.75
12/27/2021 1:00:00 PM 5.47 41.846 0.29 8.01 3.72 11.84
12/27/2021 1:15:00 PM 5.48 41.864 0.289 8.02 3.96 11.88
12/27/2021 1:30:00 PM 5.49 41.882 0.289 8.03 3.69 11.91
12/27/2021 1:45:00 PM 5.47 41.846 0.288 8.04 3.77 12.03
12/27/2021 2:00:00 PM 5.46 41.828 0.287 8.05 3.9 12.06
12/27/2021 2:15:00 PM 5.46 41.828 0.287 8.06 3.66 12.09
12/27/2021 2:30:00 PM 5.47 41.846 0.286 8.08 3.53 12.2
12/27/2021 2:45:00 PM 5.47 41.846 0.286 8.09 3.45 12.22
12/27/2021 3:00:00 PM 5.5 41.9 0.286 8.1 4.02 12.27
12/27/2021 3:15:00 PM 5.52 41.936 0.286 8.11 3.83 12.3
12/27/2021 3:30:00 PM 5.54 41.972 0.287 8.12 3.85 12.3
12/27/2021 3:45:00 PM 5.57 42.026 0.288 8.13 4.3 12.29
12/27/2021 4:00:00 PM 5.59 42.062 0.287 8.13 3.31 12.27
12/27/2021 4:15:00 PM 5.61 42.098 0.288 8.13 4.58 12.19
12/27/2021 4:30:00 PM 5.62 42.116 0.289 8.14 3.93 12.15
12/27/2021 4:45:00 PM 5.64 42.152 0.289 8.13 3.86 12.11
12/27/2021 5:00:00 PM 5.64 42.152 0.289 8.13 3.58 12.02
12/27/2021 5:15:00 PM 5.64 42.152 0.289 8.12 3.83 11.93
12/27/2021 5:30:00 PM 5.65 42.17 0.29 8.11 4.01 11.85
12/27/2021 5:45:00 PM 5.66 42.188 0.291 8.1 3.69 11.85
12/27/2021 6:00:00 PM 5.65 42.17 0.292 8.09 4.1 11.77
12/27/2021 6:15:00 PM 5.65 42.17 0.293 8.09 4.97 11.76
12/27/2021 6:30:00 PM 5.66 42.188 0.294 8.08 3.59 11.67
12/27/2021 6:45:00 PM 5.64 42.152 0.295 8.06 3.87 11.64
12/27/2021 7:00:00 PM 5.64 42.152 0.296 8.04 3.86 11.58
12/27/2021 7:15:00 PM 5.63 42.134 0.296 8.04 3.82 11.52
12/27/2021 7:30:00 PM 5.63 42.134 0.296 8.03 4.09 11.46
12/27/2021 7:45:00 PM 5.65 42.17 0.297 8.01 3.8 11.34
12/27/2021 8:00:00 PM 5.63 42.134 0.297 8 3.7 11.39
12/27/2021 8:15:00 PM 5.62 42.116 0.296 7.99 3.96 11.35
12/27/2021 8:30:00 PM 5.61 42.098 0.297 7.99 3.49 11.3
12/27/2021 8:45:00 PM 5.62 42.116 0.296 7.98 3.58 11.23
12/27/2021 9:00:00 PM 5.6 42.08 0.298 7.98 3.48 11.26
12/27/2021 9:15:00 PM 5.61 42.098 0.299 7.97 3.65 11.22
12/27/2021 9:30:00 PM 5.64 42.152 0.3 7.96 3.98 11.17
12/27/2021 9:45:00 PM 5.61 42.098 0.3 7.95 3.6 11.14
12/27/2021 10:00:00 PM 5.61 42.098 0.3 7.95 3.77 11.17
12/27/2021 10:15:00 PM 5.61 42.098 0.3 7.94 4.32 11.1
12/27/2021 10:30:00 PM 5.6 42.08 0.299 7.94 3.88 11.1
12/27/2021 10:45:00 PM 5.6 42.08 0.3 7.93 5.14 11.1
12/27/2021 11:00:00 PM 5.6 42.08 0.299 7.92 4.05 11.11
12/27/2021 11:15:00 PM 5.58 42.044 0.299 7.92 3.65 11.12
12/27/2021 11:30:00 PM 5.57 42.026 0.3 7.92 4.05 11.07
12/27/2021 11:45:00 PM 5.58 42.044 0.301 7.91 3.81 10.95
12/28/2021 12:00:00 AM 5.58 42.044 0.301 7.91 3.97 10.98
12/28/2021 12:15:00 AM 5.58 42.044 0.302 7.91 3.62 10.95
12/28/2021 12:30:00 AM 5.57 42.026 0.305 7.9 3.99 11
12/28/2021 1:00:00 AM 5.56 42.008 0.305 7.9 3.63 11
12/28/2021 1:15:00 AM 5.54 41.972 0.305 7.9 4.07 11
12/28/2021 1:30:00 AM 5.55 41.99 0.305 7.9 4 11.02
12/28/2021 1:45:00 AM 5.54 41.972 0.304 7.9 3.96 10.95
12/28/2021 2:00:00 AM 5.56 42.008 0.304 7.9 4.2 11
12/28/2021 2:15:00 AM 5.55 41.99 0.303 7.89 4.19 10.93
12/28/2021 2:30:00 AM 5.55 41.99 0.304 7.89 3.98 10.94
12/28/2021 2:45:00 AM 5.53 41.954 0.306 7.89 4.81 10.98
12/28/2021 3:00:00 AM 5.53 41.954 0.307 7.89 4.27 10.91
12/28/2021 3:15:00 AM 5.53 41.954 0.308 7.88 3.75 10.91
12/28/2021 3:30:00 AM 5.48 41.864 0.309 7.88 3.8 10.95
12/28/2021 3:45:00 AM 5.48 41.864 0.31 7.88 3.89 10.94
12/28/2021 4:00:00 AM 5.46 41.828 0.31 7.88 4.25 10.92
12/28/2021 4:15:00 AM 5.45 41.81 0.309 7.88 3.61 10.9
12/28/2021 4:30:00 AM 5.45 41.81 0.309 7.88 6.39 10.83
12/28/2021 4:45:00 AM 5.42 41.756 0.308 7.88 3.54 10.92
12/28/2021 5:00:00 AM 5.4 41.72 0.307 7.88 3.7 10.84
12/28/2021 5:15:00 AM 5.4 41.72 0.306 7.87 3.8 10.91
12/28/2021 5:30:00 AM 5.4 41.72 0.307 7.87 3.87 10.8
12/28/2021 5:45:00 AM 5.39 41.702 0.306 7.86 8 10.83
12/28/2021 6:00:00 AM 5.37 41.666 0.307 7.86 3.72 10.65
12/28/2021 6:15:00 AM 5.36 41.648 0.307 7.86 4.31 10.84
12/28/2021 6:30:00 AM 5.4 41.72 0.307 7.85 3.86 10.74
12/28/2021 6:45:00 AM 5.36 41.648 0.307 7.84 3.75 10.75
12/28/2021 7:00:00 AM 5.37 41.666 0.307 7.84 4.77 10.83
12/28/2021 7:15:00 AM 5.37 41.666 0.307 7.84 3.51 10.79
12/28/2021 7:30:00 AM 5.36 41.648 0.306 7.83 3.66 10.8
12/28/2021 7:45:00 AM 5.35 41.63 0.305 7.83 3.85 10.82
12/28/2021 8:00:00 AM 5.35 41.63 0.305 7.83 3.76 10.81
12/28/2021 8:15:00 AM 5.4 41.72 0.306 7.82 4.62 10.8
12/28/2021 8:30:00 AM 5.37 41.666 0.305 7.83 3.94 10.91
12/28/2021 8:45:00 AM 5.37 41.666 0.304 7.83 3.89 10.9
12/28/2021 9:00:00 AM 5.4 41.72 0.305 7.84 4.28 11.05
12/28/2021 9:15:00 AM 5.41 41.738 0.305 7.84 3.72 11.16
12/28/2021 9:30:00 AM 5.45 41.81 0.305 7.85 3.63 11.25
12/28/2021 9:45:00 AM 5.48 41.864 0.305 7.86 4.75 11.37
12/28/2021 10:00:00 AM 5.49 41.882 0.305 7.88 3.82 11.48
12/28/2021 10:15:00 AM 5.52 41.936 0.305 7.89 3.74 11.62
12/28/2021 10:30:00 AM 5.53 41.954 0.303 7.91 3.85 11.68
12/28/2021 10:45:00 AM 5.54 41.972 0.303 7.92 3.6 11.77
12/28/2021 11:00:00 AM 5.54 41.972 0.302 7.94 3.78 11.84
12/28/2021 11:15:00 AM 5.55 41.99 0.302 7.95 4.14 11.92
12/28/2021 11:30:00 AM 5.56 42.008 0.301 7.97 3.68 11.99
12/28/2021 11:45:00 AM 5.58 42.044 0.301 7.98 3.5 12.06
12/28/2021 12:00:00 PM 5.61 42.098 0.301 8 3.66 12.14
12/28/2021 12:15:00 PM 5.63 42.134 0.301 8 3.73 12.2
12/28/2021 12:30:00 PM 5.65 42.17 0.301 8.02 4.15 12.25
12/28/2021 12:45:00 PM 5.68 42.224 0.301 8.04 3.8 12.32
12/28/2021 1:00:00 PM 5.7 42.26 0.301 8.05 3.66 12.36
12/28/2021 1:15:00 PM 5.72 42.296 0.301 8.06 3.96 12.41
12/28/2021 1:30:00 PM 5.73 42.314 0.3 8.08 3.78 12.45
12/28/2021 1:45:00 PM 5.74 42.332 0.299 8.09 3.73 12.45
12/28/2021 2:00:00 PM 5.75 42.35 0.299 8.09 3.96 12.33
12/28/2021 2:15:00 PM 5.75 42.35 0.298 8.09 3.82 12.29
12/28/2021 2:30:00 PM 5.75 42.35 0.298 8.1 3.78 12.38
12/28/2021 2:45:00 PM 5.78 42.404 0.298 8.1 3.71 12.28
12/28/2021 3:00:00 PM 5.78 42.404 0.298 8.1 3.52 12.25
12/28/2021 3:15:00 PM 5.77 42.386 0.298 8.09 3.71 12.2
12/28/2021 3:30:00 PM 5.77 42.386 0.298 8.1 4.08 12.21
12/28/2021 3:45:00 PM 5.79 42.422 0.298 8.1 5.14 12.13
12/28/2021 4:00:00 PM 5.78 42.404 0.298 8.09 3.68 12.09
12/28/2021 4:15:00 PM 5.78 42.404 0.297 8.09 3.81 12.09
12/28/2021 4:30:00 PM 5.77 42.386 0.297 8.08 3.64 12.02
12/28/2021 4:45:00 PM 5.78 42.404 0.297 8.08 3.79 11.94
12/28/2021 5:00:00 PM 5.76 42.368 0.297 8.07 3.65 11.9
12/28/2021 5:15:00 PM 5.76 42.368 0.297 8.07 3.76 11.81
12/28/2021 5:30:00 PM 5.78 42.404 0.298 8.06 3.88 11.74
12/28/2021 5:45:00 PM 5.76 42.368 0.298 8.05 3.63 11.56
12/28/2021 6:00:00 PM 5.77 42.386 0.299 8.04 3.99 11.62
12/28/2021 6:15:00 PM 5.78 42.404 0.299 8.03 3.76 11.53
12/28/2021 6:30:00 PM 5.78 42.404 0.299 8.02 3.73 11.53
12/28/2021 6:45:00 PM 5.79 42.422 0.299 8.01 3.6 11.48
12/28/2021 7:00:00 PM 5.79 42.422 0.299 8 3.63 11.42
12/28/2021 7:15:00 PM 5.81 42.458 0.299 7.98 3.71 11.3
12/28/2021 7:30:00 PM 5.82 42.476 0.299 7.98 4.12 11.34
12/28/2021 7:45:00 PM 5.8 42.44 0.299 7.97 3.72 11.34
12/28/2021 8:00:00 PM 5.81 42.458 0.299 7.97 4.22 11.32
12/28/2021 8:15:00 PM 5.82 42.476 0.299 7.96 3.99 11.24
12/28/2021 8:30:00 PM 5.84 42.512 0.301 7.95 3.93 11.19
12/28/2021 8:45:00 PM 5.85 42.53 0.301 7.95 3.77 11.12
12/28/2021 9:00:00 PM 5.86 42.548 0.302 7.94 3.71 11.06
12/28/2021 9:15:00 PM 5.86 42.548 0.303 7.93 3.65 11.02
12/28/2021 9:30:00 PM 5.87 42.566 0.304 7.93 3.65 11.11
12/28/2021 9:45:00 PM 5.88 42.584 0.304 7.92 3.89 11.11
12/28/2021 10:00:00 PM 5.91 42.638 0.305 7.92 4.31 11.04
12/28/2021 10:15:00 PM 5.91 42.638 0.305 7.92 3.62 11.03
12/28/2021 10:30:00 PM 5.91 42.638 0.306 7.92 3.84 11.03
12/28/2021 10:45:00 PM 5.93 42.674 0.305 7.92 4.47 11.02
12/28/2021 11:00:00 PM 5.93 42.674 0.304 7.91 4.03 10.97
12/28/2021 11:15:00 PM 5.93 42.674 0.304 7.91 3.73 10.98
12/28/2021 11:30:00 PM 5.94 42.692 0.305 7.91 4.11 10.95
12/28/2021 11:45:00 PM 5.96 42.728 0.306 7.9 3.85 10.87
12/29/2021 12:00:00 AM 5.98 42.764 0.306 7.89 3.82 10.87
12/29/2021 12:15:00 AM 5.98 42.764 0.308 7.89 3.63 10.86
12/29/2021 12:30:00 AM 6.01 42.818 0.308 7.89 3.73 10.82
12/29/2021 12:45:00 AM 6.02 42.836 0.308 7.87 4.44 10.76
12/29/2021 1:00:00 AM 6.02 42.836 0.308 7.88 3.86 10.88
12/29/2021 1:15:00 AM 6.03 42.854 0.308 7.87 3.95 10.75
12/29/2021 1:30:00 AM 6.02 42.836 0.307 7.87 4.57 10.78
12/29/2021 1:45:00 AM 6.03 42.854 0.306 7.87 4.12 10.82
12/29/2021 2:00:00 AM 6.02 42.836 0.306 7.87 4.06 10.79
12/29/2021 2:15:00 AM 6.03 42.854 0.305 7.86 4.45 10.77
12/29/2021 2:30:00 AM 6.05 42.89 0.305 7.86 4.47 10.78
12/29/2021 2:45:00 AM 6.06 42.908 0.305 7.86 4.16 10.72
12/29/2021 3:00:00 AM 6.08 42.944 0.306 7.86 4.12 10.67
12/29/2021 3:15:00 AM 6.06 42.908 0.306 7.85 4.06 10.71
12/29/2021 3:30:00 AM 6.09 42.962 0.306 7.84 3.6 10.62
12/29/2021 3:45:00 AM 6.09 42.962 0.307 7.84 4.12 10.64
12/29/2021 4:00:00 AM 6.09 42.962 0.306 7.83 3.96 10.64
12/29/2021 4:15:00 AM 6.1 42.98 0.306 7.83 3.91 10.61
12/29/2021 4:30:00 AM 6.1 42.98 0.305 7.83 4.62 10.66
12/29/2021 4:45:00 AM 6.1 42.98 0.305 7.82 4.39 10.56
12/29/2021 5:00:00 AM 6.1 42.98 0.304 7.83 4.16 10.65
12/29/2021 5:15:00 AM 6.11 42.998 0.304 7.82 4.19 10.59
12/29/2021 5:30:00 AM 6.12 43.016 0.304 7.82 4.76 10.6
12/29/2021 5:45:00 AM 6.13 43.034 0.305 7.82 3.54 10.55
12/29/2021 6:00:00 AM 6.12 43.016 0.306 7.82 3.67 10.61
12/29/2021 6:15:00 AM 6.13 43.034 0.306 7.81 4.33 10.6
12/29/2021 6:30:00 AM 6.15 43.07 0.307 7.81 3.82 10.59
12/29/2021 6:45:00 AM 6.17 43.106 0.307 7.8 3.79 10.6
12/29/2021 7:00:00 AM 6.17 43.106 0.307 7.8 3.57 10.58
12/29/2021 7:15:00 AM 6.17 43.106 0.306 7.8 4.13 10.59
12/29/2021 7:30:00 AM 6.18 43.124 0.306 7.8 3.72 10.57
12/29/2021 7:45:00 AM 6.21 43.178 0.307 7.8 3.65 10.51
12/29/2021 8:00:00 AM 6.21 43.178 0.305 7.8 3.98 10.59
12/29/2021 8:15:00 AM 6.21 43.178 0.304 7.8 3.89 10.64
12/29/2021 8:30:00 AM 6.24 43.232 0.304 7.8 4.1 10.68
12/29/2021 8:45:00 AM 6.26 43.268 0.305 7.81 3.64 10.77
12/29/2021 9:00:00 AM 6.29 43.322 0.305 7.81 3.72 10.82
12/29/2021 9:15:00 AM 6.32 43.376 0.306 7.82 3.9 10.91
12/29/2021 9:30:00 AM 6.34 43.412 0.306 7.83 3.69 10.99
12/29/2021 9:45:00 AM 6.38 43.484 0.306 7.84 3.69 11.06
12/29/2021 10:00:00 AM 6.42 43.556 0.306 7.85 3.88 11.16
12/29/2021 10:15:00 AM 6.43 43.574 0.304 7.86 4.16 11.24
12/29/2021 10:30:00 AM 6.49 43.682 0.304 7.87 3.92 11.35
12/29/2021 10:45:00 AM 6.54 43.772 0.302 7.89 4.06 11.46
12/29/2021 11:00:00 AM 6.56 43.808 0.302 7.91 4.1 11.59
12/29/2021 11:15:00 AM 6.62 43.916 0.301 7.93 3.94 11.66
12/29/2021 11:30:00 AM 6.64 43.952 0.301 7.94 3.67 11.72
12/29/2021 11:45:00 AM 6.67 44.006 0.301 7.96 3.78 11.81
12/29/2021 12:00:00 PM 6.7 44.06 0.301 7.98 3.76 11.87
12/29/2021 12:15:00 PM 6.74 44.132 0.302 7.99 3.83 11.91
12/29/2021 12:30:00 PM 6.79 44.222 0.301 8.01 3.58 12.02
12/29/2021 12:45:00 PM 6.84 44.312 0.301 8.02 4.06 12.04
12/29/2021 1:00:00 PM 6.91 44.438 0.301 8.05 3.68 12.24
12/29/2021 1:15:00 PM 6.96 44.528 0.3 8.07 3.74 12.26
12/29/2021 1:30:00 PM 7 44.6 0.3 8.09 3.85 12.31
12/29/2021 1:45:00 PM 7.05 44.69 0.3 8.1 3.66 12.32
12/29/2021 2:00:00 PM 7.11 44.798 0.298 8.12 3.97 12.47
12/29/2021 2:15:00 PM 7.17 44.906 0.298 8.14 3.85 12.53
12/29/2021 2:30:00 PM 7.22 44.996 0.299 8.16 3.92 12.51
12/29/2021 2:45:00 PM 7.24 45.032 0.298 8.18 3.99 12.58
12/29/2021 3:00:00 PM 7.26 45.068 0.298 8.19 3.66 12.59
12/29/2021 3:15:00 PM 7.29 45.122 0.299 8.21 3.97 12.63
12/29/2021 3:30:00 PM 7.29 45.122 0.299 8.22 4.04 12.58
12/29/2021 3:45:00 PM 7.3 45.14 0.299 8.22 4.18 12.55
12/29/2021 4:00:00 PM 7.29 45.122 0.299 8.23 4.66 12.48
12/29/2021 4:15:00 PM 7.29 45.122 0.298 8.23 4.1 12.44
12/29/2021 4:30:00 PM 7.3 45.14 0.298 8.23 3.97 12.38
12/29/2021 4:45:00 PM 7.3 45.14 0.298 8.23 3.64 12.3
12/29/2021 5:00:00 PM 7.31 45.158 0.298 8.23 4.25 12.19
12/29/2021 5:15:00 PM 7.32 45.176 0.298 8.22 3.9 12.11
12/29/2021 5:30:00 PM 7.32 45.176 0.298 8.21 3.76 12
12/29/2021 5:45:00 PM 7.34 45.212 0.298 8.2 3.78 11.94
12/29/2021 6:00:00 PM 7.34 45.212 0.299 8.19 4.21 11.82
12/29/2021 6:15:00 PM 7.35 45.23 0.299 8.18 3.67 11.7
12/29/2021 6:30:00 PM 7.35 45.23 0.299 8.17 3.98 11.64
12/29/2021 6:45:00 PM 7.35 45.23 0.299 8.15 3.68 11.52
12/29/2021 7:00:00 PM 7.35 45.23 0.299 8.14 3.9 11.48
12/29/2021 7:15:00 PM 7.35 45.23 0.298 8.13 3.87 11.4
12/29/2021 7:30:00 PM 7.35 45.23 0.298 8.11 4.05 11.24
12/29/2021 7:45:00 PM 7.35 45.23 0.298 8.1 3.69 11.27
12/29/2021 8:00:00 PM 7.34 45.212 0.298 8.09 3.79 11.16
12/29/2021 8:15:00 PM 7.35 45.23 0.298 8.07 3.53 11.12
12/29/2021 8:30:00 PM 7.36 45.248 0.298 8.06 4.63 11.06
12/29/2021 8:45:00 PM 7.36 45.248 0.298 8.05 5.02 11.02
12/29/2021 9:00:00 PM 7.37 45.266 0.299 8.03 3.67 10.96
12/29/2021 9:15:00 PM 7.38 45.284 0.3 8.03 4.15 10.91
12/29/2021 9:30:00 PM 7.39 45.302 0.3 8.02 5.56 10.84
12/29/2021 9:45:00 PM 7.41 45.338 0.3 8 3.71 10.78
12/29/2021 10:00:00 PM 7.42 45.356 0.3 8 3.81 10.8
12/29/2021 10:15:00 PM 7.43 45.374 0.299 7.99 4.08 10.67
12/29/2021 10:30:00 PM 7.45 45.41 0.299 7.99 3.56 10.7
12/29/2021 10:45:00 PM 7.46 45.428 0.298 7.99 4.02 10.68
12/29/2021 11:00:00 PM 7.47 45.446 0.297 7.98 3.97 10.62
12/29/2021 11:15:00 PM 7.49 45.482 0.297 7.98 3.99 10.65
12/29/2021 11:30:00 PM 7.5 45.5 0.298 7.98 3.93 10.64
12/29/2021 11:45:00 PM 7.53 45.554 0.3 7.97 3.82 10.57
12/30/2021 12:00:00 AM 7.54 45.572 0.301 7.97 3.58 10.56
12/30/2021 12:15:00 AM 7.55 45.59 0.302 7.96 4.03 10.53
12/30/2021 12:30:00 AM 7.57 45.626 0.302 7.96 3.91 10.51
12/30/2021 12:45:00 AM 7.59 45.662 0.302 7.96 3.62 10.48
12/30/2021 1:00:00 AM 7.6 45.68 0.301 7.95 3.88 10.48
12/30/2021 1:15:00 AM 7.61 45.698 0.3 7.95 3.66 10.44
12/30/2021 1:30:00 AM 7.61 45.698 0.299 7.95 4.35 10.43
12/30/2021 1:45:00 AM 7.62 45.716 0.298 7.94 4.31 10.35
12/30/2021 2:00:00 AM 7.63 45.734 0.297 7.94 4.04 10.35
12/30/2021 2:15:00 AM 7.63 45.734 0.297 7.93 3.57 10.38
12/30/2021 2:30:00 AM 7.64 45.752 0.297 7.93 3.75 10.37
12/30/2021 2:45:00 AM 7.65 45.77 0.298 7.92 4.6 10.2
12/30/2021 3:00:00 AM 7.65 45.77 0.298 7.91 4.11 10.19
12/30/2021 3:15:00 AM 7.66 45.788 0.299 7.9 3.73 10.25
12/30/2021 3:30:00 AM 7.67 45.806 0.299 7.9 4.03 10.26
12/30/2021 3:45:00 AM 7.68 45.824 0.3 7.88 4.44 10.03
12/30/2021 4:00:00 AM 7.68 45.824 0.298 7.87 4.04 10.22
12/30/2021 4:15:00 AM 7.69 45.842 0.298 7.87 4.03 10.19
12/30/2021 4:30:00 AM 7.69 45.842 0.297 7.86 4.03 10.18
12/30/2021 4:45:00 AM 7.69 45.842 0.297 7.85 4.84 10.16
12/30/2021 5:00:00 AM 7.69 45.842 0.297 7.85 4.66 10.12
12/30/2021 5:15:00 AM 7.7 45.86 0.296 7.84 4.36 10.15
12/30/2021 5:30:00 AM 7.7 45.86 0.297 7.83 3.89 10.05
12/30/2021 5:45:00 AM 7.71 45.878 0.298 7.82 4.18 10.08
12/30/2021 6:00:00 AM 7.73 45.914 0.298 7.82 4.51 10.07
12/30/2021 6:15:00 AM 7.73 45.914 0.299 7.81 4.18 10.09
12/30/2021 6:30:00 AM 7.74 45.932 0.299 7.8 4.03 10.06
12/30/2021 6:45:00 AM 7.75 45.95 0.301 7.79 4.47 10.01
12/30/2021 7:00:00 AM 7.76 45.968 0.299 7.79 4.8 10
12/30/2021 7:15:00 AM 7.76 45.968 0.299 7.78 4.23 10.03
12/30/2021 7:30:00 AM 7.77 45.986 0.298 7.78 4.38 9.98
12/30/2021 7:45:00 AM 7.77 45.986 0.297 7.77 4.28 10.05
12/30/2021 8:00:00 AM 7.78 46.004 0.297 7.77 4.11 10
12/30/2021 8:15:00 AM 7.79 46.022 0.297 7.77 4.57 9.98
12/30/2021 8:30:00 AM 7.8 46.04 0.297 7.76 3.97 9.99
12/30/2021 8:45:00 AM 7.81 46.058 0.297 7.76 4.11 9.96
12/30/2021 9:00:00 AM 7.84 46.112 0.299 7.76 4.35 9.98
12/30/2021 9:15:00 AM 7.85 46.13 0.299 7.76 4.02 10.08
12/30/2021 9:30:00 AM 7.86 46.148 0.299 7.76 4.22 10.01
12/30/2021 9:45:00 AM 7.88 46.184 0.298 7.76 4.21 10.2
12/30/2021 10:00:00 AM 7.89 46.202 0.298 7.76 3.96 10.23
12/30/2021 10:15:00 AM 7.91 46.238 0.297 7.77 3.99 10.28
12/30/2021 10:30:00 AM 7.93 46.274 0.296 7.77 4.4 10.34
12/30/2021 10:45:00 AM 7.95 46.31 0.295 7.78 4.03 10.4
12/30/2021 11:00:00 AM 7.99 46.382 0.295 7.79 4.05 10.51
12/30/2021 11:15:00 AM 8.04 46.472 0.294 7.8 3.93 10.64
12/30/2021 11:30:00 AM 8.09 46.562 0.294 7.82 3.71 10.81
12/30/2021 11:45:00 AM 8.13 46.634 0.294 7.84 3.92 10.89
12/30/2021 12:00:00 PM 8.19 46.742 0.295 7.86 3.85 10.99
12/30/2021 12:15:00 PM 8.22 46.796 0.295 7.87 4.12 11.08
12/30/2021 12:30:00 PM 8.27 46.886 0.295 7.89 4.15 11.14
12/30/2021 12:45:00 PM 8.32 46.976 0.294 7.91 3.77 11.27
12/30/2021 1:00:00 PM 8.37 47.066 0.294 7.92 3.76 11.28
12/30/2021 1:15:00 PM 8.42 47.156 0.294 7.94 4.3 11.36
12/30/2021 1:30:00 PM 8.44 47.192 0.293 7.96 3.98 11.41
12/30/2021 1:45:00 PM 8.47 47.246 0.293 7.97 3.78 11.41
12/30/2021 2:00:00 PM 8.49 47.282 0.292 7.98 3.86 11.42
12/30/2021 2:15:00 PM 8.51 47.318 0.291 7.99 4.06 11.42
12/30/2021 2:30:00 PM 8.54 47.372 0.291 8 4.02 11.43
12/30/2021 2:45:00 PM 8.56 47.408 0.292 8.01 3.84 11.41
12/30/2021 3:00:00 PM 8.6 47.48 0.292 8.02 4.17 11.44
12/30/2021 3:15:00 PM 8.62 47.516 0.292 8.02 3.7 11.39
12/30/2021 3:30:00 PM 8.64 47.552 0.292 8.03 4.52 11.37
12/30/2021 3:45:00 PM 8.67 47.606 0.292 8.03 3.8 11.33
12/30/2021 4:00:00 PM 8.69 47.642 0.292 8.02 4.07 11.22
12/30/2021 4:15:00 PM 8.71 47.678 0.291 8.02 3.91 11.21
12/30/2021 4:30:00 PM 8.73 47.714 0.291 8.03 3.74 11.19
12/30/2021 4:45:00 PM 8.74 47.732 0.292 8.02 4.08 11.06
12/30/2021 5:00:00 PM 8.75 47.75 0.291 8.01 3.95 11.01
12/30/2021 5:15:00 PM 8.77 47.786 0.292 8.01 3.71 10.98
12/30/2021 5:30:00 PM 8.78 47.804 0.292 8 3.8 10.91
12/30/2021 5:45:00 PM 8.79 47.822 0.292 7.98 3.97 10.77
12/30/2021 6:00:00 PM 8.81 47.858 0.293 7.98 4.33 10.8
12/30/2021 6:15:00 PM 8.82 47.876 0.294 7.97 3.94 10.7
12/30/2021 6:30:00 PM 8.84 47.912 0.293 7.96 3.9 10.66
12/30/2021 6:45:00 PM 8.85 47.93 0.294 7.95 4.19 10.56
12/30/2021 7:00:00 PM 8.88 47.984 0.294 7.95 3.61 10.6
12/30/2021 7:15:00 PM 8.88 47.984 0.293 7.94 3.85 10.55
12/30/2021 7:30:00 PM 8.89 48.002 0.294 7.93 4.64 10.47
12/30/2021 7:45:00 PM 8.91 48.038 0.293 7.92 4.06 10.4
12/30/2021 8:00:00 PM 8.91 48.038 0.293 7.91 3.78 10.37
12/30/2021 8:15:00 PM 8.92 48.056 0.294 7.9 3.92 10.3
12/30/2021 8:30:00 PM 8.93 48.074 0.295 7.89 3.91 10.26
12/30/2021 8:45:00 PM 8.94 48.092 0.296 7.88 4.1 10.23
12/30/2021 9:00:00 PM 8.95 48.11 0.298 7.87 4.17 10.17
12/30/2021 9:15:00 PM 8.96 48.128 0.299 7.87 3.83 10.14
12/30/2021 9:30:00 PM 8.97 48.146 0.299 7.86 3.81 10.12
12/30/2021 9:45:00 PM 8.98 48.164 0.299 7.85 3.93 10.1
12/30/2021 10:00:00 PM 8.99 48.182 0.299 7.85 3.78 10.05
12/30/2021 10:15:00 PM 9 48.2 0.298 7.85 4.41 10.06
12/30/2021 10:30:00 PM 9 48.2 0.297 7.84 3.86 10.04
12/30/2021 10:45:00 PM 9.01 48.218 0.296 7.84 3.84 10.01
12/30/2021 11:00:00 PM 9.02 48.236 0.296 7.83 4.32 9.92
12/30/2021 11:15:00 PM 9.03 48.254 0.296 7.83 3.9 9.91
12/30/2021 11:30:00 PM 9.04 48.272 0.297 7.83 4.12 9.9
12/30/2021 11:45:00 PM 9.06 48.308 0.298 7.83 3.95 9.9
12/31/2021 12:00:00 AM 9.07 48.326 0.3 7.82 3.68 9.91
12/31/2021 12:15:00 AM 9.08 48.344 0.3 7.82 4.01 9.91
12/31/2021 12:30:00 AM 9.09 48.362 0.301 7.82 3.89 9.77
12/31/2021 12:45:00 AM 9.09 48.362 0.301 7.82 4.41 9.81
12/31/2021 1:00:00 AM 9.11 48.398 0.301 7.81 4.68 9.79
12/31/2021 1:15:00 AM 9.13 48.434 0.299 7.81 3.81 9.83
12/31/2021 1:30:00 AM 9.14 48.452 0.298 7.81 4.15 9.84
12/31/2021 1:45:00 AM 9.15 48.47 0.297 7.81 5.5 9.75
12/31/2021 2:00:00 AM 9.15 48.47 0.297 7.8 4.14 9.75
12/31/2021 2:15:00 AM 9.16 48.488 0.296 7.8 7.59 9.77
12/31/2021 2:30:00 AM 9.17 48.506 0.296 7.8 4.2 9.72
12/31/2021 2:45:00 AM 9.17 48.506 0.297 7.79 4.09 9.72
12/31/2021 3:00:00 AM 9.18 48.524 0.298 7.79 3.76 9.69
12/31/2021 3:15:00 AM 9.19 48.542 0.298 7.79 3.84 9.63
12/31/2021 3:30:00 AM 9.19 48.542 0.298 7.78 4.22 9.65
12/31/2021 3:45:00 AM 9.2 48.56 0.298 7.78 3.93 9.68
12/31/2021 4:00:00 AM 9.2 48.56 0.298 7.78 4.67 9.64
12/31/2021 4:15:00 AM 9.2 48.56 0.297 7.77 13.02 9.62
12/31/2021 4:30:00 AM 9.21 48.578 0.296 7.76 4.16 9.67
12/31/2021 4:45:00 AM 9.21 48.578 0.296 7.77 4.15 9.66
12/31/2021 5:00:00 AM 9.22 48.596 0.296 7.76 4 9.62
12/31/2021 5:15:00 AM 9.22 48.596 0.296 7.76 4.23 9.65
12/31/2021 5:30:00 AM 9.22 48.596 0.296 7.76 3.94 9.64
12/31/2021 5:45:00 AM 9.23 48.614 0.297 7.75 4.27 9.59
12/31/2021 6:00:00 AM 9.23 48.614 0.298 7.75 4 9.59
12/31/2021 6:15:00 AM 9.24 48.632 0.299 7.75 4.46 9.57
12/31/2021 6:30:00 AM 9.24 48.632 0.299 7.74 4.29 9.47
12/31/2021 6:45:00 AM 9.25 48.65 0.299 7.74 5.06 9.51
12/31/2021 7:00:00 AM 9.25 48.65 0.298 7.73 4.08 9.49
12/31/2021 7:15:00 AM 9.25 48.65 0.298 7.73 4.15 9.51
12/31/2021 7:30:00 AM 9.25 48.65 0.297 7.74 4.43 9.55
12/31/2021 7:45:00 AM 9.25 48.65 0.297 7.74 3.79 9.55
12/31/2021 8:00:00 AM 9.25 48.65 0.296 7.73 4.08 9.54
12/31/2021 8:15:00 AM 9.26 48.668 0.296 7.73 4.6 9.54
12/31/2021 8:30:00 AM 9.27 48.686 0.296 7.74 4.2 9.63
12/31/2021 8:45:00 AM 9.28 48.704 0.297 7.73 5.31 9.62
12/31/2021 9:00:00 AM 9.29 48.722 0.298 7.74 4.08 9.69
12/31/2021 9:15:00 AM 9.3 48.74 0.298 7.73 3.82 9.61
12/31/2021 9:30:00 AM 9.31 48.758 0.298 7.74 3.99 9.69
12/31/2021 9:45:00 AM 9.32 48.776 0.297 7.74 4 9.73
12/31/2021 10:00:00 AM 9.33 48.794 0.297 7.75 4.12 9.78
12/31/2021 10:15:00 AM 9.36 48.848 0.296 7.75 4.05 9.86
12/31/2021 10:30:00 AM 9.37 48.866 0.295 7.76 4.07 9.93
12/31/2021 10:45:00 AM 9.38 48.884 0.295 7.77 4.15 9.91
12/31/2021 11:00:00 AM 9.4 48.92 0.294 7.77 3.96 9.98
12/31/2021 11:15:00 AM 9.42 48.956 0.293 7.78 4.19 10.05
12/31/2021 11:30:00 AM 9.44 48.992 0.293 7.79 3.73 10.17
12/31/2021 11:45:00 AM 9.46 49.028 0.293 7.81 4.46 10.31
12/31/2021 12:00:00 PM 9.49 49.082 0.293 7.82 5.15 10.36
12/31/2021 12:15:00 PM 9.53 49.154 0.293 7.83 4.12 10.46
12/31/2021 12:30:00 PM 9.56 49.208 0.293 7.85 4.04 10.59
12/31/2021 12:45:00 PM 9.59 49.262 0.292 7.87 4.24 10.68
12/31/2021 1:00:00 PM 9.62 49.316 0.292 7.89 4.08 10.77
12/31/2021 1:15:00 PM 9.65 49.37 0.292 7.9 3.97 10.8
12/31/2021 1:30:00 PM 9.66 49.388 0.291 7.92 4.37 10.8
12/31/2021 1:45:00 PM 9.67 49.406 0.29 7.93 4.49 10.86
12/31/2021 2:00:00 PM 9.73 49.514 0.29 7.95 3.95 10.96
12/31/2021 2:15:00 PM 9.75 49.55 0.291 7.96 3.94 11.02
12/31/2021 2:30:00 PM 9.77 49.586 0.289 7.98 4.55 11.08
12/31/2021 2:45:00 PM 9.79 49.622 0.289 7.99 4.19 11.07
12/31/2021 3:00:00 PM 9.83 49.694 0.289 8 3.95 11.16
12/31/2021 3:15:00 PM 9.85 49.73 0.29 8.02 4.05 11.19
12/31/2021 3:30:00 PM 9.87 49.766 0.289 8.03 3.98 11.23
12/31/2021 3:45:00 PM 9.9 49.82 0.29 8.04 3.72 11.21
12/31/2021 4:00:00 PM 9.91 49.838 0.29 8.05 3.99 11.23
12/31/2021 4:15:00 PM 9.92 49.856 0.289 8.06 4.19 11.15
12/31/2021 4:30:00 PM 9.93 49.874 0.289 8.06 3.75 11.07
12/31/2021 4:45:00 PM 9.93 49.874 0.288 8.06 5.14 11.05
12/31/2021 5:00:00 PM 9.93 49.874 0.288 8.06 4.32 10.92
12/31/2021 5:15:00 PM 9.93 49.874 0.288 8.06 5.18 10.86
12/31/2021 5:30:00 PM 9.94 49.892 0.288 8.05 5.36 10.78
12/31/2021 5:45:00 PM 9.94 49.892 0.289 8.04 4.13 10.62
12/31/2021 6:00:00 PM 9.94 49.892 0.289 8.02 4.05 10.6
12/31/2021 6:15:00 PM 9.95 49.91 0.289 8.01 4.08 10.56
12/31/2021 6:30:00 PM 9.95 49.91 0.289 8 4.02 10.47
12/31/2021 6:45:00 PM 9.96 49.928 0.289 7.99 4.08 10.42
12/31/2021 7:00:00 PM 9.97 49.946 0.289 7.99 4.46 10.41
12/31/2021 7:15:00 PM 9.97 49.946 0.29 7.97 4.06 10.27
12/31/2021 7:30:00 PM 9.96 49.928 0.29 7.96 4.88 10.24
12/31/2021 7:45:00 PM 9.95 49.91 0.289 7.96 3.99 10.18
12/31/2021 8:00:00 PM 9.95 49.91 0.289 7.94 4.54 10.13
12/31/2021 8:15:00 PM 9.95 49.91 0.289 7.93 4.12 9.99
12/31/2021 8:30:00 PM 9.95 49.91 0.29 7.92 4.17 10.05
12/31/2021 8:45:00 PM 9.95 49.91 0.291 7.91 3.95 10
12/31/2021 9:00:00 PM 9.96 49.928 0.291 7.9 4.23 9.98
12/31/2021 9:15:00 PM 9.95 49.91 0.293 7.89 4.22 9.87
12/31/2021 9:30:00 PM 9.96 49.928 0.293 7.88 4.39 9.87
12/31/2021 9:45:00 PM 9.97 49.946 0.293 7.88 3.83 9.84
12/31/2021 10:00:00 PM 9.97 49.946 0.293 7.87 4.13 9.8
12/31/2021 10:15:00 PM 9.98 49.964 0.292 7.86 3.82 9.78
12/31/2021 10:30:00 PM 9.99 49.982 0.292 7.86 4.46 9.77
12/31/2021 10:45:00 PM 9.99 49.982 0.292 7.86 7.19 9.76
12/31/2021 11:00:00 PM 10 50 0.291 7.86 4.67 9.75
12/31/2021 11:15:00 PM 10.01 50.018 0.291 7.85 4.5 9.73
12/31/2021 11:30:00 PM 10.01 50.018 0.291 7.85 4.32 9.72
12/31/2021 11:45:00 PM 10.02 50.036 0.292 7.85 4.29 9.67
1/1/2022 12:00:00 AM 10.04 50.072 0.293 7.84 4.09 9.53
1/1/2022 12:15:00 AM 10.04 50.072 0.294 7.83 4.08 9.51
1/1/2022 12:30:00 AM 10.06 50.108 0.295 7.83 4.42 9.61
1/1/2022 12:45:00 AM 10.07 50.126 0.295 7.83 3.82 9.57
1/1/2022 1:00:00 AM 10.08 50.144 0.295 7.83 4.92 9.55
1/1/2022 1:15:00 AM 10.09 50.162 0.294 7.82 4.53 9.55
1/1/2022 1:30:00 AM 10.1 50.18 0.295 7.82 4.1 9.49
1/1/2022 1:45:00 AM 10.1 50.18 0.294 7.82 4.02 9.46
1/1/2022 2:00:00 AM 10.11 50.198 0.293 7.81 4.25 9.47
1/1/2022 2:15:00 AM 10.12 50.216 0.292 7.82 3.77 9.5
1/1/2022 2:30:00 AM 10.13 50.234 0.293 7.81 4.18 9.42
1/1/2022 2:45:00 AM 10.13 50.234 0.293 7.81 4.05 9.44
1/1/2022 3:00:00 AM 10.14 50.252 0.294 7.81 4.15 9.42
1/1/2022 3:15:00 AM 10.14 50.252 0.295 7.8 4.23 9.43
1/1/2022 3:30:00 AM 10.15 50.27 0.296 7.8 3.82 9.38
1/1/2022 3:45:00 AM 10.16 50.288 0.296 7.79 4.09 9.37
1/1/2022 4:00:00 AM 10.16 50.288 0.297 7.78 4.41 9.27
1/1/2022 4:15:00 AM 10.16 50.288 0.297 7.78 4.88 9.26
1/1/2022 4:30:00 AM 10.17 50.306 0.296 7.78 5.18 9.26
1/1/2022 4:45:00 AM 10.17 50.306 0.295 7.77 4.54 9.25
1/1/2022 5:00:00 AM 10.17 50.306 0.295 7.77 4.22 9.26
1/1/2022 5:15:00 AM 10.17 50.306 0.295 7.77 4.34 9.27
1/1/2022 5:30:00 AM 10.17 50.306 0.295 7.76 3.96 9.22
1/1/2022 5:45:00 AM 10.17 50.306 0.296 7.75 4.39 9.23
1/1/2022 6:00:00 AM 10.18 50.324 0.297 7.76 3.96 9.29
1/1/2022 6:15:00 AM 10.18 50.324 0.298 7.74 4.54 9.23
1/1/2022 6:30:00 AM 10.18 50.324 0.298 7.74 4.22 9.25
1/1/2022 6:45:00 AM 10.18 50.324 0.298 7.74 4.37 9.21
1/1/2022 7:00:00 AM 10.18 50.324 0.299 7.74 4.03 9.17
1/1/2022 7:15:00 AM 10.19 50.342 0.298 7.74 4.74 9.24
1/1/2022 7:30:00 AM 10.18 50.324 0.298 7.74 4.19 9.22
1/1/2022 7:45:00 AM 10.19 50.342 0.298 7.73 5.02 9.23
1/1/2022 8:00:00 AM 10.18 50.324 0.298 7.72 3.98 9.12
1/1/2022 8:15:00 AM 10.19 50.342 0.298 7.72 5.17 9.15
1/1/2022 8:30:00 AM 10.19 50.342 0.297 7.72 4.37 9.17
1/1/2022 8:45:00 AM 10.2 50.36 0.297 7.72 3.97 9.25
1/1/2022 9:00:00 AM 10.21 50.378 0.298 7.72 4.23 9.29
1/1/2022 9:15:00 AM 10.22 50.396 0.298 7.72 4.06 9.26
1/1/2022 9:30:00 AM 10.23 50.414 0.298 7.73 3.88 9.38
1/1/2022 9:45:00 AM 10.24 50.432 0.299 7.73 3.97 9.4
1/1/2022 10:00:00 AM 10.26 50.468 0.299 7.73 4.52 9.42
1/1/2022 10:15:00 AM 10.27 50.486 0.299 7.73 4.06 9.51
1/1/2022 10:30:00 AM 10.29 50.522 0.298 7.75 3.96 9.63
1/1/2022 10:45:00 AM 10.3 50.54 0.298 7.76 4.49 9.7
1/1/2022 11:00:00 AM 10.32 50.576 0.297 7.76 4.67 9.71
1/1/2022 11:15:00 AM 10.34 50.612 0.296 7.77 6.43 9.86
1/1/2022 11:30:00 AM 10.36 50.648 0.296 7.78 4.06 9.9
1/1/2022 11:45:00 AM 10.39 50.702 0.295 7.79 4.24 9.98
1/1/2022 12:00:00 PM 10.41 50.738 0.296 7.8 4.08 9.99
1/1/2022 12:15:00 PM 10.43 50.774 0.296 7.8 4.18 10.02
1/1/2022 12:30:00 PM 10.46 50.828 0.297 7.82 4.48 10.15
1/1/2022 12:45:00 PM 10.49 50.882 0.297 7.83 4.47 10.23
1/1/2022 1:00:00 PM 10.52 50.936 0.297 7.83 4.44 10.25
1/1/2022 1:15:00 PM 10.55 50.99 0.295 7.85 4.46 10.4
1/1/2022 1:30:00 PM 10.58 51.044 0.295 7.87 4.82 10.43
1/1/2022 1:45:00 PM 10.61 51.098 0.294 7.89 4.26 10.5
1/1/2022 2:00:00 PM 10.63 51.134 0.293 7.91 4.6 10.56
1/1/2022 2:15:00 PM 10.64 51.152 0.294 7.92 4.57 10.56
1/1/2022 2:30:00 PM 10.66 51.188 0.293 7.92 4.25 10.56
1/1/2022 2:45:00 PM 10.67 51.206 0.293 7.93 4.12 10.54
1/1/2022 3:00:00 PM 10.68 51.224 0.293 7.94 4.19 10.53
1/1/2022 3:15:00 PM 10.69 51.242 0.293 7.94 4.38 10.46
1/1/2022 3:30:00 PM 10.7 51.26 0.293 7.94 4.6 10.4
1/1/2022 3:45:00 PM 10.7 51.26 0.293 7.94 4.01 10.32
1/1/2022 4:00:00 PM 10.7 51.26 0.293 7.93 4.33 10.24
1/1/2022 4:15:00 PM 10.72 51.296 0.293 7.93 3.96 10.21
1/1/2022 4:30:00 PM 10.71 51.278 0.292 7.92 4.02 10.17
1/1/2022 4:45:00 PM 10.72 51.296 0.292 7.92 4.22 10.09
1/1/2022 5:00:00 PM 10.72 51.296 0.291 7.91 7.98 10.02
1/1/2022 5:15:00 PM 10.73 51.314 0.291 7.9 4.39 9.96
1/1/2022 5:30:00 PM 10.73 51.314 0.291 7.89 4.67 9.94
1/1/2022 5:45:00 PM 10.73 51.314 0.291 7.88 4.37 9.89
1/1/2022 6:00:00 PM 10.74 51.332 0.292 7.88 4.59 9.83
1/1/2022 6:15:00 PM 10.74 51.332 0.293 7.86 4.62 9.73
1/1/2022 6:30:00 PM 10.75 51.35 0.292 7.85 4.23 9.75
1/1/2022 6:45:00 PM 10.74 51.332 0.29 7.84 5.13 9.64
1/1/2022 7:00:00 PM 10.75 51.35 0.288 7.83 8.26 9.63
1/1/2022 7:15:00 PM 10.75 51.35 0.288 7.83 7.25 9.58
1/1/2022 7:30:00 PM 10.75 51.35 0.288 7.81 7 9.53
1/1/2022 7:45:00 PM 10.75 51.35 0.287 7.8 8.89 9.52
1/1/2022 8:00:00 PM 10.75 51.35 0.287 7.8 7.64 9.48
1/1/2022 8:15:00 PM 10.75 51.35 0.287 7.79 9.46 9.5
1/1/2022 8:30:00 PM 10.74 51.332 0.287 7.8 10.71 9.5
1/1/2022 8:45:00 PM 10.74 51.332 0.286 7.8 10.72 9.46
1/1/2022 9:00:00 PM 10.72 51.296 0.286 7.79 13.07 9.47
1/1/2022 9:15:00 PM 10.7 51.26 0.286 7.78 16.73 9.44
1/1/2022 9:30:00 PM 10.65 51.17 0.285 7.78 21.99 9.43
1/1/2022 9:45:00 PM 10.61 51.098 0.28 7.77 37.39 9.41
1/1/2022 10:00:00 PM 10.57 51.026 0.276 7.75 38.23 9.39
1/1/2022 10:15:00 PM 10.53 50.954 0.271 7.74 32.85 9.38
1/1/2022 10:30:00 PM 10.52 50.936 0.269 7.73 34.95 9.37
1/1/2022 10:45:00 PM 10.52 50.936 0.269 7.72 34.64 9.36
1/1/2022 11:00:00 PM 10.53 50.954 0.271 7.72 38.02 9.24
1/1/2022 11:15:00 PM 10.54 50.972 0.273 7.71 24.81 9.33
1/1/2022 11:30:00 PM 10.55 50.99 0.275 7.71 29.2 9.32
1/1/2022 11:45:00 PM 10.56 51.008 0.276 7.71 25.03 9.29
1/2/2022 12:00:00 AM 10.57 51.026 0.276 7.71 19.73 9.25
1/2/2022 12:15:00 AM 10.57 51.026 0.275 7.71 19.17 9.29
1/2/2022 12:30:00 AM 10.58 51.044 0.274 7.71 22.77 9.26
1/2/2022 12:45:00 AM 10.58 51.044 0.274 7.71 16.35 9.25
1/2/2022 1:00:00 AM 10.58 51.044 0.274 7.71 18.68 9.24
1/2/2022 1:15:00 AM 10.57 51.026 0.273 7.7 28.22 9.19
1/2/2022 1:30:00 AM 10.55 50.99 0.276 7.69 30.82 9.16
1/2/2022 1:45:00 AM 10.52 50.936 0.277 7.68 26.2 9.09
1/2/2022 2:00:00 AM 10.5 50.9 0.275 7.67 32.84 9.11
1/2/2022 2:15:00 AM 10.47 50.846 0.272 7.67 21.9 9.12
1/2/2022 2:30:00 AM 10.44 50.792 0.271 7.66 25.97 9.11
1/2/2022 2:45:00 AM 10.4 50.72 0.273 7.65 32.51 9.14
1/2/2022 3:00:00 AM 10.37 50.666 0.276 7.65 23.97 9.13
1/2/2022 3:15:00 AM 10.34 50.612 0.28 7.64 40.92 9.13
1/2/2022 3:30:00 AM 10.31 50.558 0.284 7.64 20.62 9.13
1/2/2022 3:45:00 AM 10.29 50.522 0.286 7.63 41.88 9.11
1/2/2022 4:00:00 AM 10.27 50.486 0.287 7.63 29.88 8.97
1/2/2022 4:15:00 AM 10.25 50.45 0.287 7.62 22.37 7.7
1/2/2022 4:30:00 AM 10.24 50.432 0.287 7.61 36.58 8.24
1/2/2022 4:45:00 AM 10.23 50.414 0.285 7.61 32.07 8.46
1/2/2022 5:00:00 AM 10.22 50.396 0.285 7.59 779.3 7.7
1/2/2022 5:15:00 AM 10.2 50.36 0.284 7.58 31.03 9.08
1/2/2022 5:30:00 AM 10.19 50.342 0.283 7.58 33.89 8.96
1/2/2022 5:45:00 AM 10.19 50.342 0.283 7.57 42.64 8.98
1/2/2022 6:00:00 AM 10.18 50.324 0.282 7.58 24.17 9.04
1/2/2022 6:15:00 AM 10.18 50.324 0.282 7.57 30.3 9.01
1/2/2022 6:30:00 AM 10.18 50.324 0.282 7.57 29.68 9.02
1/2/2022 6:45:00 AM 10.18 50.324 0.281 7.57 29.97 9.04
1/2/2022 7:00:00 AM 10.19 50.342 0.28 7.56 29.49 9.03
1/2/2022 7:15:00 AM 10.19 50.342 0.278 7.54 36.32 9
1/2/2022 7:30:00 AM 10.19 50.342 0.276 7.54 30.41 9.01
1/2/2022 7:45:00 AM 10.19 50.342 0.274 7.53 27.99 9.03
1/2/2022 8:00:00 AM 10.2 50.36 0.271 7.52 36.21 9.02
1/2/2022 8:15:00 AM 10.2 50.36 0.27 7.53 30.71 8.99
1/2/2022 8:30:00 AM 10.22 50.396 0.269 7.53 25.57 9.05
1/2/2022 8:45:00 AM 10.23 50.414 0.268 7.53 19.25 9.05
1/2/2022 9:00:00 AM 10.24 50.432 0.267 7.53 26.21 9.08
1/2/2022 9:15:00 AM 10.26 50.468 0.267 7.54 24.06 9.07
1/2/2022 9:30:00 AM 10.29 50.522 0.268 7.54 17.04 9.11
1/2/2022 9:45:00 AM 10.32 50.576 0.269 7.55 22.1 9.13
1/2/2022 10:00:00 AM 10.36 50.648 0.27 7.55 21.85 9.18
1/2/2022 10:15:00 AM 10.39 50.702 0.271 7.56 15.07 9.2
1/2/2022 10:30:00 AM 10.43 50.774 0.271 7.56 17.82 9.25
1/2/2022 10:45:00 AM 10.46 50.828 0.271 7.56 18.77 9.3
1/2/2022 11:00:00 AM 10.51 50.918 0.271 7.56 15.1 9.36
1/2/2022 11:15:00 AM 10.54 50.972 0.271 7.57 22.36 9.37
1/2/2022 11:30:00 AM 10.58 51.044 0.27 7.58 19.1 9.42
1/2/2022 11:45:00 AM 10.61 51.098 0.27 7.58 17.6 9.46
1/2/2022 12:00:00 PM 10.64 51.152 0.271 7.59 17.19 9.5
1/2/2022 12:15:00 PM 10.71 51.278 0.271 7.6 26.42 9.52
1/2/2022 12:30:00 PM 10.74 51.332 0.271 7.61 19.78 9.59
1/2/2022 12:45:00 PM 10.78 51.404 0.272 7.62 15.12 9.65
1/2/2022 1:00:00 PM 10.83 51.494 0.272 7.63 14.69 9.69
1/2/2022 1:15:00 PM 10.87 51.566 0.272 7.65 13.2 9.74
1/2/2022 1:30:00 PM 10.89 51.602 0.271 7.66 14.75 9.75
1/2/2022 1:45:00 PM 10.92 51.656 0.271 7.66 49.71 9.76
1/2/2022 2:00:00 PM 10.93 51.674 0.27 7.67 22.14 9.79
1/2/2022 2:15:00 PM 10.95 51.71 0.269 7.68 14.46 9.77
1/2/2022 2:30:00 PM 10.97 51.746 0.269 7.68 11.68 9.82
1/2/2022 2:45:00 PM 10.98 51.764 0.268 7.68 14.82 9.81
1/2/2022 3:00:00 PM 11 51.8 0.267 7.69 11.64 9.87
1/2/2022 3:15:00 PM 11.02 51.836 0.266 7.7 13.55 9.86
1/2/2022 3:30:00 PM 11.02 51.836 0.266 7.7 15 9.85
1/2/2022 3:45:00 PM 11.02 51.836 0.266 7.71 12.75 9.85
1/2/2022 4:00:00 PM 11.02 51.836 0.265 7.71 15.49 9.85
1/2/2022 4:15:00 PM 11.02 51.836 0.264 7.71 14.55 9.79
1/2/2022 4:30:00 PM 11 51.8 0.264 7.71 11.72 9.77
1/2/2022 4:45:00 PM 10.98 51.764 0.262 7.71 11.28 9.73
1/2/2022 5:00:00 PM 10.96 51.728 0.261 7.71 15.59 9.71
1/2/2022 5:15:00 PM 10.93 51.674 0.26 7.7 14.41 9.68
1/2/2022 5:30:00 PM 10.9 51.62 0.258 7.7 11.05 9.64
1/2/2022 5:45:00 PM 10.87 51.566 0.257 7.7 12.35 9.67
1/2/2022 6:00:00 PM 10.85 51.53 0.256 7.7 13.96 9.65
1/2/2022 6:15:00 PM 10.83 51.494 0.256 7.7 32.84 9.63
1/2/2022 6:30:00 PM 10.81 51.458 0.256 7.7 12.43 9.58
1/2/2022 6:45:00 PM 10.78 51.404 0.257 7.7 11.6 9.59
1/2/2022 7:00:00 PM 10.76 51.368 0.257 7.71 15.3 9.59
1/2/2022 7:15:00 PM 10.73 51.314 0.257 7.7 11.4 9.53
1/2/2022 7:30:00 PM 10.71 51.278 0.256 7.7 10.38 9.54
1/2/2022 7:45:00 PM 10.67 51.206 0.255 7.7 13.71 9.55
1/2/2022 8:00:00 PM 10.63 51.134 0.254 7.7 15.38 9.54
1/2/2022 8:15:00 PM 10.6 51.08 0.253 7.7 15.14 9.53
1/2/2022 8:30:00 PM 10.56 51.008 0.252 7.7 10.4 9.5
1/2/2022 8:45:00 PM 10.53 50.954 0.252 7.7 12.19 9.46
1/2/2022 9:00:00 PM 10.5 50.9 0.251 7.71 11.98 9.48
1/2/2022 9:15:00 PM 10.47 50.846 0.251 7.7 16.53 9.49
1/2/2022 9:30:00 PM 10.44 50.792 0.251 7.69 10.54 9.47
1/2/2022 9:45:00 PM 10.4 50.72 0.251 7.69 11.28 9.46
1/2/2022 10:00:00 PM 10.37 50.666 0.252 7.68 10.28 9.45
1/2/2022 10:15:00 PM 10.32 50.576 0.253 7.67 10.31 9.35
1/2/2022 10:30:00 PM 10.29 50.522 0.252 7.66 12.8 9.4
1/2/2022 10:45:00 PM 10.26 50.468 0.252 7.67 10.69 9.44
1/2/2022 11:00:00 PM 10.2 50.36 0.251 7.67 10.82 9.44
1/2/2022 11:15:00 PM 10.17 50.306 0.249 7.67 12.56 9.43
1/2/2022 11:30:00 PM 10.12 50.216 0.249 7.66 12.12 9.41
1/2/2022 11:45:00 PM 10.08 50.144 0.248 7.66 10.19 9.43
1/3/2022 12:00:00 AM 10.03 50.054 0.248 7.66 11.73 9.44
1/3/2022 12:15:00 AM 9.98 49.964 0.248 7.66 13.69 9.42
1/3/2022 12:30:00 AM 9.94 49.892 0.248 7.66 12.6 9.41
1/3/2022 12:45:00 AM 9.9 49.82 0.249 7.66 13.86 9.43
1/3/2022 1:00:00 AM 9.86 49.748 0.25 7.65 11.58 9.41
1/3/2022 1:15:00 AM 9.82 49.676 0.252 7.65 10.98 9.38
1/3/2022 1:30:00 AM 9.77 49.586 0.252 7.64 10.78 9.44
1/3/2022 1:45:00 AM 9.72 49.496 0.252 7.64 12.54 9.45
1/3/2022 2:00:00 AM 9.67 49.406 0.252 7.64 13.09 9.45
1/3/2022 2:15:00 AM 9.62 49.316 0.251 7.65 9.1 9.49
1/3/2022 2:30:00 AM 9.57 49.226 0.25 7.64 11.3 9.45
1/3/2022 2:45:00 AM 9.52 49.136 0.245 7.63 11.34 9.44
1/3/2022 3:00:00 AM 9.46 49.028 0.249 7.63 10.2 9.49
1/3/2022 3:15:00 AM 9.41 48.938 0.249 7.63 11 9.47
1/3/2022 3:30:00 AM 9.35 48.83 0.248 7.63 11.66 9.5
1/3/2022 3:45:00 AM 9.31 48.758 0.249 7.63 11.33 9.52
1/3/2022 4:00:00 AM 9.26 48.668 0.25 7.63 12.23 9.51
1/3/2022 4:15:00 AM 9.22 48.596 0.251 7.63 13.09 9.52
1/3/2022 4:30:00 AM 9.18 48.524 0.251 7.63 13.76 9.52
1/3/2022 4:45:00 AM 9.11 48.398 0.252 7.63 12.78 9.52
1/3/2022 5:00:00 AM 9.06 48.308 0.251 7.63 10.83 9.57
1/3/2022 5:15:00 AM 9 48.2 0.251 7.63 26.1 9.59
1/3/2022 5:30:00 AM 8.97 48.146 0.25 7.63 11.47 9.6
1/3/2022 5:45:00 AM 8.91 48.038 0.249 7.63 12.9 9.56
1/3/2022 6:00:00 AM 8.85 47.93 0.249 7.63 11.52 9.66
1/3/2022 6:15:00 AM 8.79 47.822 0.248 7.62 19.22 9.64
1/3/2022 6:30:00 AM 8.75 47.75 0.248 7.63 12.36 9.65
1/3/2022 6:45:00 AM 8.69 47.642 0.248 7.64 12.38 9.68
1/3/2022 7:00:00 AM 8.65 47.57 0.249 7.63 11.06 9.64
1/3/2022 7:15:00 AM 8.6 47.48 0.25 7.63 9.77 9.69
1/3/2022 7:30:00 AM 8.54 47.372 0.252 7.62 9.81 9.66
1/3/2022 7:45:00 AM 8.5 47.3 0.252 7.62 12.84 9.67
1/3/2022 8:00:00 AM 8.48 47.264 0.247 7.62 69.99 9.68
1/3/2022 8:15:00 AM 8.4 47.12 0.247 7.62 9.96 9.66
1/3/2022 8:30:00 AM 8.36 47.048 0.247 7.61 8.57 9.74
1/3/2022 8:45:00 AM 8.29 46.922 0.251 7.61 6.86 9.79
1/3/2022 9:00:00 AM 8.26 46.868 0.251 7.61 7.14 9.81
1/3/2022 9:15:00 AM 8.2 46.76 0.251 7.61 7.17 9.8
1/3/2022 9:30:00 AM 8.15 46.67 0.25 7.62 9.07 9.87
1/3/2022 9:45:00 AM 8.09 46.562 0.25 7.62 10.55 9.91
1/3/2022 10:00:00 AM 8.02 46.436 0.251 7.63 7.93 9.93
1/3/2022 10:15:00 AM 8 46.4 0.251 7.63 8.09 9.95
1/3/2022 10:30:00 AM 7.98 46.364 0.252 7.64 7.7 10.03
1/3/2022 10:45:00 AM 7.91 46.238 0.253 7.64 7.04 10.07
1/3/2022 11:00:00 AM 7.86 46.148 0.254 7.65 9.33 10.13
1/3/2022 11:15:00 AM 7.81 46.058 0.254 7.66 8.08 10.18
1/3/2022 11:30:00 AM 7.78 46.004 0.254 7.66 6.92 10.24
1/3/2022 11:45:00 AM 7.75 45.95 0.255 7.67 10.28 10.25
1/3/2022 12:00:00 PM 7.67 45.806 0.255 7.67 8.34 10.3
1/3/2022 12:15:00 PM 7.63 45.734 0.255 7.68 8.47 10.33
1/3/2022 12:30:00 PM 7.59 45.662 0.255 7.68 6.79 10.38
1/3/2022 12:45:00 PM 7.55 45.59 0.255 7.69 7.61 10.44
1/3/2022 1:00:00 PM 7.47 45.446 0.255 7.7 8.38 10.54
1/3/2022 1:15:00 PM 7.47 45.446 0.255 7.7 7.71 10.53
1/3/2022 1:30:00 PM 7.43 45.374 0.256 7.71 7.97 10.67
1/3/2022 1:45:00 PM 7.41 45.338 0.256 7.72 7 10.73
1/3/2022 2:00:00 PM 7.38 45.284 0.257 7.73 7.01 10.8
1/3/2022 2:15:00 PM 7.35 45.23 0.258 7.74 6.91 10.9
1/3/2022 2:30:00 PM 7.31 45.158 0.258 7.74 7.48 10.97
1/3/2022 2:45:00 PM 7.28 45.104 0.258 7.75 6.44 11.01
1/3/2022 3:00:00 PM 7.28 45.104 0.259 7.77 14.58 11.06
1/3/2022 3:15:00 PM 7.22 44.996 0.259 7.78 7.2 11.12
1/3/2022 3:30:00 PM 7.18 44.924 0.259 7.79 7.06 11.15
1/3/2022 3:45:00 PM 7.14 44.852 0.259 7.79 7.4 11.19
1/3/2022 4:00:00 PM 7.08 44.744 0.259 7.8 7.02 11.2
1/3/2022 4:15:00 PM 7.04 44.672 0.259 7.81 6.69 11.21
1/3/2022 4:30:00 PM 6.96 44.528 0.26 7.81 6.38 11.16
1/3/2022 4:45:00 PM 6.92 44.456 0.26 7.82 7.04 11.15
1/3/2022 5:00:00 PM 6.85 44.33 0.261 7.83 6.7 11.22
1/3/2022 5:15:00 PM 6.83 44.294 0.261 7.84 7.76 11.04
1/3/2022 5:30:00 PM 6.77 44.186 0.262 7.84 7.31 11.13
1/3/2022 5:45:00 PM 6.71 44.078 0.262 7.85 8.06 11.17
1/3/2022 6:00:00 PM 6.67 44.006 0.262 7.85 6.38 11.16
1/3/2022 6:15:00 PM 6.6 43.88 0.262 7.85 6.68 11.13
1/3/2022 6:30:00 PM 6.57 43.826 0.262 7.85 6.41 11.14
1/3/2022 6:45:00 PM 6.46 43.628 0.262 7.84 8.85 11.09
1/3/2022 7:00:00 PM 6.42 43.556 0.262 7.84 7.33 11.1
1/3/2022 7:15:00 PM 6.4 43.52 0.262 7.84 8.05 11.07
1/3/2022 7:30:00 PM 6.29 43.322 0.263 7.83 6.49 11.05
1/3/2022 7:45:00 PM 6.23 43.214 0.264 7.83 6.26 10.97
1/3/2022 8:00:00 PM 6.19 43.142 0.265 7.83 6.44 11.02
1/3/2022 8:15:00 PM 6.16 43.088 0.266 7.82 6.02 10.99
1/3/2022 8:30:00 PM 6.11 42.998 0.267 7.82 10.08 10.99
1/3/2022 8:45:00 PM 6.03 42.854 0.267 7.81 5.9 11.02
1/3/2022 9:00:00 PM 6 42.8 0.267 7.81 6.75 11.04
1/3/2022 9:15:00 PM 5.95 42.71 0.267 7.81 6.96 11.02
1/3/2022 9:30:00 PM 5.9 42.62 0.267 7.81 6.69 11.01
1/3/2022 9:45:00 PM 5.83 42.494 0.266 7.8 6.17 11.05
1/3/2022 10:00:00 PM 5.8 42.44 0.266 7.8 12.29 11.05
1/3/2022 10:15:00 PM 5.8 42.44 0.266 7.8 6.27 10.9
1/3/2022 10:30:00 PM 5.73 42.314 0.266 7.8 6.84 10.99
1/3/2022 10:45:00 PM 5.68 42.224 0.267 7.79 5.49 11.03
1/3/2022 11:00:00 PM 5.61 42.098 0.268 7.79 5.95 11
1/3/2022 11:15:00 PM 5.57 42.026 0.269 7.79 6.55 11.07
1/3/2022 11:30:00 PM 5.56 42.008 0.271 7.79 7.71 11.07
1/3/2022 11:45:00 PM 5.5 41.9 0.27 7.79 6.72 11.05
1/4/2022 12:00:00 AM 5.45 41.81 0.27 7.79 6.14 11.03
1/4/2022 12:15:00 AM 5.43 41.774 0.271 7.79 9.34 11.08
1/4/2022 12:30:00 AM 5.37 41.666 0.271 7.79 10.84 11.04
1/4/2022 12:45:00 AM 5.37 41.666 0.269 7.78 6.14 10.89
1/4/2022 1:00:00 AM 5.36 41.648 0.269 7.78 5.95 10.83
1/4/2022 1:15:00 AM 5.26 41.468 0.265 7.8 9.19 11.12
1/4/2022 1:30:00 AM 5.16 41.288 0.268 7.79 5.97 11.12
1/4/2022 1:45:00 AM 5.12 41.216 0.27 7.8 5.64 11.17
1/4/2022 2:00:00 AM 5.03 41.054 0.27 7.78 6.05 11.07
1/4/2022 2:15:00 AM 5.04 41.072 0.271 7.78 6.6 11.09
1/4/2022 2:30:00 AM 4.97 40.946 0.272 7.78 7.39 11.16
1/4/2022 2:45:00 AM 4.93 40.874 0.27 7.78 6.22 11.08
1/4/2022 3:00:00 AM 4.87 40.766 0.249 7.78 6 11.13
1/4/2022 3:15:00 AM 4.85 40.73 0.268 7.78 5.91 11.18
1/4/2022 3:30:00 AM 4.81 40.658 0.273 7.78 6.1 11.23
1/4/2022 3:45:00 AM 4.76 40.568 0.273 7.78 6.29 11.24
1/4/2022 4:00:00 AM 4.7 40.46 0.272 7.78 6.22 11.28
1/4/2022 4:15:00 AM 4.66 40.388 0.272 7.79 5.49 11.27
1/4/2022 4:30:00 AM 4.63 40.334 0.272 7.78 5.38 11.25
1/4/2022 4:45:00 AM 4.57 40.226 0.272 7.78 6.34 11.32
1/4/2022 5:00:00 AM 4.53 40.154 0.273 7.77 5.84 11.33
1/4/2022 5:15:00 AM 4.47 40.046 0.274 7.78 6.72 11.35
1/4/2022 5:30:00 AM 4.43 39.974 0.275 7.78 8.87 11.34
1/4/2022 5:45:00 AM 4.4 39.92 0.276 7.78 6.39 11.4
1/4/2022 6:00:00 AM 4.33 39.794 0.276 7.78 5.71 11.33
1/4/2022 6:15:00 AM 4.31 39.758 0.276 7.78 5.89 11.41
1/4/2022 6:30:00 AM 4.25 39.65 0.276 7.78 6.53 11.42
1/4/2022 6:45:00 AM 4.22 39.596 0.275 7.78 5.81 11.43
1/4/2022 7:00:00 AM 4.15 39.47 0.275 7.78 6.6 11.36
1/4/2022 7:15:00 AM 4.11 39.398 0.274 7.78 6.89 11.45
1/4/2022 7:30:00 AM 4.08 39.344 0.274 7.78 6.01 11.48
1/4/2022 7:45:00 AM 4.01 39.218 0.275 7.78 5.97 11.52
1/4/2022 8:00:00 AM 3.99 39.182 0.275 7.78 5.03 11.53
1/4/2022 8:15:00 AM 3.96 39.128 0.277 7.78 8.12 11.56
1/4/2022 8:30:00 AM 3.95 39.11 0.278 7.79 4.94 11.6
1/4/2022 8:45:00 AM 3.94 39.092 0.278 7.79 5.48 11.65
1/4/2022 9:00:00 AM 3.93 39.074 0.279 7.79 5.83 11.62
1/4/2022 9:15:00 AM 3.92 39.056 0.279 7.79 5.1 11.66
1/4/2022 9:30:00 AM 3.91 39.038 0.278 7.8 6.22 11.81
1/4/2022 9:45:00 AM 3.92 39.056 0.278 7.81 5.55 11.87
1/4/2022 10:00:00 AM